<?xml version="1.0" encoding="UTF-8" standalone="no" ?>
<gpx xmlns="http://www.topografix.com/GPX/1/1" xmlns:xsi="http://www.w3.org/2001/XMLSchema-instance" xsi:schemaLocation="http://www.topografix.com/GPX/1/1 http://www.topografix.com/GPX/1/1/gpx.xsd" version="1.1" creator="VisuGPX - https://www.visugpx.com">
  <metadata>
    <name>2019-05-09 09:06</name>
    <desc><![CDATA[roc de la vigne et Mas d'agre depuis les Lavagnes]]></desc>
  </metadata>
  <wpt lat="43.77802" lon="3.54057">
    <ele>550.49</ele>
    <name><![CDATA[0000492]]></name>
    <desc><![CDATA[]]></desc>
    <type><![CDATA[Point de départ]]></type>
  </wpt>
  <wpt lat="43.77804" lon="3.5405">
    <ele>551.64</ele>
    <name><![CDATA[0000493]]></name>
    <desc><![CDATA[<br /><h3>Nom: Segment 1</h3><br /><p>Temps de départ: 05/09/2019 09:06</p><p>Temps d'arrivée: 05/09/2019 15:06</p><p>Distance: 16,3km (05:59)</p><p>Temps déplacement: 03:47</p><p>Vitesse moyenne: 2,7km/h</p><p>Vitesse moyenne: 4,3km/h</p><p>Vitess Max.: 20,9km/h</p><p>Altitude minimale: 456m</p><p>Altitude maximale: 703m</p><p>Vitesse d'élévation: 291,9m/h</p><p>Vitesse de descente: -251,3m/h</p><p>Gain Altitude: 746m</p><p>Perte Altitude: -750m</p><p>Temps d'élévation: 02:33</p><p>Temps de descente: 02:59</p>]]></desc>
    <type><![CDATA[Point d'arrivée]]></type>
  </wpt>
  <trk>
    <name><![CDATA[2019-05-09 09:06]]></name>
    <desc><![CDATA[<h1>OruxMaps</h1><br /><hr align="center" width="480" style="height: 2px; width: 517px"/><h2>Nom: 2019-05-09 09:06</h2><br /><p>Temps de départ: 05/09/2019 09:06</p><p>Temps d'arrivée: 05/09/2019 15:06</p><p>Distance: 16,3km (05:59)</p><p>Temps déplacement: 03:47</p><p>Vitesse moyenne: 2,7km/h</p><p>Vitesse moyenne: 4,3km/h</p><p>Vitess Max.: 20,9km/h</p><p>Altitude minimale: 456m</p><p>Altitude maximale: 703m</p><p>Vitesse d'élévation: 291,9m/h</p><p>Vitesse de descente: -251,3m/h</p><p>Gain Altitude: 746m</p><p>Perte Altitude: -750m</p><p>Temps d'élévation: 02:33</p><p>Temps de descente: 02:59</p><hr align="center" width="480" style="height: 2px; width: 517px"/>]]></desc>
    <trkseg>
      <trkpt lat="43.77802" lon="3.54057">
        <ele>550.49</ele>
        <time>2019-05-09T07:06:26Z</time>
      </trkpt>
      <trkpt lat="43.7781" lon="3.54064">
        <ele>553.4</ele>
        <time>2019-05-09T07:08:14Z</time>
      </trkpt>
      <trkpt lat="43.77815" lon="3.54077">
        <ele>555.23</ele>
        <time>2019-05-09T07:08:24Z</time>
      </trkpt>
      <trkpt lat="43.77819" lon="3.54089">
        <ele>553.74</ele>
        <time>2019-05-09T07:08:32Z</time>
      </trkpt>
      <trkpt lat="43.77822" lon="3.54102">
        <ele>553.9</ele>
        <time>2019-05-09T07:08:40Z</time>
      </trkpt>
      <trkpt lat="43.77828" lon="3.54115">
        <ele>555.02</ele>
        <time>2019-05-09T07:08:50Z</time>
      </trkpt>
      <trkpt lat="43.77834" lon="3.54127">
        <ele>554.73</ele>
        <time>2019-05-09T07:08:58Z</time>
      </trkpt>
      <trkpt lat="43.7784" lon="3.5414">
        <ele>556.02</ele>
        <time>2019-05-09T07:09:06Z</time>
      </trkpt>
      <trkpt lat="43.77844" lon="3.54154">
        <ele>556.92</ele>
        <time>2019-05-09T07:09:14Z</time>
      </trkpt>
      <trkpt lat="43.77846" lon="3.54169">
        <ele>557.54</ele>
        <time>2019-05-09T07:09:22Z</time>
      </trkpt>
      <trkpt lat="43.77847" lon="3.54184">
        <ele>560.39</ele>
        <time>2019-05-09T07:09:30Z</time>
      </trkpt>
      <trkpt lat="43.77849" lon="3.542">
        <ele>558.03</ele>
        <time>2019-05-09T07:10:00Z</time>
      </trkpt>
      <trkpt lat="43.77848" lon="3.54212">
        <ele>559.63</ele>
        <time>2019-05-09T07:10:06Z</time>
      </trkpt>
      <trkpt lat="43.77848" lon="3.54228">
        <ele>558.52</ele>
        <time>2019-05-09T07:10:14Z</time>
      </trkpt>
      <trkpt lat="43.77849" lon="3.54243">
        <ele>560.14</ele>
        <time>2019-05-09T07:10:22Z</time>
      </trkpt>
      <trkpt lat="43.7785" lon="3.54259">
        <ele>563.67</ele>
        <time>2019-05-09T07:10:30Z</time>
      </trkpt>
      <trkpt lat="43.77853" lon="3.54274">
        <ele>565.9</ele>
        <time>2019-05-09T07:10:38Z</time>
      </trkpt>
      <trkpt lat="43.77856" lon="3.54287">
        <ele>565.6</ele>
        <time>2019-05-09T07:10:46Z</time>
      </trkpt>
      <trkpt lat="43.77862" lon="3.54299">
        <ele>567.05</ele>
        <time>2019-05-09T07:10:56Z</time>
      </trkpt>
      <trkpt lat="43.77862" lon="3.54311">
        <ele>562.88</ele>
        <time>2019-05-09T07:11:14Z</time>
      </trkpt>
      <trkpt lat="43.77866" lon="3.54323">
        <ele>565.36</ele>
        <time>2019-05-09T07:11:20Z</time>
      </trkpt>
      <trkpt lat="43.77869" lon="3.54338">
        <ele>565.25</ele>
        <time>2019-05-09T07:11:28Z</time>
      </trkpt>
      <trkpt lat="43.77873" lon="3.54352">
        <ele>565.56</ele>
        <time>2019-05-09T07:11:36Z</time>
      </trkpt>
      <trkpt lat="43.77878" lon="3.54366">
        <ele>566.08</ele>
        <time>2019-05-09T07:11:44Z</time>
      </trkpt>
      <trkpt lat="43.7788" lon="3.54379">
        <ele>567.26</ele>
        <time>2019-05-09T07:11:50Z</time>
      </trkpt>
      <trkpt lat="43.77886" lon="3.54393">
        <ele>564.49</ele>
        <time>2019-05-09T07:11:58Z</time>
      </trkpt>
      <trkpt lat="43.7789" lon="3.54408">
        <ele>565.26</ele>
        <time>2019-05-09T07:12:06Z</time>
      </trkpt>
      <trkpt lat="43.77894" lon="3.54419">
        <ele>565.4</ele>
        <time>2019-05-09T07:12:18Z</time>
      </trkpt>
      <trkpt lat="43.77899" lon="3.54433">
        <ele>567.25</ele>
        <time>2019-05-09T07:12:26Z</time>
      </trkpt>
      <trkpt lat="43.77899" lon="3.54447">
        <ele>568.93</ele>
        <time>2019-05-09T07:12:34Z</time>
      </trkpt>
      <trkpt lat="43.77896" lon="3.54463">
        <ele>567.47</ele>
        <time>2019-05-09T07:12:42Z</time>
      </trkpt>
      <trkpt lat="43.77892" lon="3.54478">
        <ele>567.45</ele>
        <time>2019-05-09T07:12:50Z</time>
      </trkpt>
      <trkpt lat="43.77889" lon="3.54493">
        <ele>568.07</ele>
        <time>2019-05-09T07:12:58Z</time>
      </trkpt>
      <trkpt lat="43.77887" lon="3.54505">
        <ele>568.3</ele>
        <time>2019-05-09T07:13:06Z</time>
      </trkpt>
      <trkpt lat="43.77888" lon="3.54521">
        <ele>569.38</ele>
        <time>2019-05-09T07:13:16Z</time>
      </trkpt>
      <trkpt lat="43.77893" lon="3.54535">
        <ele>571.75</ele>
        <time>2019-05-09T07:13:24Z</time>
      </trkpt>
      <trkpt lat="43.77899" lon="3.54547">
        <ele>572.59</ele>
        <time>2019-05-09T07:13:32Z</time>
      </trkpt>
      <trkpt lat="43.77906" lon="3.54559">
        <ele>571.2</ele>
        <time>2019-05-09T07:13:40Z</time>
      </trkpt>
      <trkpt lat="43.77912" lon="3.54572">
        <ele>568.8</ele>
        <time>2019-05-09T07:13:48Z</time>
      </trkpt>
      <trkpt lat="43.77919" lon="3.54585">
        <ele>568.34</ele>
        <time>2019-05-09T07:13:56Z</time>
      </trkpt>
      <trkpt lat="43.77926" lon="3.54599">
        <ele>568.44</ele>
        <time>2019-05-09T07:14:04Z</time>
      </trkpt>
      <trkpt lat="43.77931" lon="3.54613">
        <ele>568.51</ele>
        <time>2019-05-09T07:14:12Z</time>
      </trkpt>
      <trkpt lat="43.77935" lon="3.54628">
        <ele>569.14</ele>
        <time>2019-05-09T07:14:20Z</time>
      </trkpt>
      <trkpt lat="43.77933" lon="3.54643">
        <ele>569.55</ele>
        <time>2019-05-09T07:14:28Z</time>
      </trkpt>
      <trkpt lat="43.77928" lon="3.54657">
        <ele>569.08</ele>
        <time>2019-05-09T07:14:36Z</time>
      </trkpt>
      <trkpt lat="43.77922" lon="3.5467">
        <ele>569.36</ele>
        <time>2019-05-09T07:14:44Z</time>
      </trkpt>
      <trkpt lat="43.77918" lon="3.54682">
        <ele>568.88</ele>
        <time>2019-05-09T07:14:52Z</time>
      </trkpt>
      <trkpt lat="43.77912" lon="3.54695">
        <ele>566.78</ele>
        <time>2019-05-09T07:15:00Z</time>
      </trkpt>
      <trkpt lat="43.77907" lon="3.54709">
        <ele>564.96</ele>
        <time>2019-05-09T07:15:08Z</time>
      </trkpt>
      <trkpt lat="43.77906" lon="3.54724">
        <ele>564.23</ele>
        <time>2019-05-09T07:15:16Z</time>
      </trkpt>
      <trkpt lat="43.77906" lon="3.54738">
        <ele>566.68</ele>
        <time>2019-05-09T07:15:24Z</time>
      </trkpt>
      <trkpt lat="43.77908" lon="3.54754">
        <ele>568.4</ele>
        <time>2019-05-09T07:15:32Z</time>
      </trkpt>
      <trkpt lat="43.77913" lon="3.54766">
        <ele>565.69</ele>
        <time>2019-05-09T07:15:40Z</time>
      </trkpt>
      <trkpt lat="43.7792" lon="3.54776">
        <ele>565.15</ele>
        <time>2019-05-09T07:15:48Z</time>
      </trkpt>
      <trkpt lat="43.77927" lon="3.54789">
        <ele>565.18</ele>
        <time>2019-05-09T07:15:56Z</time>
      </trkpt>
      <trkpt lat="43.77931" lon="3.54802">
        <ele>566.05</ele>
        <time>2019-05-09T07:16:04Z</time>
      </trkpt>
      <trkpt lat="43.77939" lon="3.54813">
        <ele>567.29</ele>
        <time>2019-05-09T07:16:12Z</time>
      </trkpt>
      <trkpt lat="43.77944" lon="3.54824">
        <ele>567.54</ele>
        <time>2019-05-09T07:16:18Z</time>
      </trkpt>
      <trkpt lat="43.77951" lon="3.54836">
        <ele>568.39</ele>
        <time>2019-05-09T07:16:26Z</time>
      </trkpt>
      <trkpt lat="43.77956" lon="3.54848">
        <ele>567.44</ele>
        <time>2019-05-09T07:16:34Z</time>
      </trkpt>
      <trkpt lat="43.7796" lon="3.54862">
        <ele>567.44</ele>
        <time>2019-05-09T07:16:42Z</time>
      </trkpt>
      <trkpt lat="43.77964" lon="3.54876">
        <ele>567.88</ele>
        <time>2019-05-09T07:16:50Z</time>
      </trkpt>
      <trkpt lat="43.77971" lon="3.5489">
        <ele>570.03</ele>
        <time>2019-05-09T07:16:58Z</time>
      </trkpt>
      <trkpt lat="43.77977" lon="3.54903">
        <ele>571.42</ele>
        <time>2019-05-09T07:17:06Z</time>
      </trkpt>
      <trkpt lat="43.77983" lon="3.54917">
        <ele>570.38</ele>
        <time>2019-05-09T07:17:14Z</time>
      </trkpt>
      <trkpt lat="43.7799" lon="3.54926">
        <ele>570.61</ele>
        <time>2019-05-09T07:17:28Z</time>
      </trkpt>
      <trkpt lat="43.77994" lon="3.54939">
        <ele>569.31</ele>
        <time>2019-05-09T07:17:42Z</time>
      </trkpt>
      <trkpt lat="43.78001" lon="3.54953">
        <ele>566.94</ele>
        <time>2019-05-09T07:18:10Z</time>
      </trkpt>
      <trkpt lat="43.78009" lon="3.54962">
        <ele>569.62</ele>
        <time>2019-05-09T07:18:16Z</time>
      </trkpt>
      <trkpt lat="43.78015" lon="3.54971">
        <ele>573.08</ele>
        <time>2019-05-09T07:18:24Z</time>
      </trkpt>
      <trkpt lat="43.78019" lon="3.54984">
        <ele>575.42</ele>
        <time>2019-05-09T07:18:32Z</time>
      </trkpt>
      <trkpt lat="43.78024" lon="3.54994">
        <ele>576.56</ele>
        <time>2019-05-09T07:18:38Z</time>
      </trkpt>
      <trkpt lat="43.78031" lon="3.55005">
        <ele>576.7</ele>
        <time>2019-05-09T07:18:46Z</time>
      </trkpt>
      <trkpt lat="43.78037" lon="3.55016">
        <ele>577.52</ele>
        <time>2019-05-09T07:18:54Z</time>
      </trkpt>
      <trkpt lat="43.78044" lon="3.55026">
        <ele>577.82</ele>
        <time>2019-05-09T07:19:02Z</time>
      </trkpt>
      <trkpt lat="43.78053" lon="3.55036">
        <ele>577.97</ele>
        <time>2019-05-09T07:19:10Z</time>
      </trkpt>
      <trkpt lat="43.78061" lon="3.55046">
        <ele>577.66</ele>
        <time>2019-05-09T07:19:18Z</time>
      </trkpt>
      <trkpt lat="43.7807" lon="3.55055">
        <ele>577.64</ele>
        <time>2019-05-09T07:19:26Z</time>
      </trkpt>
      <trkpt lat="43.7808" lon="3.55062">
        <ele>578.02</ele>
        <time>2019-05-09T07:19:34Z</time>
      </trkpt>
      <trkpt lat="43.78089" lon="3.55071">
        <ele>579.04</ele>
        <time>2019-05-09T07:19:42Z</time>
      </trkpt>
      <trkpt lat="43.78097" lon="3.55082">
        <ele>578.73</ele>
        <time>2019-05-09T07:19:50Z</time>
      </trkpt>
      <trkpt lat="43.78102" lon="3.55096">
        <ele>579.09</ele>
        <time>2019-05-09T07:19:58Z</time>
      </trkpt>
      <trkpt lat="43.78106" lon="3.55111">
        <ele>578.67</ele>
        <time>2019-05-09T07:20:06Z</time>
      </trkpt>
      <trkpt lat="43.78109" lon="3.55126">
        <ele>578.58</ele>
        <time>2019-05-09T07:20:14Z</time>
      </trkpt>
      <trkpt lat="43.7811" lon="3.55142">
        <ele>577.08</ele>
        <time>2019-05-09T07:20:22Z</time>
      </trkpt>
      <trkpt lat="43.78112" lon="3.55156">
        <ele>576.67</ele>
        <time>2019-05-09T07:20:30Z</time>
      </trkpt>
      <trkpt lat="43.78113" lon="3.55172">
        <ele>576.33</ele>
        <time>2019-05-09T07:20:38Z</time>
      </trkpt>
      <trkpt lat="43.78113" lon="3.55188">
        <ele>577</ele>
        <time>2019-05-09T07:20:46Z</time>
      </trkpt>
      <trkpt lat="43.78111" lon="3.55202">
        <ele>574.98</ele>
        <time>2019-05-09T07:20:54Z</time>
      </trkpt>
      <trkpt lat="43.78108" lon="3.55215">
        <ele>574.6</ele>
        <time>2019-05-09T07:21:02Z</time>
      </trkpt>
      <trkpt lat="43.78101" lon="3.55225">
        <ele>572.64</ele>
        <time>2019-05-09T07:21:10Z</time>
      </trkpt>
      <trkpt lat="43.78094" lon="3.55234">
        <ele>570.77</ele>
        <time>2019-05-09T07:21:18Z</time>
      </trkpt>
      <trkpt lat="43.78084" lon="3.55244">
        <ele>570.34</ele>
        <time>2019-05-09T07:21:26Z</time>
      </trkpt>
      <trkpt lat="43.78076" lon="3.55254">
        <ele>570.5</ele>
        <time>2019-05-09T07:21:34Z</time>
      </trkpt>
      <trkpt lat="43.78068" lon="3.55263">
        <ele>570.57</ele>
        <time>2019-05-09T07:21:40Z</time>
      </trkpt>
      <trkpt lat="43.78061" lon="3.55274">
        <ele>571.01</ele>
        <time>2019-05-09T07:21:48Z</time>
      </trkpt>
      <trkpt lat="43.78054" lon="3.55286">
        <ele>572.48</ele>
        <time>2019-05-09T07:21:56Z</time>
      </trkpt>
      <trkpt lat="43.78049" lon="3.55299">
        <ele>571.7</ele>
        <time>2019-05-09T07:22:04Z</time>
      </trkpt>
      <trkpt lat="43.78044" lon="3.55313">
        <ele>571.15</ele>
        <time>2019-05-09T07:22:12Z</time>
      </trkpt>
      <trkpt lat="43.78043" lon="3.55328">
        <ele>571.93</ele>
        <time>2019-05-09T07:22:20Z</time>
      </trkpt>
      <trkpt lat="43.78039" lon="3.55342">
        <ele>572.35</ele>
        <time>2019-05-09T07:22:28Z</time>
      </trkpt>
      <trkpt lat="43.78034" lon="3.55353">
        <ele>570.81</ele>
        <time>2019-05-09T07:22:36Z</time>
      </trkpt>
      <trkpt lat="43.7803" lon="3.55367">
        <ele>570.84</ele>
        <time>2019-05-09T07:22:44Z</time>
      </trkpt>
      <trkpt lat="43.78025" lon="3.5538">
        <ele>572.41</ele>
        <time>2019-05-09T07:22:52Z</time>
      </trkpt>
      <trkpt lat="43.78021" lon="3.55394">
        <ele>574.13</ele>
        <time>2019-05-09T07:23:00Z</time>
      </trkpt>
      <trkpt lat="43.78015" lon="3.55407">
        <ele>574.05</ele>
        <time>2019-05-09T07:23:08Z</time>
      </trkpt>
      <trkpt lat="43.7801" lon="3.55421">
        <ele>573.61</ele>
        <time>2019-05-09T07:23:16Z</time>
      </trkpt>
      <trkpt lat="43.78006" lon="3.55432">
        <ele>572.71</ele>
        <time>2019-05-09T07:23:22Z</time>
      </trkpt>
      <trkpt lat="43.78002" lon="3.55447">
        <ele>573.34</ele>
        <time>2019-05-09T07:23:30Z</time>
      </trkpt>
      <trkpt lat="43.77998" lon="3.5546">
        <ele>573.31</ele>
        <time>2019-05-09T07:23:38Z</time>
      </trkpt>
      <trkpt lat="43.77993" lon="3.55473">
        <ele>573</ele>
        <time>2019-05-09T07:23:46Z</time>
      </trkpt>
      <trkpt lat="43.77989" lon="3.55488">
        <ele>573.54</ele>
        <time>2019-05-09T07:23:54Z</time>
      </trkpt>
      <trkpt lat="43.77982" lon="3.555">
        <ele>575.14</ele>
        <time>2019-05-09T07:24:02Z</time>
      </trkpt>
      <trkpt lat="43.77973" lon="3.55498">
        <ele>577.17</ele>
        <time>2019-05-09T07:24:10Z</time>
      </trkpt>
      <trkpt lat="43.77968" lon="3.55485">
        <ele>577.55</ele>
        <time>2019-05-09T07:24:18Z</time>
      </trkpt>
      <trkpt lat="43.77962" lon="3.55473">
        <ele>579.39</ele>
        <time>2019-05-09T07:24:26Z</time>
      </trkpt>
      <trkpt lat="43.77958" lon="3.5546">
        <ele>579.44</ele>
        <time>2019-05-09T07:24:34Z</time>
      </trkpt>
      <trkpt lat="43.77952" lon="3.55447">
        <ele>579.01</ele>
        <time>2019-05-09T07:24:42Z</time>
      </trkpt>
      <trkpt lat="43.77948" lon="3.55435">
        <ele>580.92</ele>
        <time>2019-05-09T07:24:50Z</time>
      </trkpt>
      <trkpt lat="43.77942" lon="3.55423">
        <ele>581.16</ele>
        <time>2019-05-09T07:24:58Z</time>
      </trkpt>
      <trkpt lat="43.77937" lon="3.55411">
        <ele>581.55</ele>
        <time>2019-05-09T07:25:06Z</time>
      </trkpt>
      <trkpt lat="43.7793" lon="3.55401">
        <ele>581.45</ele>
        <time>2019-05-09T07:25:14Z</time>
      </trkpt>
      <trkpt lat="43.77925" lon="3.55388">
        <ele>583.38</ele>
        <time>2019-05-09T07:25:22Z</time>
      </trkpt>
      <trkpt lat="43.77918" lon="3.55376">
        <ele>582.88</ele>
        <time>2019-05-09T07:25:30Z</time>
      </trkpt>
      <trkpt lat="43.77912" lon="3.55363">
        <ele>581.85</ele>
        <time>2019-05-09T07:25:38Z</time>
      </trkpt>
      <trkpt lat="43.77906" lon="3.55353">
        <ele>581.84</ele>
        <time>2019-05-09T07:25:46Z</time>
      </trkpt>
      <trkpt lat="43.77899" lon="3.55342">
        <ele>582.34</ele>
        <time>2019-05-09T07:25:54Z</time>
      </trkpt>
      <trkpt lat="43.77891" lon="3.55334">
        <ele>582.19</ele>
        <time>2019-05-09T07:26:02Z</time>
      </trkpt>
      <trkpt lat="43.77882" lon="3.55325">
        <ele>583.55</ele>
        <time>2019-05-09T07:26:10Z</time>
      </trkpt>
      <trkpt lat="43.77872" lon="3.55318">
        <ele>586.95</ele>
        <time>2019-05-09T07:26:18Z</time>
      </trkpt>
      <trkpt lat="43.77862" lon="3.55311">
        <ele>586.73</ele>
        <time>2019-05-09T07:26:26Z</time>
      </trkpt>
      <trkpt lat="43.77854" lon="3.55301">
        <ele>587.34</ele>
        <time>2019-05-09T07:26:34Z</time>
      </trkpt>
      <trkpt lat="43.77847" lon="3.5529">
        <ele>588.44</ele>
        <time>2019-05-09T07:26:42Z</time>
      </trkpt>
      <trkpt lat="43.77839" lon="3.55281">
        <ele>589.44</ele>
        <time>2019-05-09T07:26:50Z</time>
      </trkpt>
      <trkpt lat="43.77829" lon="3.55281">
        <ele>589.57</ele>
        <time>2019-05-09T07:26:58Z</time>
      </trkpt>
      <trkpt lat="43.77821" lon="3.55293">
        <ele>591.2</ele>
        <time>2019-05-09T07:27:06Z</time>
      </trkpt>
      <trkpt lat="43.77819" lon="3.55309">
        <ele>592.3</ele>
        <time>2019-05-09T07:27:14Z</time>
      </trkpt>
      <trkpt lat="43.77816" lon="3.55325">
        <ele>591.56</ele>
        <time>2019-05-09T07:27:22Z</time>
      </trkpt>
      <trkpt lat="43.77812" lon="3.5534">
        <ele>592.51</ele>
        <time>2019-05-09T07:27:30Z</time>
      </trkpt>
      <trkpt lat="43.77805" lon="3.55352">
        <ele>594.76</ele>
        <time>2019-05-09T07:27:38Z</time>
      </trkpt>
      <trkpt lat="43.77797" lon="3.55362">
        <ele>596.03</ele>
        <time>2019-05-09T07:27:46Z</time>
      </trkpt>
      <trkpt lat="43.77786" lon="3.55367">
        <ele>595.98</ele>
        <time>2019-05-09T07:27:54Z</time>
      </trkpt>
      <trkpt lat="43.77776" lon="3.55372">
        <ele>597.29</ele>
        <time>2019-05-09T07:28:02Z</time>
      </trkpt>
      <trkpt lat="43.77765" lon="3.55376">
        <ele>596.81</ele>
        <time>2019-05-09T07:28:10Z</time>
      </trkpt>
      <trkpt lat="43.77754" lon="3.55381">
        <ele>597.34</ele>
        <time>2019-05-09T07:28:18Z</time>
      </trkpt>
      <trkpt lat="43.77743" lon="3.55385">
        <ele>596.62</ele>
        <time>2019-05-09T07:28:26Z</time>
      </trkpt>
      <trkpt lat="43.77732" lon="3.55387">
        <ele>596.7</ele>
        <time>2019-05-09T07:28:34Z</time>
      </trkpt>
      <trkpt lat="43.7772" lon="3.55388">
        <ele>596.34</ele>
        <time>2019-05-09T07:28:42Z</time>
      </trkpt>
      <trkpt lat="43.77711" lon="3.55388">
        <ele>596.92</ele>
        <time>2019-05-09T07:28:48Z</time>
      </trkpt>
      <trkpt lat="43.77702" lon="3.55388">
        <ele>594.5</ele>
        <time>2019-05-09T07:28:54Z</time>
      </trkpt>
      <trkpt lat="43.77691" lon="3.55392">
        <ele>592.88</ele>
        <time>2019-05-09T07:29:02Z</time>
      </trkpt>
      <trkpt lat="43.77681" lon="3.55399">
        <ele>595.35</ele>
        <time>2019-05-09T07:29:10Z</time>
      </trkpt>
      <trkpt lat="43.77672" lon="3.55408">
        <ele>597.44</ele>
        <time>2019-05-09T07:29:18Z</time>
      </trkpt>
      <trkpt lat="43.77664" lon="3.55417">
        <ele>597.69</ele>
        <time>2019-05-09T07:29:26Z</time>
      </trkpt>
      <trkpt lat="43.77657" lon="3.55425">
        <ele>597.72</ele>
        <time>2019-05-09T07:29:32Z</time>
      </trkpt>
      <trkpt lat="43.7765" lon="3.55435">
        <ele>595.97</ele>
        <time>2019-05-09T07:29:38Z</time>
      </trkpt>
      <trkpt lat="43.77643" lon="3.55448">
        <ele>596.73</ele>
        <time>2019-05-09T07:29:46Z</time>
      </trkpt>
      <trkpt lat="43.77636" lon="3.5546">
        <ele>595.34</ele>
        <time>2019-05-09T07:29:54Z</time>
      </trkpt>
      <trkpt lat="43.77629" lon="3.55472">
        <ele>593.69</ele>
        <time>2019-05-09T07:30:02Z</time>
      </trkpt>
      <trkpt lat="43.77621" lon="3.55484">
        <ele>592.65</ele>
        <time>2019-05-09T07:30:10Z</time>
      </trkpt>
      <trkpt lat="43.77613" lon="3.55492">
        <ele>592.89</ele>
        <time>2019-05-09T07:30:18Z</time>
      </trkpt>
      <trkpt lat="43.77603" lon="3.555">
        <ele>591.72</ele>
        <time>2019-05-09T07:30:26Z</time>
      </trkpt>
      <trkpt lat="43.77594" lon="3.55505">
        <ele>592.1</ele>
        <time>2019-05-09T07:30:32Z</time>
      </trkpt>
      <trkpt lat="43.77586" lon="3.55512">
        <ele>592.39</ele>
        <time>2019-05-09T07:30:38Z</time>
      </trkpt>
      <trkpt lat="43.77576" lon="3.55518">
        <ele>594.19</ele>
        <time>2019-05-09T07:30:46Z</time>
      </trkpt>
      <trkpt lat="43.77567" lon="3.55524">
        <ele>591.78</ele>
        <time>2019-05-09T07:30:52Z</time>
      </trkpt>
      <trkpt lat="43.77559" lon="3.55534">
        <ele>589.21</ele>
        <time>2019-05-09T07:31:00Z</time>
      </trkpt>
      <trkpt lat="43.77555" lon="3.55546">
        <ele>590.18</ele>
        <time>2019-05-09T07:31:08Z</time>
      </trkpt>
      <trkpt lat="43.77553" lon="3.55559">
        <ele>591.49</ele>
        <time>2019-05-09T07:31:16Z</time>
      </trkpt>
      <trkpt lat="43.77553" lon="3.55573">
        <ele>591.01</ele>
        <time>2019-05-09T07:31:24Z</time>
      </trkpt>
      <trkpt lat="43.77554" lon="3.55589">
        <ele>589.85</ele>
        <time>2019-05-09T07:31:32Z</time>
      </trkpt>
      <trkpt lat="43.77556" lon="3.55604">
        <ele>589.78</ele>
        <time>2019-05-09T07:31:40Z</time>
      </trkpt>
      <trkpt lat="43.77558" lon="3.55618">
        <ele>589.21</ele>
        <time>2019-05-09T07:31:48Z</time>
      </trkpt>
      <trkpt lat="43.77563" lon="3.55631">
        <ele>588.49</ele>
        <time>2019-05-09T07:31:56Z</time>
      </trkpt>
      <trkpt lat="43.77569" lon="3.55644">
        <ele>588.82</ele>
        <time>2019-05-09T07:32:04Z</time>
      </trkpt>
      <trkpt lat="43.77576" lon="3.55657">
        <ele>587.53</ele>
        <time>2019-05-09T07:32:12Z</time>
      </trkpt>
      <trkpt lat="43.77582" lon="3.5567">
        <ele>586.7</ele>
        <time>2019-05-09T07:32:20Z</time>
      </trkpt>
      <trkpt lat="43.77588" lon="3.55681">
        <ele>586.58</ele>
        <time>2019-05-09T07:32:28Z</time>
      </trkpt>
      <trkpt lat="43.77595" lon="3.55694">
        <ele>586.58</ele>
        <time>2019-05-09T07:32:36Z</time>
      </trkpt>
      <trkpt lat="43.77603" lon="3.55706">
        <ele>586.45</ele>
        <time>2019-05-09T07:32:44Z</time>
      </trkpt>
      <trkpt lat="43.7761" lon="3.55718">
        <ele>585.13</ele>
        <time>2019-05-09T07:32:52Z</time>
      </trkpt>
      <trkpt lat="43.77617" lon="3.55731">
        <ele>584.55</ele>
        <time>2019-05-09T07:33:00Z</time>
      </trkpt>
      <trkpt lat="43.77623" lon="3.5574">
        <ele>582.45</ele>
        <time>2019-05-09T07:33:06Z</time>
      </trkpt>
      <trkpt lat="43.7763" lon="3.55752">
        <ele>582.57</ele>
        <time>2019-05-09T07:33:14Z</time>
      </trkpt>
      <trkpt lat="43.77636" lon="3.55764">
        <ele>582.33</ele>
        <time>2019-05-09T07:33:22Z</time>
      </trkpt>
      <trkpt lat="43.77643" lon="3.55777">
        <ele>582.62</ele>
        <time>2019-05-09T07:33:30Z</time>
      </trkpt>
      <trkpt lat="43.77649" lon="3.5579">
        <ele>582.2</ele>
        <time>2019-05-09T07:33:38Z</time>
      </trkpt>
      <trkpt lat="43.77654" lon="3.558">
        <ele>583.49</ele>
        <time>2019-05-09T07:33:46Z</time>
      </trkpt>
      <trkpt lat="43.7766" lon="3.55812">
        <ele>581.88</ele>
        <time>2019-05-09T07:33:54Z</time>
      </trkpt>
      <trkpt lat="43.77667" lon="3.55823">
        <ele>583.91</ele>
        <time>2019-05-09T07:34:02Z</time>
      </trkpt>
      <trkpt lat="43.77672" lon="3.55835">
        <ele>584.54</ele>
        <time>2019-05-09T07:34:10Z</time>
      </trkpt>
      <trkpt lat="43.77677" lon="3.55849">
        <ele>582.26</ele>
        <time>2019-05-09T07:34:18Z</time>
      </trkpt>
      <trkpt lat="43.77681" lon="3.55863">
        <ele>580.31</ele>
        <time>2019-05-09T07:34:26Z</time>
      </trkpt>
      <trkpt lat="43.77685" lon="3.55877">
        <ele>578.75</ele>
        <time>2019-05-09T07:34:34Z</time>
      </trkpt>
      <trkpt lat="43.7769" lon="3.5589">
        <ele>577.4</ele>
        <time>2019-05-09T07:34:42Z</time>
      </trkpt>
      <trkpt lat="43.77696" lon="3.55903">
        <ele>577.13</ele>
        <time>2019-05-09T07:34:50Z</time>
      </trkpt>
      <trkpt lat="43.77701" lon="3.55913">
        <ele>576.8</ele>
        <time>2019-05-09T07:34:58Z</time>
      </trkpt>
      <trkpt lat="43.77707" lon="3.55925">
        <ele>575.65</ele>
        <time>2019-05-09T07:35:06Z</time>
      </trkpt>
      <trkpt lat="43.77714" lon="3.55936">
        <ele>573.39</ele>
        <time>2019-05-09T07:35:14Z</time>
      </trkpt>
      <trkpt lat="43.77721" lon="3.55949">
        <ele>572.6</ele>
        <time>2019-05-09T07:35:24Z</time>
      </trkpt>
      <trkpt lat="43.77722" lon="3.55962">
        <ele>575.14</ele>
        <time>2019-05-09T07:35:32Z</time>
      </trkpt>
      <trkpt lat="43.77724" lon="3.55976">
        <ele>577.29</ele>
        <time>2019-05-09T07:38:24Z</time>
      </trkpt>
      <trkpt lat="43.77729" lon="3.5599">
        <ele>577.56</ele>
        <time>2019-05-09T07:38:32Z</time>
      </trkpt>
      <trkpt lat="43.77734" lon="3.56002">
        <ele>578.33</ele>
        <time>2019-05-09T07:38:40Z</time>
      </trkpt>
      <trkpt lat="43.77739" lon="3.56015">
        <ele>578.69</ele>
        <time>2019-05-09T07:38:48Z</time>
      </trkpt>
      <trkpt lat="43.77742" lon="3.56027">
        <ele>579.08</ele>
        <time>2019-05-09T07:38:56Z</time>
      </trkpt>
      <trkpt lat="43.77747" lon="3.56041">
        <ele>579.55</ele>
        <time>2019-05-09T07:39:04Z</time>
      </trkpt>
      <trkpt lat="43.77751" lon="3.56055">
        <ele>578.83</ele>
        <time>2019-05-09T07:39:12Z</time>
      </trkpt>
      <trkpt lat="43.77756" lon="3.56068">
        <ele>578.41</ele>
        <time>2019-05-09T07:39:20Z</time>
      </trkpt>
      <trkpt lat="43.77762" lon="3.56078">
        <ele>577.62</ele>
        <time>2019-05-09T07:39:32Z</time>
      </trkpt>
      <trkpt lat="43.77766" lon="3.56092">
        <ele>576.8</ele>
        <time>2019-05-09T07:39:44Z</time>
      </trkpt>
      <trkpt lat="43.77771" lon="3.56104">
        <ele>576.1</ele>
        <time>2019-05-09T07:39:50Z</time>
      </trkpt>
      <trkpt lat="43.77776" lon="3.56117">
        <ele>574.23</ele>
        <time>2019-05-09T07:39:58Z</time>
      </trkpt>
      <trkpt lat="43.77781" lon="3.56131">
        <ele>573.87</ele>
        <time>2019-05-09T07:40:06Z</time>
      </trkpt>
      <trkpt lat="43.77786" lon="3.56143">
        <ele>572.1</ele>
        <time>2019-05-09T07:40:14Z</time>
      </trkpt>
      <trkpt lat="43.7779" lon="3.56155">
        <ele>571.42</ele>
        <time>2019-05-09T07:40:22Z</time>
      </trkpt>
      <trkpt lat="43.77795" lon="3.56168">
        <ele>571.25</ele>
        <time>2019-05-09T07:40:30Z</time>
      </trkpt>
      <trkpt lat="43.77798" lon="3.56182">
        <ele>570.49</ele>
        <time>2019-05-09T07:40:38Z</time>
      </trkpt>
      <trkpt lat="43.77803" lon="3.56196">
        <ele>566.63</ele>
        <time>2019-05-09T07:40:46Z</time>
      </trkpt>
      <trkpt lat="43.77807" lon="3.56209">
        <ele>566.14</ele>
        <time>2019-05-09T07:40:54Z</time>
      </trkpt>
      <trkpt lat="43.77811" lon="3.56223">
        <ele>567.05</ele>
        <time>2019-05-09T07:41:02Z</time>
      </trkpt>
      <trkpt lat="43.77815" lon="3.56237">
        <ele>566.92</ele>
        <time>2019-05-09T07:41:10Z</time>
      </trkpt>
      <trkpt lat="43.77819" lon="3.56251">
        <ele>565.72</ele>
        <time>2019-05-09T07:41:18Z</time>
      </trkpt>
      <trkpt lat="43.77825" lon="3.56263">
        <ele>565.52</ele>
        <time>2019-05-09T07:41:26Z</time>
      </trkpt>
      <trkpt lat="43.7783" lon="3.56275">
        <ele>564.89</ele>
        <time>2019-05-09T07:41:34Z</time>
      </trkpt>
      <trkpt lat="43.77834" lon="3.56288">
        <ele>564.62</ele>
        <time>2019-05-09T07:41:44Z</time>
      </trkpt>
      <trkpt lat="43.77841" lon="3.56298">
        <ele>568.58</ele>
        <time>2019-05-09T07:41:52Z</time>
      </trkpt>
      <trkpt lat="43.77846" lon="3.56309">
        <ele>569.76</ele>
        <time>2019-05-09T07:42:00Z</time>
      </trkpt>
      <trkpt lat="43.7785" lon="3.56321">
        <ele>570.96</ele>
        <time>2019-05-09T07:42:08Z</time>
      </trkpt>
      <trkpt lat="43.77858" lon="3.56331">
        <ele>571.78</ele>
        <time>2019-05-09T07:42:18Z</time>
      </trkpt>
      <trkpt lat="43.77866" lon="3.5634">
        <ele>573.24</ele>
        <time>2019-05-09T07:42:28Z</time>
      </trkpt>
      <trkpt lat="43.77871" lon="3.56354">
        <ele>576.97</ele>
        <time>2019-05-09T07:42:38Z</time>
      </trkpt>
      <trkpt lat="43.77878" lon="3.56364">
        <ele>576.1</ele>
        <time>2019-05-09T07:42:46Z</time>
      </trkpt>
      <trkpt lat="43.77883" lon="3.56376">
        <ele>578.11</ele>
        <time>2019-05-09T07:42:54Z</time>
      </trkpt>
      <trkpt lat="43.77887" lon="3.56389">
        <ele>574.92</ele>
        <time>2019-05-09T07:43:02Z</time>
      </trkpt>
      <trkpt lat="43.77891" lon="3.56401">
        <ele>573.87</ele>
        <time>2019-05-09T07:43:08Z</time>
      </trkpt>
      <trkpt lat="43.77893" lon="3.56414">
        <ele>571.72</ele>
        <time>2019-05-09T07:43:16Z</time>
      </trkpt>
      <trkpt lat="43.77894" lon="3.56428">
        <ele>569.71</ele>
        <time>2019-05-09T07:43:24Z</time>
      </trkpt>
      <trkpt lat="43.77898" lon="3.56442">
        <ele>568.84</ele>
        <time>2019-05-09T07:43:32Z</time>
      </trkpt>
      <trkpt lat="43.77904" lon="3.56452">
        <ele>570.49</ele>
        <time>2019-05-09T07:43:42Z</time>
      </trkpt>
      <trkpt lat="43.77908" lon="3.56464">
        <ele>570.32</ele>
        <time>2019-05-09T07:43:50Z</time>
      </trkpt>
      <trkpt lat="43.77911" lon="3.56479">
        <ele>568.62</ele>
        <time>2019-05-09T07:43:58Z</time>
      </trkpt>
      <trkpt lat="43.77914" lon="3.56493">
        <ele>570.52</ele>
        <time>2019-05-09T07:44:06Z</time>
      </trkpt>
      <trkpt lat="43.77921" lon="3.56506">
        <ele>571.64</ele>
        <time>2019-05-09T07:44:14Z</time>
      </trkpt>
      <trkpt lat="43.77928" lon="3.5652">
        <ele>570.83</ele>
        <time>2019-05-09T07:44:26Z</time>
      </trkpt>
      <trkpt lat="43.77934" lon="3.56534">
        <ele>573.66</ele>
        <time>2019-05-09T07:44:34Z</time>
      </trkpt>
      <trkpt lat="43.77937" lon="3.56548">
        <ele>576.02</ele>
        <time>2019-05-09T07:44:42Z</time>
      </trkpt>
      <trkpt lat="43.77941" lon="3.56563">
        <ele>573.85</ele>
        <time>2019-05-09T07:44:50Z</time>
      </trkpt>
      <trkpt lat="43.77945" lon="3.56575">
        <ele>575.91</ele>
        <time>2019-05-09T07:44:58Z</time>
      </trkpt>
      <trkpt lat="43.77949" lon="3.56587">
        <ele>576.41</ele>
        <time>2019-05-09T07:45:06Z</time>
      </trkpt>
      <trkpt lat="43.77951" lon="3.56601">
        <ele>576.44</ele>
        <time>2019-05-09T07:45:14Z</time>
      </trkpt>
      <trkpt lat="43.77954" lon="3.56616">
        <ele>578.54</ele>
        <time>2019-05-09T07:45:24Z</time>
      </trkpt>
      <trkpt lat="43.77959" lon="3.56629">
        <ele>577.73</ele>
        <time>2019-05-09T07:45:34Z</time>
      </trkpt>
      <trkpt lat="43.77964" lon="3.5664">
        <ele>576.65</ele>
        <time>2019-05-09T07:45:42Z</time>
      </trkpt>
      <trkpt lat="43.77971" lon="3.5665">
        <ele>577.46</ele>
        <time>2019-05-09T07:45:50Z</time>
      </trkpt>
      <trkpt lat="43.77978" lon="3.5666">
        <ele>578.51</ele>
        <time>2019-05-09T07:45:58Z</time>
      </trkpt>
      <trkpt lat="43.77987" lon="3.56666">
        <ele>580.76</ele>
        <time>2019-05-09T07:46:08Z</time>
      </trkpt>
      <trkpt lat="43.77994" lon="3.56677">
        <ele>582.96</ele>
        <time>2019-05-09T07:46:18Z</time>
      </trkpt>
      <trkpt lat="43.77997" lon="3.5669">
        <ele>583.62</ele>
        <time>2019-05-09T07:46:28Z</time>
      </trkpt>
      <trkpt lat="43.78004" lon="3.56701">
        <ele>584.8</ele>
        <time>2019-05-09T07:46:38Z</time>
      </trkpt>
      <trkpt lat="43.78012" lon="3.56709">
        <ele>585.9</ele>
        <time>2019-05-09T07:46:48Z</time>
      </trkpt>
      <trkpt lat="43.78019" lon="3.56719">
        <ele>588</ele>
        <time>2019-05-09T07:47:00Z</time>
      </trkpt>
      <trkpt lat="43.78021" lon="3.56731">
        <ele>588.04</ele>
        <time>2019-05-09T07:47:08Z</time>
      </trkpt>
      <trkpt lat="43.78024" lon="3.56743">
        <ele>587.61</ele>
        <time>2019-05-09T07:47:16Z</time>
      </trkpt>
      <trkpt lat="43.7802" lon="3.56756">
        <ele>590.14</ele>
        <time>2019-05-09T07:47:24Z</time>
      </trkpt>
      <trkpt lat="43.78014" lon="3.56767">
        <ele>588.3</ele>
        <time>2019-05-09T07:47:32Z</time>
      </trkpt>
      <trkpt lat="43.78007" lon="3.56775">
        <ele>586.37</ele>
        <time>2019-05-09T07:47:40Z</time>
      </trkpt>
      <trkpt lat="43.77999" lon="3.56782">
        <ele>584.56</ele>
        <time>2019-05-09T07:47:48Z</time>
      </trkpt>
      <trkpt lat="43.77995" lon="3.56795">
        <ele>582.7</ele>
        <time>2019-05-09T07:47:56Z</time>
      </trkpt>
      <trkpt lat="43.78002" lon="3.56804">
        <ele>580.52</ele>
        <time>2019-05-09T07:48:04Z</time>
      </trkpt>
      <trkpt lat="43.78011" lon="3.56811">
        <ele>580.32</ele>
        <time>2019-05-09T07:48:12Z</time>
      </trkpt>
      <trkpt lat="43.7802" lon="3.56816">
        <ele>578.5</ele>
        <time>2019-05-09T07:48:20Z</time>
      </trkpt>
      <trkpt lat="43.7802" lon="3.56829">
        <ele>576.2</ele>
        <time>2019-05-09T07:48:28Z</time>
      </trkpt>
      <trkpt lat="43.78012" lon="3.56836">
        <ele>574.8</ele>
        <time>2019-05-09T07:48:36Z</time>
      </trkpt>
      <trkpt lat="43.78005" lon="3.56845">
        <ele>571.96</ele>
        <time>2019-05-09T07:48:46Z</time>
      </trkpt>
      <trkpt lat="43.78007" lon="3.56858">
        <ele>568.91</ele>
        <time>2019-05-09T07:48:54Z</time>
      </trkpt>
      <trkpt lat="43.78014" lon="3.56869">
        <ele>567.31</ele>
        <time>2019-05-09T07:49:04Z</time>
      </trkpt>
      <trkpt lat="43.78023" lon="3.56869">
        <ele>566.87</ele>
        <time>2019-05-09T07:49:12Z</time>
      </trkpt>
      <trkpt lat="43.78031" lon="3.56876">
        <ele>567.12</ele>
        <time>2019-05-09T07:49:22Z</time>
      </trkpt>
      <trkpt lat="43.78039" lon="3.56882">
        <ele>563.28</ele>
        <time>2019-05-09T07:49:32Z</time>
      </trkpt>
      <trkpt lat="43.78049" lon="3.5689">
        <ele>561.1</ele>
        <time>2019-05-09T07:49:44Z</time>
      </trkpt>
      <trkpt lat="43.78059" lon="3.56897">
        <ele>558.98</ele>
        <time>2019-05-09T07:49:52Z</time>
      </trkpt>
      <trkpt lat="43.78069" lon="3.56899">
        <ele>559.85</ele>
        <time>2019-05-09T07:50:00Z</time>
      </trkpt>
      <trkpt lat="43.78078" lon="3.56899">
        <ele>559.36</ele>
        <time>2019-05-09T07:50:06Z</time>
      </trkpt>
      <trkpt lat="43.78088" lon="3.56894">
        <ele>557.06</ele>
        <time>2019-05-09T07:50:14Z</time>
      </trkpt>
      <trkpt lat="43.78098" lon="3.56886">
        <ele>556.29</ele>
        <time>2019-05-09T07:50:22Z</time>
      </trkpt>
      <trkpt lat="43.78106" lon="3.56892">
        <ele>557.68</ele>
        <time>2019-05-09T07:50:30Z</time>
      </trkpt>
      <trkpt lat="43.78107" lon="3.56907">
        <ele>557.08</ele>
        <time>2019-05-09T07:50:38Z</time>
      </trkpt>
      <trkpt lat="43.78109" lon="3.56921">
        <ele>554.87</ele>
        <time>2019-05-09T07:50:48Z</time>
      </trkpt>
      <trkpt lat="43.78111" lon="3.56934">
        <ele>549.4</ele>
        <time>2019-05-09T07:50:58Z</time>
      </trkpt>
      <trkpt lat="43.78116" lon="3.56945">
        <ele>549.57</ele>
        <time>2019-05-09T07:51:06Z</time>
      </trkpt>
      <trkpt lat="43.78123" lon="3.56936">
        <ele>548.76</ele>
        <time>2019-05-09T07:51:32Z</time>
      </trkpt>
      <trkpt lat="43.78129" lon="3.56946">
        <ele>545.53</ele>
        <time>2019-05-09T07:51:40Z</time>
      </trkpt>
      <trkpt lat="43.78137" lon="3.56958">
        <ele>544.32</ele>
        <time>2019-05-09T07:51:48Z</time>
      </trkpt>
      <trkpt lat="43.78146" lon="3.56958">
        <ele>543.69</ele>
        <time>2019-05-09T07:51:56Z</time>
      </trkpt>
      <trkpt lat="43.78155" lon="3.56958">
        <ele>542.33</ele>
        <time>2019-05-09T07:52:04Z</time>
      </trkpt>
      <trkpt lat="43.78164" lon="3.56954">
        <ele>538.76</ele>
        <time>2019-05-09T07:52:36Z</time>
      </trkpt>
      <trkpt lat="43.78175" lon="3.56955">
        <ele>534.58</ele>
        <time>2019-05-09T07:53:38Z</time>
      </trkpt>
      <trkpt lat="43.78183" lon="3.56962">
        <ele>527.85</ele>
        <time>2019-05-09T07:53:54Z</time>
      </trkpt>
      <trkpt lat="43.78195" lon="3.56963">
        <ele>529.09</ele>
        <time>2019-05-09T07:54:02Z</time>
      </trkpt>
      <trkpt lat="43.78202" lon="3.56956">
        <ele>528.61</ele>
        <time>2019-05-09T07:54:10Z</time>
      </trkpt>
      <trkpt lat="43.78212" lon="3.56948">
        <ele>526.45</ele>
        <time>2019-05-09T07:54:20Z</time>
      </trkpt>
      <trkpt lat="43.78222" lon="3.56945">
        <ele>524.05</ele>
        <time>2019-05-09T07:54:36Z</time>
      </trkpt>
      <trkpt lat="43.78231" lon="3.56944">
        <ele>523.14</ele>
        <time>2019-05-09T07:54:42Z</time>
      </trkpt>
      <trkpt lat="43.78241" lon="3.56939">
        <ele>520.61</ele>
        <time>2019-05-09T07:54:50Z</time>
      </trkpt>
      <trkpt lat="43.78251" lon="3.56936">
        <ele>519.73</ele>
        <time>2019-05-09T07:55:04Z</time>
      </trkpt>
      <trkpt lat="43.78262" lon="3.56941">
        <ele>522.08</ele>
        <time>2019-05-09T07:55:32Z</time>
      </trkpt>
      <trkpt lat="43.78258" lon="3.56926">
        <ele>521.29</ele>
        <time>2019-05-09T07:55:54Z</time>
      </trkpt>
      <trkpt lat="43.78256" lon="3.56912">
        <ele>522.43</ele>
        <time>2019-05-09T07:56:02Z</time>
      </trkpt>
      <trkpt lat="43.78255" lon="3.56897">
        <ele>521.88</ele>
        <time>2019-05-09T07:56:10Z</time>
      </trkpt>
      <trkpt lat="43.78253" lon="3.56884">
        <ele>520.47</ele>
        <time>2019-05-09T07:56:18Z</time>
      </trkpt>
      <trkpt lat="43.78252" lon="3.56871">
        <ele>522.82</ele>
        <time>2019-05-09T07:56:28Z</time>
      </trkpt>
      <trkpt lat="43.7825" lon="3.56858">
        <ele>526.33</ele>
        <time>2019-05-09T07:56:48Z</time>
      </trkpt>
      <trkpt lat="43.78246" lon="3.56843">
        <ele>528.12</ele>
        <time>2019-05-09T07:56:56Z</time>
      </trkpt>
      <trkpt lat="43.78254" lon="3.56837">
        <ele>528.04</ele>
        <time>2019-05-09T07:58:52Z</time>
      </trkpt>
      <trkpt lat="43.78265" lon="3.56838">
        <ele>528.94</ele>
        <time>2019-05-09T07:59:02Z</time>
      </trkpt>
      <trkpt lat="43.78273" lon="3.56844">
        <ele>529.47</ele>
        <time>2019-05-09T07:59:10Z</time>
      </trkpt>
      <trkpt lat="43.78281" lon="3.56851">
        <ele>529.82</ele>
        <time>2019-05-09T07:59:18Z</time>
      </trkpt>
      <trkpt lat="43.78289" lon="3.56861">
        <ele>530.97</ele>
        <time>2019-05-09T07:59:26Z</time>
      </trkpt>
      <trkpt lat="43.78298" lon="3.56867">
        <ele>532.29</ele>
        <time>2019-05-09T07:59:34Z</time>
      </trkpt>
      <trkpt lat="43.78307" lon="3.56871">
        <ele>532.56</ele>
        <time>2019-05-09T07:59:42Z</time>
      </trkpt>
      <trkpt lat="43.78318" lon="3.56874">
        <ele>533.51</ele>
        <time>2019-05-09T07:59:50Z</time>
      </trkpt>
      <trkpt lat="43.78328" lon="3.56875">
        <ele>533.57</ele>
        <time>2019-05-09T07:59:58Z</time>
      </trkpt>
      <trkpt lat="43.78335" lon="3.56884">
        <ele>534.33</ele>
        <time>2019-05-09T08:00:06Z</time>
      </trkpt>
      <trkpt lat="43.78341" lon="3.56896">
        <ele>533.19</ele>
        <time>2019-05-09T08:00:14Z</time>
      </trkpt>
      <trkpt lat="43.78351" lon="3.56901">
        <ele>531.87</ele>
        <time>2019-05-09T08:00:22Z</time>
      </trkpt>
      <trkpt lat="43.78362" lon="3.56901">
        <ele>532.41</ele>
        <time>2019-05-09T08:00:30Z</time>
      </trkpt>
      <trkpt lat="43.78373" lon="3.56899">
        <ele>533.25</ele>
        <time>2019-05-09T08:00:38Z</time>
      </trkpt>
      <trkpt lat="43.78384" lon="3.56901">
        <ele>534.06</ele>
        <time>2019-05-09T08:00:46Z</time>
      </trkpt>
      <trkpt lat="43.78394" lon="3.56902">
        <ele>534.36</ele>
        <time>2019-05-09T08:00:54Z</time>
      </trkpt>
      <trkpt lat="43.78404" lon="3.56907">
        <ele>534.5</ele>
        <time>2019-05-09T08:01:02Z</time>
      </trkpt>
      <trkpt lat="43.78412" lon="3.56917">
        <ele>534.51</ele>
        <time>2019-05-09T08:01:10Z</time>
      </trkpt>
      <trkpt lat="43.7842" lon="3.56924">
        <ele>534.57</ele>
        <time>2019-05-09T08:01:18Z</time>
      </trkpt>
      <trkpt lat="43.78428" lon="3.56932">
        <ele>534.58</ele>
        <time>2019-05-09T08:01:26Z</time>
      </trkpt>
      <trkpt lat="43.78435" lon="3.56942">
        <ele>534.58</ele>
        <time>2019-05-09T08:01:34Z</time>
      </trkpt>
      <trkpt lat="43.78442" lon="3.56954">
        <ele>534.39</ele>
        <time>2019-05-09T08:01:42Z</time>
      </trkpt>
      <trkpt lat="43.78451" lon="3.56964">
        <ele>535.19</ele>
        <time>2019-05-09T08:01:50Z</time>
      </trkpt>
      <trkpt lat="43.78459" lon="3.56974">
        <ele>536.3</ele>
        <time>2019-05-09T08:01:58Z</time>
      </trkpt>
      <trkpt lat="43.78465" lon="3.56986">
        <ele>537.31</ele>
        <time>2019-05-09T08:02:06Z</time>
      </trkpt>
      <trkpt lat="43.78473" lon="3.56997">
        <ele>538.12</ele>
        <time>2019-05-09T08:02:14Z</time>
      </trkpt>
      <trkpt lat="43.78481" lon="3.57006">
        <ele>537.8</ele>
        <time>2019-05-09T08:02:22Z</time>
      </trkpt>
      <trkpt lat="43.78489" lon="3.57015">
        <ele>538.34</ele>
        <time>2019-05-09T08:02:30Z</time>
      </trkpt>
      <trkpt lat="43.78497" lon="3.57021">
        <ele>537.62</ele>
        <time>2019-05-09T08:02:38Z</time>
      </trkpt>
      <trkpt lat="43.78507" lon="3.57028">
        <ele>537.64</ele>
        <time>2019-05-09T08:02:46Z</time>
      </trkpt>
      <trkpt lat="43.78515" lon="3.57037">
        <ele>538.46</ele>
        <time>2019-05-09T08:02:54Z</time>
      </trkpt>
      <trkpt lat="43.78524" lon="3.57047">
        <ele>539.38</ele>
        <time>2019-05-09T08:03:02Z</time>
      </trkpt>
      <trkpt lat="43.78533" lon="3.57056">
        <ele>538.81</ele>
        <time>2019-05-09T08:03:10Z</time>
      </trkpt>
      <trkpt lat="43.78542" lon="3.57063">
        <ele>539.03</ele>
        <time>2019-05-09T08:03:18Z</time>
      </trkpt>
      <trkpt lat="43.78552" lon="3.57067">
        <ele>539.54</ele>
        <time>2019-05-09T08:03:26Z</time>
      </trkpt>
      <trkpt lat="43.78563" lon="3.57069">
        <ele>540.32</ele>
        <time>2019-05-09T08:03:34Z</time>
      </trkpt>
      <trkpt lat="43.78574" lon="3.57065">
        <ele>541.06</ele>
        <time>2019-05-09T08:03:42Z</time>
      </trkpt>
      <trkpt lat="43.78584" lon="3.57063">
        <ele>540.86</ele>
        <time>2019-05-09T08:03:50Z</time>
      </trkpt>
      <trkpt lat="43.78594" lon="3.5707">
        <ele>541.74</ele>
        <time>2019-05-09T08:04:00Z</time>
      </trkpt>
      <trkpt lat="43.78603" lon="3.57073">
        <ele>542.61</ele>
        <time>2019-05-09T08:04:12Z</time>
      </trkpt>
      <trkpt lat="43.78612" lon="3.57076">
        <ele>542.58</ele>
        <time>2019-05-09T08:04:20Z</time>
      </trkpt>
      <trkpt lat="43.78623" lon="3.57076">
        <ele>542.51</ele>
        <time>2019-05-09T08:04:28Z</time>
      </trkpt>
      <trkpt lat="43.78633" lon="3.57075">
        <ele>541.7</ele>
        <time>2019-05-09T08:04:36Z</time>
      </trkpt>
      <trkpt lat="43.78642" lon="3.57078">
        <ele>542.84</ele>
        <time>2019-05-09T08:04:42Z</time>
      </trkpt>
      <trkpt lat="43.7865" lon="3.57084">
        <ele>544.41</ele>
        <time>2019-05-09T08:04:50Z</time>
      </trkpt>
      <trkpt lat="43.7866" lon="3.57088">
        <ele>537.36</ele>
        <time>2019-05-09T08:05:14Z</time>
      </trkpt>
      <trkpt lat="43.78668" lon="3.57077">
        <ele>532.16</ele>
        <time>2019-05-09T08:05:30Z</time>
      </trkpt>
      <trkpt lat="43.78672" lon="3.57064">
        <ele>529.19</ele>
        <time>2019-05-09T08:05:40Z</time>
      </trkpt>
      <trkpt lat="43.78674" lon="3.5705">
        <ele>526.75</ele>
        <time>2019-05-09T08:05:54Z</time>
      </trkpt>
      <trkpt lat="43.78676" lon="3.57035">
        <ele>522.08</ele>
        <time>2019-05-09T08:06:28Z</time>
      </trkpt>
      <trkpt lat="43.78682" lon="3.5702">
        <ele>517.51</ele>
        <time>2019-05-09T08:06:34Z</time>
      </trkpt>
      <trkpt lat="43.78689" lon="3.57011">
        <ele>517.14</ele>
        <time>2019-05-09T08:06:42Z</time>
      </trkpt>
      <trkpt lat="43.78693" lon="3.57">
        <ele>516.28</ele>
        <time>2019-05-09T08:06:52Z</time>
      </trkpt>
      <trkpt lat="43.78699" lon="3.56988">
        <ele>515.12</ele>
        <time>2019-05-09T08:07:00Z</time>
      </trkpt>
      <trkpt lat="43.787" lon="3.56971">
        <ele>510.7</ele>
        <time>2019-05-09T08:07:32Z</time>
      </trkpt>
      <trkpt lat="43.78702" lon="3.56958">
        <ele>509.11</ele>
        <time>2019-05-09T08:07:36Z</time>
      </trkpt>
      <trkpt lat="43.78704" lon="3.56945">
        <ele>507.27</ele>
        <time>2019-05-09T08:07:42Z</time>
      </trkpt>
      <trkpt lat="43.78703" lon="3.5696">
        <ele>507.32</ele>
        <time>2019-05-09T08:08:54Z</time>
      </trkpt>
      <trkpt lat="43.78702" lon="3.56973">
        <ele>509.94</ele>
        <time>2019-05-09T08:09:04Z</time>
      </trkpt>
      <trkpt lat="43.78699" lon="3.56985">
        <ele>511.91</ele>
        <time>2019-05-09T08:09:12Z</time>
      </trkpt>
      <trkpt lat="43.78696" lon="3.56999">
        <ele>517.04</ele>
        <time>2019-05-09T08:09:24Z</time>
      </trkpt>
      <trkpt lat="43.78692" lon="3.5701">
        <ele>524.79</ele>
        <time>2019-05-09T08:09:36Z</time>
      </trkpt>
      <trkpt lat="43.78687" lon="3.57021">
        <ele>526.55</ele>
        <time>2019-05-09T08:09:46Z</time>
      </trkpt>
      <trkpt lat="43.7868" lon="3.57031">
        <ele>527.78</ele>
        <time>2019-05-09T08:09:58Z</time>
      </trkpt>
      <trkpt lat="43.78678" lon="3.57044">
        <ele>522.16</ele>
        <time>2019-05-09T08:10:14Z</time>
      </trkpt>
      <trkpt lat="43.78674" lon="3.57057">
        <ele>528.82</ele>
        <time>2019-05-09T08:10:28Z</time>
      </trkpt>
      <trkpt lat="43.78673" lon="3.57069">
        <ele>532.65</ele>
        <time>2019-05-09T08:10:38Z</time>
      </trkpt>
      <trkpt lat="43.78672" lon="3.57082">
        <ele>530.83</ele>
        <time>2019-05-09T08:10:56Z</time>
      </trkpt>
      <trkpt lat="43.78682" lon="3.57083">
        <ele>521.59</ele>
        <time>2019-05-09T08:11:48Z</time>
      </trkpt>
      <trkpt lat="43.7869" lon="3.57089">
        <ele>519.08</ele>
        <time>2019-05-09T08:13:12Z</time>
      </trkpt>
      <trkpt lat="43.78681" lon="3.57084">
        <ele>521.76</ele>
        <time>2019-05-09T08:13:18Z</time>
      </trkpt>
      <trkpt lat="43.78672" lon="3.57084">
        <ele>528.34</ele>
        <time>2019-05-09T08:13:40Z</time>
      </trkpt>
      <trkpt lat="43.78662" lon="3.57085">
        <ele>527.08</ele>
        <time>2019-05-09T08:14:04Z</time>
      </trkpt>
      <trkpt lat="43.78652" lon="3.57082">
        <ele>532.27</ele>
        <time>2019-05-09T08:14:16Z</time>
      </trkpt>
      <trkpt lat="43.78645" lon="3.57091">
        <ele>535.92</ele>
        <time>2019-05-09T08:14:36Z</time>
      </trkpt>
      <trkpt lat="43.78637" lon="3.57099">
        <ele>533.96</ele>
        <time>2019-05-09T08:14:58Z</time>
      </trkpt>
      <trkpt lat="43.78632" lon="3.57109">
        <ele>534.28</ele>
        <time>2019-05-09T08:15:12Z</time>
      </trkpt>
      <trkpt lat="43.78627" lon="3.57121">
        <ele>537.77</ele>
        <time>2019-05-09T08:15:26Z</time>
      </trkpt>
      <trkpt lat="43.78628" lon="3.57136">
        <ele>534.66</ele>
        <time>2019-05-09T08:15:44Z</time>
      </trkpt>
      <trkpt lat="43.78628" lon="3.5715">
        <ele>534.77</ele>
        <time>2019-05-09T08:15:54Z</time>
      </trkpt>
      <trkpt lat="43.78635" lon="3.57158">
        <ele>537.05</ele>
        <time>2019-05-09T08:16:04Z</time>
      </trkpt>
      <trkpt lat="43.78645" lon="3.57162">
        <ele>539.4</ele>
        <time>2019-05-09T08:16:14Z</time>
      </trkpt>
      <trkpt lat="43.78654" lon="3.5717">
        <ele>536.48</ele>
        <time>2019-05-09T08:16:24Z</time>
      </trkpt>
      <trkpt lat="43.78655" lon="3.57183">
        <ele>538.07</ele>
        <time>2019-05-09T08:16:44Z</time>
      </trkpt>
      <trkpt lat="43.78646" lon="3.5718">
        <ele>535.58</ele>
        <time>2019-05-09T08:17:10Z</time>
      </trkpt>
      <trkpt lat="43.78638" lon="3.57187">
        <ele>533.89</ele>
        <time>2019-05-09T08:17:24Z</time>
      </trkpt>
      <trkpt lat="43.78633" lon="3.57174">
        <ele>529</ele>
        <time>2019-05-09T08:17:52Z</time>
      </trkpt>
      <trkpt lat="43.78624" lon="3.57169">
        <ele>530.29</ele>
        <time>2019-05-09T08:18:00Z</time>
      </trkpt>
      <trkpt lat="43.78615" lon="3.57164">
        <ele>530.06</ele>
        <time>2019-05-09T08:18:08Z</time>
      </trkpt>
      <trkpt lat="43.78615" lon="3.57179">
        <ele>529.83</ele>
        <time>2019-05-09T08:18:24Z</time>
      </trkpt>
      <trkpt lat="43.78618" lon="3.57192">
        <ele>529.77</ele>
        <time>2019-05-09T08:18:34Z</time>
      </trkpt>
      <trkpt lat="43.78623" lon="3.57203">
        <ele>531.31</ele>
        <time>2019-05-09T08:18:46Z</time>
      </trkpt>
      <trkpt lat="43.78619" lon="3.57215">
        <ele>537.05</ele>
        <time>2019-05-09T08:19:16Z</time>
      </trkpt>
      <trkpt lat="43.78614" lon="3.57227">
        <ele>529.3</ele>
        <time>2019-05-09T08:19:30Z</time>
      </trkpt>
      <trkpt lat="43.78607" lon="3.57234">
        <ele>524.07</ele>
        <time>2019-05-09T08:19:48Z</time>
      </trkpt>
      <trkpt lat="43.78599" lon="3.57242">
        <ele>521.18</ele>
        <time>2019-05-09T08:20:00Z</time>
      </trkpt>
      <trkpt lat="43.78588" lon="3.57246">
        <ele>520.26</ele>
        <time>2019-05-09T08:20:22Z</time>
      </trkpt>
      <trkpt lat="43.78579" lon="3.57239">
        <ele>519.29</ele>
        <time>2019-05-09T08:20:34Z</time>
      </trkpt>
      <trkpt lat="43.78568" lon="3.57234">
        <ele>511.7</ele>
        <time>2019-05-09T08:21:02Z</time>
      </trkpt>
      <trkpt lat="43.78557" lon="3.57227">
        <ele>510.59</ele>
        <time>2019-05-09T08:21:08Z</time>
      </trkpt>
      <trkpt lat="43.78548" lon="3.57222">
        <ele>513.24</ele>
        <time>2019-05-09T08:21:24Z</time>
      </trkpt>
      <trkpt lat="43.78539" lon="3.57224">
        <ele>512.92</ele>
        <time>2019-05-09T08:21:36Z</time>
      </trkpt>
      <trkpt lat="43.78529" lon="3.57229">
        <ele>508.47</ele>
        <time>2019-05-09T08:21:48Z</time>
      </trkpt>
      <trkpt lat="43.7852" lon="3.57231">
        <ele>511.33</ele>
        <time>2019-05-09T08:22:22Z</time>
      </trkpt>
      <trkpt lat="43.78516" lon="3.57244">
        <ele>505.73</ele>
        <time>2019-05-09T08:22:42Z</time>
      </trkpt>
      <trkpt lat="43.78507" lon="3.57249">
        <ele>502.02</ele>
        <time>2019-05-09T08:22:50Z</time>
      </trkpt>
      <trkpt lat="43.78498" lon="3.5725">
        <ele>504.79</ele>
        <time>2019-05-09T08:22:58Z</time>
      </trkpt>
      <trkpt lat="43.78489" lon="3.57253">
        <ele>505.72</ele>
        <time>2019-05-09T08:23:06Z</time>
      </trkpt>
      <trkpt lat="43.78482" lon="3.57244">
        <ele>505.38</ele>
        <time>2019-05-09T08:23:18Z</time>
      </trkpt>
      <trkpt lat="43.78475" lon="3.57234">
        <ele>488.83</ele>
        <time>2019-05-09T08:29:08Z</time>
      </trkpt>
      <trkpt lat="43.78465" lon="3.57236">
        <ele>498.7</ele>
        <time>2019-05-09T08:34:56Z</time>
      </trkpt>
      <trkpt lat="43.78456" lon="3.5723">
        <ele>498.65</ele>
        <time>2019-05-09T08:35:20Z</time>
      </trkpt>
      <trkpt lat="43.78446" lon="3.57223">
        <ele>501.71</ele>
        <time>2019-05-09T08:35:28Z</time>
      </trkpt>
      <trkpt lat="43.78436" lon="3.57226">
        <ele>497.94</ele>
        <time>2019-05-09T08:35:44Z</time>
      </trkpt>
      <trkpt lat="43.78425" lon="3.57226">
        <ele>498.85</ele>
        <time>2019-05-09T08:35:52Z</time>
      </trkpt>
      <trkpt lat="43.78418" lon="3.57233">
        <ele>497.34</ele>
        <time>2019-05-09T08:36:00Z</time>
      </trkpt>
      <trkpt lat="43.78407" lon="3.57232">
        <ele>493.81</ele>
        <time>2019-05-09T08:36:08Z</time>
      </trkpt>
      <trkpt lat="43.78396" lon="3.57227">
        <ele>495.22</ele>
        <time>2019-05-09T08:36:16Z</time>
      </trkpt>
      <trkpt lat="43.78387" lon="3.57217">
        <ele>492.32</ele>
        <time>2019-05-09T08:36:26Z</time>
      </trkpt>
      <trkpt lat="43.78377" lon="3.57213">
        <ele>490.32</ele>
        <time>2019-05-09T08:36:36Z</time>
      </trkpt>
      <trkpt lat="43.78369" lon="3.57206">
        <ele>493</ele>
        <time>2019-05-09T08:36:44Z</time>
      </trkpt>
      <trkpt lat="43.78362" lon="3.57198">
        <ele>495.35</ele>
        <time>2019-05-09T08:36:52Z</time>
      </trkpt>
      <trkpt lat="43.78352" lon="3.57193">
        <ele>495.02</ele>
        <time>2019-05-09T08:37:38Z</time>
      </trkpt>
      <trkpt lat="43.78341" lon="3.57192">
        <ele>491.97</ele>
        <time>2019-05-09T08:37:48Z</time>
      </trkpt>
      <trkpt lat="43.78333" lon="3.57186">
        <ele>490.13</ele>
        <time>2019-05-09T08:37:54Z</time>
      </trkpt>
      <trkpt lat="43.78322" lon="3.57184">
        <ele>489.36</ele>
        <time>2019-05-09T08:38:02Z</time>
      </trkpt>
      <trkpt lat="43.78312" lon="3.5718">
        <ele>487.1</ele>
        <time>2019-05-09T08:38:12Z</time>
      </trkpt>
      <trkpt lat="43.78301" lon="3.5718">
        <ele>489.61</ele>
        <time>2019-05-09T08:38:20Z</time>
      </trkpt>
      <trkpt lat="43.78292" lon="3.57179">
        <ele>493.44</ele>
        <time>2019-05-09T08:38:42Z</time>
      </trkpt>
      <trkpt lat="43.7828" lon="3.57179">
        <ele>495.31</ele>
        <time>2019-05-09T08:38:48Z</time>
      </trkpt>
      <trkpt lat="43.78271" lon="3.57175">
        <ele>493.88</ele>
        <time>2019-05-09T08:38:58Z</time>
      </trkpt>
      <trkpt lat="43.7826" lon="3.57171">
        <ele>490.47</ele>
        <time>2019-05-09T08:39:06Z</time>
      </trkpt>
      <trkpt lat="43.7825" lon="3.57168">
        <ele>489.69</ele>
        <time>2019-05-09T08:39:22Z</time>
      </trkpt>
      <trkpt lat="43.7824" lon="3.57169">
        <ele>485.53</ele>
        <time>2019-05-09T08:39:34Z</time>
      </trkpt>
      <trkpt lat="43.78229" lon="3.57169">
        <ele>492.87</ele>
        <time>2019-05-09T08:39:54Z</time>
      </trkpt>
      <trkpt lat="43.78221" lon="3.57175">
        <ele>491.21</ele>
        <time>2019-05-09T08:40:14Z</time>
      </trkpt>
      <trkpt lat="43.78212" lon="3.57183">
        <ele>490.21</ele>
        <time>2019-05-09T08:40:36Z</time>
      </trkpt>
      <trkpt lat="43.78201" lon="3.57186">
        <ele>495.24</ele>
        <time>2019-05-09T08:40:44Z</time>
      </trkpt>
      <trkpt lat="43.7819" lon="3.57189">
        <ele>498</ele>
        <time>2019-05-09T08:40:54Z</time>
      </trkpt>
      <trkpt lat="43.78182" lon="3.57196">
        <ele>500.72</ele>
        <time>2019-05-09T08:41:04Z</time>
      </trkpt>
      <trkpt lat="43.78176" lon="3.57206">
        <ele>500.39</ele>
        <time>2019-05-09T08:41:14Z</time>
      </trkpt>
      <trkpt lat="43.78167" lon="3.5721">
        <ele>502.88</ele>
        <time>2019-05-09T08:41:34Z</time>
      </trkpt>
      <trkpt lat="43.78158" lon="3.57212">
        <ele>501.86</ele>
        <time>2019-05-09T08:41:46Z</time>
      </trkpt>
      <trkpt lat="43.7815" lon="3.57206">
        <ele>496.85</ele>
        <time>2019-05-09T08:42:06Z</time>
      </trkpt>
      <trkpt lat="43.7814" lon="3.57204">
        <ele>488.72</ele>
        <time>2019-05-09T08:42:20Z</time>
      </trkpt>
      <trkpt lat="43.7813" lon="3.57206">
        <ele>488.83</ele>
        <time>2019-05-09T08:42:46Z</time>
      </trkpt>
      <trkpt lat="43.7812" lon="3.57207">
        <ele>486.59</ele>
        <time>2019-05-09T08:42:54Z</time>
      </trkpt>
      <trkpt lat="43.7811" lon="3.57209">
        <ele>478.54</ele>
        <time>2019-05-09T08:43:16Z</time>
      </trkpt>
      <trkpt lat="43.781" lon="3.57208">
        <ele>473.55</ele>
        <time>2019-05-09T08:43:32Z</time>
      </trkpt>
      <trkpt lat="43.78089" lon="3.57209">
        <ele>470.75</ele>
        <time>2019-05-09T08:43:50Z</time>
      </trkpt>
      <trkpt lat="43.7808" lon="3.5721">
        <ele>471.05</ele>
        <time>2019-05-09T08:44:00Z</time>
      </trkpt>
      <trkpt lat="43.78069" lon="3.57207">
        <ele>466.62</ele>
        <time>2019-05-09T08:44:10Z</time>
      </trkpt>
      <trkpt lat="43.78061" lon="3.5721">
        <ele>466.95</ele>
        <time>2019-05-09T08:44:18Z</time>
      </trkpt>
      <trkpt lat="43.78053" lon="3.572">
        <ele>466.7</ele>
        <time>2019-05-09T08:45:00Z</time>
      </trkpt>
      <trkpt lat="43.78044" lon="3.57194">
        <ele>463.33</ele>
        <time>2019-05-09T08:45:08Z</time>
      </trkpt>
      <trkpt lat="43.78036" lon="3.5719">
        <ele>464.03</ele>
        <time>2019-05-09T08:45:20Z</time>
      </trkpt>
      <trkpt lat="43.78027" lon="3.57198">
        <ele>466.57</ele>
        <time>2019-05-09T08:45:34Z</time>
      </trkpt>
      <trkpt lat="43.78017" lon="3.57204">
        <ele>466.89</ele>
        <time>2019-05-09T08:45:42Z</time>
      </trkpt>
      <trkpt lat="43.78007" lon="3.57207">
        <ele>459.28</ele>
        <time>2019-05-09T08:46:14Z</time>
      </trkpt>
      <trkpt lat="43.77996" lon="3.57208">
        <ele>461.08</ele>
        <time>2019-05-09T08:46:40Z</time>
      </trkpt>
      <trkpt lat="43.77988" lon="3.57202">
        <ele>460.95</ele>
        <time>2019-05-09T08:46:44Z</time>
      </trkpt>
      <trkpt lat="43.77975" lon="3.57201">
        <ele>460.37</ele>
        <time>2019-05-09T08:46:50Z</time>
      </trkpt>
      <trkpt lat="43.77966" lon="3.57203">
        <ele>459.56</ele>
        <time>2019-05-09T08:46:58Z</time>
      </trkpt>
      <trkpt lat="43.77956" lon="3.57207">
        <ele>460.33</ele>
        <time>2019-05-09T08:47:04Z</time>
      </trkpt>
      <trkpt lat="43.77947" lon="3.5721">
        <ele>457.87</ele>
        <time>2019-05-09T08:47:12Z</time>
      </trkpt>
      <trkpt lat="43.77938" lon="3.57206">
        <ele>456.19</ele>
        <time>2019-05-09T08:47:24Z</time>
      </trkpt>
      <trkpt lat="43.77928" lon="3.57202">
        <ele>458.61</ele>
        <time>2019-05-09T08:47:38Z</time>
      </trkpt>
      <trkpt lat="43.7792" lon="3.57196">
        <ele>461.33</ele>
        <time>2019-05-09T08:47:50Z</time>
      </trkpt>
      <trkpt lat="43.7791" lon="3.57198">
        <ele>460.04</ele>
        <time>2019-05-09T08:48:10Z</time>
      </trkpt>
      <trkpt lat="43.77901" lon="3.57193">
        <ele>466.92</ele>
        <time>2019-05-09T08:49:38Z</time>
      </trkpt>
      <trkpt lat="43.77891" lon="3.57188">
        <ele>470.04</ele>
        <time>2019-05-09T08:49:46Z</time>
      </trkpt>
      <trkpt lat="43.77882" lon="3.57181">
        <ele>476.5</ele>
        <time>2019-05-09T08:49:56Z</time>
      </trkpt>
      <trkpt lat="43.77873" lon="3.57175">
        <ele>479.2</ele>
        <time>2019-05-09T08:50:04Z</time>
      </trkpt>
      <trkpt lat="43.77865" lon="3.57167">
        <ele>480.03</ele>
        <time>2019-05-09T08:50:14Z</time>
      </trkpt>
      <trkpt lat="43.77857" lon="3.57156">
        <ele>481.67</ele>
        <time>2019-05-09T08:50:30Z</time>
      </trkpt>
      <trkpt lat="43.7785" lon="3.57144">
        <ele>484.11</ele>
        <time>2019-05-09T08:50:40Z</time>
      </trkpt>
      <trkpt lat="43.77843" lon="3.57153">
        <ele>489.04</ele>
        <time>2019-05-09T08:51:06Z</time>
      </trkpt>
      <trkpt lat="43.77846" lon="3.57165">
        <ele>488.3</ele>
        <time>2019-05-09T08:51:18Z</time>
      </trkpt>
      <trkpt lat="43.77838" lon="3.57173">
        <ele>493.88</ele>
        <time>2019-05-09T08:51:40Z</time>
      </trkpt>
      <trkpt lat="43.77828" lon="3.57176">
        <ele>494.34</ele>
        <time>2019-05-09T08:51:56Z</time>
      </trkpt>
      <trkpt lat="43.77817" lon="3.57176">
        <ele>494</ele>
        <time>2019-05-09T08:52:04Z</time>
      </trkpt>
      <trkpt lat="43.77807" lon="3.57176">
        <ele>496.06</ele>
        <time>2019-05-09T08:52:14Z</time>
      </trkpt>
      <trkpt lat="43.77797" lon="3.57178">
        <ele>496.19</ele>
        <time>2019-05-09T08:52:24Z</time>
      </trkpt>
      <trkpt lat="43.77788" lon="3.57179">
        <ele>496.08</ele>
        <time>2019-05-09T08:52:38Z</time>
      </trkpt>
      <trkpt lat="43.77778" lon="3.5718">
        <ele>496.25</ele>
        <time>2019-05-09T08:52:48Z</time>
      </trkpt>
      <trkpt lat="43.77768" lon="3.57185">
        <ele>497.24</ele>
        <time>2019-05-09T08:52:56Z</time>
      </trkpt>
      <trkpt lat="43.77757" lon="3.57188">
        <ele>498.37</ele>
        <time>2019-05-09T08:53:04Z</time>
      </trkpt>
      <trkpt lat="43.77748" lon="3.57192">
        <ele>497.31</ele>
        <time>2019-05-09T08:53:12Z</time>
      </trkpt>
      <trkpt lat="43.77738" lon="3.57193">
        <ele>500.1</ele>
        <time>2019-05-09T08:53:26Z</time>
      </trkpt>
      <trkpt lat="43.77729" lon="3.57197">
        <ele>499.8</ele>
        <time>2019-05-09T08:53:34Z</time>
      </trkpt>
      <trkpt lat="43.77719" lon="3.57199">
        <ele>501.4</ele>
        <time>2019-05-09T08:53:44Z</time>
      </trkpt>
      <trkpt lat="43.77711" lon="3.57191">
        <ele>499.78</ele>
        <time>2019-05-09T08:53:51Z</time>
      </trkpt>
      <trkpt lat="43.77703" lon="3.57186">
        <ele>497.98</ele>
        <time>2019-05-09T08:53:57Z</time>
      </trkpt>
      <trkpt lat="43.7771" lon="3.57179">
        <ele>499</ele>
        <time>2019-05-09T08:54:03Z</time>
      </trkpt>
      <trkpt lat="43.77701" lon="3.57178">
        <ele>504.71</ele>
        <time>2019-05-09T08:54:15Z</time>
      </trkpt>
      <trkpt lat="43.77708" lon="3.57168">
        <ele>509.9</ele>
        <time>2019-05-09T08:54:23Z</time>
      </trkpt>
      <trkpt lat="43.77715" lon="3.5716">
        <ele>509.12</ele>
        <time>2019-05-09T08:54:29Z</time>
      </trkpt>
      <trkpt lat="43.77703" lon="3.57158">
        <ele>510.21</ele>
        <time>2019-05-09T08:54:34Z</time>
      </trkpt>
      <trkpt lat="43.77692" lon="3.57157">
        <ele>500.37</ele>
        <time>2019-05-09T08:54:42Z</time>
      </trkpt>
      <trkpt lat="43.77683" lon="3.57153">
        <ele>505.13</ele>
        <time>2019-05-09T08:54:50Z</time>
      </trkpt>
      <trkpt lat="43.77675" lon="3.57145">
        <ele>510.35</ele>
        <time>2019-05-09T08:55:02Z</time>
      </trkpt>
      <trkpt lat="43.77669" lon="3.57134">
        <ele>514.86</ele>
        <time>2019-05-09T08:55:16Z</time>
      </trkpt>
      <trkpt lat="43.77658" lon="3.57134">
        <ele>515.72</ele>
        <time>2019-05-09T08:55:30Z</time>
      </trkpt>
      <trkpt lat="43.7765" lon="3.57124">
        <ele>515.38</ele>
        <time>2019-05-09T08:55:44Z</time>
      </trkpt>
      <trkpt lat="43.77638" lon="3.57121">
        <ele>516.45</ele>
        <time>2019-05-09T08:55:54Z</time>
      </trkpt>
      <trkpt lat="43.77628" lon="3.57116">
        <ele>519.85</ele>
        <time>2019-05-09T08:56:04Z</time>
      </trkpt>
      <trkpt lat="43.7762" lon="3.5711">
        <ele>517.21</ele>
        <time>2019-05-09T08:56:14Z</time>
      </trkpt>
      <trkpt lat="43.77611" lon="3.57113">
        <ele>517.3</ele>
        <time>2019-05-09T08:56:22Z</time>
      </trkpt>
      <trkpt lat="43.77603" lon="3.57108">
        <ele>519</ele>
        <time>2019-05-09T08:56:36Z</time>
      </trkpt>
      <trkpt lat="43.77597" lon="3.57098">
        <ele>520.03</ele>
        <time>2019-05-09T08:56:46Z</time>
      </trkpt>
      <trkpt lat="43.77589" lon="3.57092">
        <ele>523.48</ele>
        <time>2019-05-09T08:57:02Z</time>
      </trkpt>
      <trkpt lat="43.77581" lon="3.57099">
        <ele>532.05</ele>
        <time>2019-05-09T08:57:24Z</time>
      </trkpt>
      <trkpt lat="43.77572" lon="3.57096">
        <ele>533.33</ele>
        <time>2019-05-09T08:57:38Z</time>
      </trkpt>
      <trkpt lat="43.77564" lon="3.57088">
        <ele>529.47</ele>
        <time>2019-05-09T08:57:52Z</time>
      </trkpt>
      <trkpt lat="43.77555" lon="3.57086">
        <ele>529.13</ele>
        <time>2019-05-09T08:58:00Z</time>
      </trkpt>
      <trkpt lat="43.77548" lon="3.57076">
        <ele>523.19</ele>
        <time>2019-05-09T08:58:10Z</time>
      </trkpt>
      <trkpt lat="43.77541" lon="3.57065">
        <ele>516.35</ele>
        <time>2019-05-09T08:58:20Z</time>
      </trkpt>
      <trkpt lat="43.77532" lon="3.57057">
        <ele>512.07</ele>
        <time>2019-05-09T08:58:30Z</time>
      </trkpt>
      <trkpt lat="43.77525" lon="3.57048">
        <ele>512.98</ele>
        <time>2019-05-09T08:58:39Z</time>
      </trkpt>
      <trkpt lat="43.77516" lon="3.57046">
        <ele>520.91</ele>
        <time>2019-05-09T08:58:47Z</time>
      </trkpt>
      <trkpt lat="43.77509" lon="3.57038">
        <ele>522.47</ele>
        <time>2019-05-09T08:58:55Z</time>
      </trkpt>
      <trkpt lat="43.77502" lon="3.57028">
        <ele>520.51</ele>
        <time>2019-05-09T08:59:03Z</time>
      </trkpt>
      <trkpt lat="43.7749" lon="3.57029">
        <ele>522.51</ele>
        <time>2019-05-09T08:59:11Z</time>
      </trkpt>
      <trkpt lat="43.7748" lon="3.57024">
        <ele>522.26</ele>
        <time>2019-05-09T08:59:19Z</time>
      </trkpt>
      <trkpt lat="43.7747" lon="3.57022">
        <ele>521.53</ele>
        <time>2019-05-09T08:59:33Z</time>
      </trkpt>
      <trkpt lat="43.77461" lon="3.57015">
        <ele>515.73</ele>
        <time>2019-05-09T08:59:43Z</time>
      </trkpt>
      <trkpt lat="43.77455" lon="3.57032">
        <ele>525.33</ele>
        <time>2019-05-09T09:00:21Z</time>
      </trkpt>
      <trkpt lat="43.77454" lon="3.57047">
        <ele>525.51</ele>
        <time>2019-05-09T09:00:25Z</time>
      </trkpt>
      <trkpt lat="43.77458" lon="3.57059">
        <ele>522.39</ele>
        <time>2019-05-09T09:00:33Z</time>
      </trkpt>
      <trkpt lat="43.77453" lon="3.57048">
        <ele>521.64</ele>
        <time>2019-05-09T09:01:07Z</time>
      </trkpt>
      <trkpt lat="43.77452" lon="3.57032">
        <ele>518.02</ele>
        <time>2019-05-09T09:01:15Z</time>
      </trkpt>
      <trkpt lat="43.77452" lon="3.57019">
        <ele>520.22</ele>
        <time>2019-05-09T09:01:25Z</time>
      </trkpt>
      <trkpt lat="43.77444" lon="3.5701">
        <ele>523.13</ele>
        <time>2019-05-09T09:01:35Z</time>
      </trkpt>
      <trkpt lat="43.77435" lon="3.57011">
        <ele>526.34</ele>
        <time>2019-05-09T09:01:45Z</time>
      </trkpt>
      <trkpt lat="43.77426" lon="3.57001">
        <ele>524.75</ele>
        <time>2019-05-09T09:01:54Z</time>
      </trkpt>
      <trkpt lat="43.77419" lon="3.56992">
        <ele>524.72</ele>
        <time>2019-05-09T09:02:00Z</time>
      </trkpt>
      <trkpt lat="43.77419" lon="3.56973">
        <ele>521.91</ele>
        <time>2019-05-09T09:02:12Z</time>
      </trkpt>
      <trkpt lat="43.77411" lon="3.56967">
        <ele>529.54</ele>
        <time>2019-05-09T09:02:20Z</time>
      </trkpt>
      <trkpt lat="43.77403" lon="3.56955">
        <ele>529.51</ele>
        <time>2019-05-09T09:02:28Z</time>
      </trkpt>
      <trkpt lat="43.77399" lon="3.56941">
        <ele>529.07</ele>
        <time>2019-05-09T09:02:36Z</time>
      </trkpt>
      <trkpt lat="43.77395" lon="3.56928">
        <ele>534.34</ele>
        <time>2019-05-09T09:02:46Z</time>
      </trkpt>
      <trkpt lat="43.77391" lon="3.56915">
        <ele>535.66</ele>
        <time>2019-05-09T09:03:02Z</time>
      </trkpt>
      <trkpt lat="43.77386" lon="3.56902">
        <ele>540.11</ele>
        <time>2019-05-09T09:03:12Z</time>
      </trkpt>
      <trkpt lat="43.77385" lon="3.56888">
        <ele>540.16</ele>
        <time>2019-05-09T09:03:22Z</time>
      </trkpt>
      <trkpt lat="43.7738" lon="3.56876">
        <ele>538.54</ele>
        <time>2019-05-09T09:03:34Z</time>
      </trkpt>
      <trkpt lat="43.77375" lon="3.56863">
        <ele>543.44</ele>
        <time>2019-05-09T09:03:46Z</time>
      </trkpt>
      <trkpt lat="43.77369" lon="3.56852">
        <ele>542.71</ele>
        <time>2019-05-09T09:04:00Z</time>
      </trkpt>
      <trkpt lat="43.77367" lon="3.5684">
        <ele>545.71</ele>
        <time>2019-05-09T09:04:10Z</time>
      </trkpt>
      <trkpt lat="43.77367" lon="3.56827">
        <ele>549.42</ele>
        <time>2019-05-09T09:04:22Z</time>
      </trkpt>
      <trkpt lat="43.77371" lon="3.56844">
        <ele>542.61</ele>
        <time>2019-05-09T09:05:46Z</time>
      </trkpt>
      <trkpt lat="43.77374" lon="3.56856">
        <ele>544.39</ele>
        <time>2019-05-09T09:05:54Z</time>
      </trkpt>
      <trkpt lat="43.77369" lon="3.56868">
        <ele>539.03</ele>
        <time>2019-05-09T09:06:52Z</time>
      </trkpt>
      <trkpt lat="43.77358" lon="3.56874">
        <ele>538.01</ele>
        <time>2019-05-09T09:06:58Z</time>
      </trkpt>
      <trkpt lat="43.77353" lon="3.56889">
        <ele>541.21</ele>
        <time>2019-05-09T09:07:32Z</time>
      </trkpt>
      <trkpt lat="43.77348" lon="3.56902">
        <ele>543.91</ele>
        <time>2019-05-09T09:07:42Z</time>
      </trkpt>
      <trkpt lat="43.77342" lon="3.56913">
        <ele>542.99</ele>
        <time>2019-05-09T09:07:54Z</time>
      </trkpt>
      <trkpt lat="43.77342" lon="3.56926">
        <ele>556.01</ele>
        <time>2019-05-09T09:08:36Z</time>
      </trkpt>
      <trkpt lat="43.77333" lon="3.56932">
        <ele>559.63</ele>
        <time>2019-05-09T09:08:48Z</time>
      </trkpt>
      <trkpt lat="43.77325" lon="3.5694">
        <ele>563.33</ele>
        <time>2019-05-09T09:09:10Z</time>
      </trkpt>
      <trkpt lat="43.77315" lon="3.56943">
        <ele>560.8</ele>
        <time>2019-05-09T09:09:16Z</time>
      </trkpt>
      <trkpt lat="43.7731" lon="3.56932">
        <ele>562.24</ele>
        <time>2019-05-09T09:09:44Z</time>
      </trkpt>
      <trkpt lat="43.7731" lon="3.56919">
        <ele>565.12</ele>
        <time>2019-05-09T09:09:52Z</time>
      </trkpt>
      <trkpt lat="43.77303" lon="3.56907">
        <ele>568.22</ele>
        <time>2019-05-09T09:10:02Z</time>
      </trkpt>
      <trkpt lat="43.773" lon="3.56892">
        <ele>570.07</ele>
        <time>2019-05-09T09:10:12Z</time>
      </trkpt>
      <trkpt lat="43.77296" lon="3.5688">
        <ele>570.81</ele>
        <time>2019-05-09T09:10:22Z</time>
      </trkpt>
      <trkpt lat="43.77289" lon="3.56872">
        <ele>571.08</ele>
        <time>2019-05-09T09:10:32Z</time>
      </trkpt>
      <trkpt lat="43.77284" lon="3.5686">
        <ele>573.87</ele>
        <time>2019-05-09T09:10:42Z</time>
      </trkpt>
      <trkpt lat="43.77279" lon="3.56848">
        <ele>576</ele>
        <time>2019-05-09T09:10:54Z</time>
      </trkpt>
      <trkpt lat="43.77271" lon="3.56842">
        <ele>578.48</ele>
        <time>2019-05-09T09:11:02Z</time>
      </trkpt>
      <trkpt lat="43.77265" lon="3.56831">
        <ele>578.89</ele>
        <time>2019-05-09T09:11:12Z</time>
      </trkpt>
      <trkpt lat="43.77257" lon="3.56821">
        <ele>581.6</ele>
        <time>2019-05-09T09:12:14Z</time>
      </trkpt>
      <trkpt lat="43.77251" lon="3.56809">
        <ele>582.92</ele>
        <time>2019-05-09T09:12:26Z</time>
      </trkpt>
      <trkpt lat="43.77242" lon="3.568">
        <ele>583.65</ele>
        <time>2019-05-09T09:12:36Z</time>
      </trkpt>
      <trkpt lat="43.77234" lon="3.56791">
        <ele>585.14</ele>
        <time>2019-05-09T09:12:46Z</time>
      </trkpt>
      <trkpt lat="43.77225" lon="3.56783">
        <ele>585.5</ele>
        <time>2019-05-09T09:12:56Z</time>
      </trkpt>
      <trkpt lat="43.77216" lon="3.56775">
        <ele>585.95</ele>
        <time>2019-05-09T09:13:06Z</time>
      </trkpt>
      <trkpt lat="43.77208" lon="3.56769">
        <ele>589.21</ele>
        <time>2019-05-09T09:13:16Z</time>
      </trkpt>
      <trkpt lat="43.77198" lon="3.56764">
        <ele>589.99</ele>
        <time>2019-05-09T09:13:28Z</time>
      </trkpt>
      <trkpt lat="43.77188" lon="3.56763">
        <ele>590.37</ele>
        <time>2019-05-09T09:13:38Z</time>
      </trkpt>
      <trkpt lat="43.77179" lon="3.56761">
        <ele>594.98</ele>
        <time>2019-05-09T09:13:48Z</time>
      </trkpt>
      <trkpt lat="43.77172" lon="3.5677">
        <ele>595.09</ele>
        <time>2019-05-09T09:13:58Z</time>
      </trkpt>
      <trkpt lat="43.77164" lon="3.5678">
        <ele>591.16</ele>
        <time>2019-05-09T09:14:08Z</time>
      </trkpt>
      <trkpt lat="43.77153" lon="3.56785">
        <ele>593.24</ele>
        <time>2019-05-09T09:14:16Z</time>
      </trkpt>
      <trkpt lat="43.77144" lon="3.5678">
        <ele>597.68</ele>
        <time>2019-05-09T09:14:30Z</time>
      </trkpt>
      <trkpt lat="43.77136" lon="3.56769">
        <ele>601.96</ele>
        <time>2019-05-09T09:14:44Z</time>
      </trkpt>
      <trkpt lat="43.77131" lon="3.56757">
        <ele>604.87</ele>
        <time>2019-05-09T09:14:54Z</time>
      </trkpt>
      <trkpt lat="43.77124" lon="3.56747">
        <ele>608.15</ele>
        <time>2019-05-09T09:15:04Z</time>
      </trkpt>
      <trkpt lat="43.77113" lon="3.56744">
        <ele>607.11</ele>
        <time>2019-05-09T09:15:12Z</time>
      </trkpt>
      <trkpt lat="43.77115" lon="3.56731">
        <ele>608.27</ele>
        <time>2019-05-09T09:15:18Z</time>
      </trkpt>
      <trkpt lat="43.77115" lon="3.56716">
        <ele>610.66</ele>
        <time>2019-05-09T09:15:28Z</time>
      </trkpt>
      <trkpt lat="43.77111" lon="3.56704">
        <ele>613.33</ele>
        <time>2019-05-09T09:15:38Z</time>
      </trkpt>
      <trkpt lat="43.77104" lon="3.56692">
        <ele>610.94</ele>
        <time>2019-05-09T09:15:46Z</time>
      </trkpt>
      <trkpt lat="43.77095" lon="3.56686">
        <ele>608.37</ele>
        <time>2019-05-09T09:15:52Z</time>
      </trkpt>
      <trkpt lat="43.77088" lon="3.56677">
        <ele>609.19</ele>
        <time>2019-05-09T09:16:00Z</time>
      </trkpt>
      <trkpt lat="43.77087" lon="3.56663">
        <ele>613.35</ele>
        <time>2019-05-09T09:16:10Z</time>
      </trkpt>
      <trkpt lat="43.77082" lon="3.56651">
        <ele>616.35</ele>
        <time>2019-05-09T09:16:20Z</time>
      </trkpt>
      <trkpt lat="43.77083" lon="3.56638">
        <ele>621.38</ele>
        <time>2019-05-09T09:16:28Z</time>
      </trkpt>
      <trkpt lat="43.77075" lon="3.56627">
        <ele>616.83</ele>
        <time>2019-05-09T09:16:54Z</time>
      </trkpt>
      <trkpt lat="43.77072" lon="3.56613">
        <ele>616.53</ele>
        <time>2019-05-09T09:17:02Z</time>
      </trkpt>
      <trkpt lat="43.77064" lon="3.56604">
        <ele>618.76</ele>
        <time>2019-05-09T09:17:10Z</time>
      </trkpt>
      <trkpt lat="43.77059" lon="3.56593">
        <ele>620.08</ele>
        <time>2019-05-09T09:17:26Z</time>
      </trkpt>
      <trkpt lat="43.77055" lon="3.5658">
        <ele>622.86</ele>
        <time>2019-05-09T09:17:34Z</time>
      </trkpt>
      <trkpt lat="43.77052" lon="3.56568">
        <ele>623.09</ele>
        <time>2019-05-09T09:17:42Z</time>
      </trkpt>
      <trkpt lat="43.77047" lon="3.56555">
        <ele>624.66</ele>
        <time>2019-05-09T09:17:52Z</time>
      </trkpt>
      <trkpt lat="43.77044" lon="3.56543">
        <ele>626.21</ele>
        <time>2019-05-09T09:18:00Z</time>
      </trkpt>
      <trkpt lat="43.7704" lon="3.56529">
        <ele>628.72</ele>
        <time>2019-05-09T09:18:10Z</time>
      </trkpt>
      <trkpt lat="43.77034" lon="3.56517">
        <ele>628.09</ele>
        <time>2019-05-09T09:18:18Z</time>
      </trkpt>
      <trkpt lat="43.77027" lon="3.56506">
        <ele>628.12</ele>
        <time>2019-05-09T09:18:28Z</time>
      </trkpt>
      <trkpt lat="43.77023" lon="3.56493">
        <ele>630.47</ele>
        <time>2019-05-09T09:18:48Z</time>
      </trkpt>
      <trkpt lat="43.77017" lon="3.56483">
        <ele>628.39</ele>
        <time>2019-05-09T09:19:28Z</time>
      </trkpt>
      <trkpt lat="43.77015" lon="3.5647">
        <ele>629.8</ele>
        <time>2019-05-09T09:19:34Z</time>
      </trkpt>
      <trkpt lat="43.77007" lon="3.56459">
        <ele>627.83</ele>
        <time>2019-05-09T09:19:44Z</time>
      </trkpt>
      <trkpt lat="43.77004" lon="3.56447">
        <ele>628.22</ele>
        <time>2019-05-09T09:19:52Z</time>
      </trkpt>
      <trkpt lat="43.76999" lon="3.56434">
        <ele>629.72</ele>
        <time>2019-05-09T09:20:02Z</time>
      </trkpt>
      <trkpt lat="43.76999" lon="3.56422">
        <ele>633.4</ele>
        <time>2019-05-09T09:20:10Z</time>
      </trkpt>
      <trkpt lat="43.76995" lon="3.56409">
        <ele>637.98</ele>
        <time>2019-05-09T09:20:20Z</time>
      </trkpt>
      <trkpt lat="43.76988" lon="3.56397">
        <ele>635.23</ele>
        <time>2019-05-09T09:20:28Z</time>
      </trkpt>
      <trkpt lat="43.76982" lon="3.56387">
        <ele>633.37</ele>
        <time>2019-05-09T09:20:36Z</time>
      </trkpt>
      <trkpt lat="43.76986" lon="3.56375">
        <ele>634.69</ele>
        <time>2019-05-09T09:20:44Z</time>
      </trkpt>
      <trkpt lat="43.76977" lon="3.56364">
        <ele>639.32</ele>
        <time>2019-05-09T09:21:18Z</time>
      </trkpt>
      <trkpt lat="43.7697" lon="3.56355">
        <ele>640.92</ele>
        <time>2019-05-09T09:21:24Z</time>
      </trkpt>
      <trkpt lat="43.76963" lon="3.56343">
        <ele>641.59</ele>
        <time>2019-05-09T09:21:34Z</time>
      </trkpt>
      <trkpt lat="43.7696" lon="3.5633">
        <ele>643.14</ele>
        <time>2019-05-09T09:21:44Z</time>
      </trkpt>
      <trkpt lat="43.76953" lon="3.56319">
        <ele>641.59</ele>
        <time>2019-05-09T09:21:54Z</time>
      </trkpt>
      <trkpt lat="43.76944" lon="3.56313">
        <ele>639.83</ele>
        <time>2019-05-09T09:22:00Z</time>
      </trkpt>
      <trkpt lat="43.76938" lon="3.56301">
        <ele>641.99</ele>
        <time>2019-05-09T09:22:10Z</time>
      </trkpt>
      <trkpt lat="43.76931" lon="3.56291">
        <ele>640.35</ele>
        <time>2019-05-09T09:22:18Z</time>
      </trkpt>
      <trkpt lat="43.76927" lon="3.56279">
        <ele>638.81</ele>
        <time>2019-05-09T09:22:26Z</time>
      </trkpt>
      <trkpt lat="43.76925" lon="3.56267">
        <ele>642.24</ele>
        <time>2019-05-09T09:22:36Z</time>
      </trkpt>
      <trkpt lat="43.76923" lon="3.56252">
        <ele>645</ele>
        <time>2019-05-09T09:22:46Z</time>
      </trkpt>
      <trkpt lat="43.76929" lon="3.56239">
        <ele>648.93</ele>
        <time>2019-05-09T09:22:58Z</time>
      </trkpt>
      <trkpt lat="43.76929" lon="3.56225">
        <ele>647.41</ele>
        <time>2019-05-09T09:23:06Z</time>
      </trkpt>
      <trkpt lat="43.7693" lon="3.5621">
        <ele>645</ele>
        <time>2019-05-09T09:23:14Z</time>
      </trkpt>
      <trkpt lat="43.76929" lon="3.56195">
        <ele>644.65</ele>
        <time>2019-05-09T09:23:24Z</time>
      </trkpt>
      <trkpt lat="43.76925" lon="3.56182">
        <ele>641.96</ele>
        <time>2019-05-09T09:23:32Z</time>
      </trkpt>
      <trkpt lat="43.76925" lon="3.56168">
        <ele>642.29</ele>
        <time>2019-05-09T09:23:40Z</time>
      </trkpt>
      <trkpt lat="43.76929" lon="3.56154">
        <ele>644</ele>
        <time>2019-05-09T09:23:48Z</time>
      </trkpt>
      <trkpt lat="43.76931" lon="3.56141">
        <ele>645.38</ele>
        <time>2019-05-09T09:23:54Z</time>
      </trkpt>
      <trkpt lat="43.76925" lon="3.5613">
        <ele>645.31</ele>
        <time>2019-05-09T09:24:02Z</time>
      </trkpt>
      <trkpt lat="43.76915" lon="3.56125">
        <ele>646.12</ele>
        <time>2019-05-09T09:24:10Z</time>
      </trkpt>
      <trkpt lat="43.76906" lon="3.5612">
        <ele>647.95</ele>
        <time>2019-05-09T09:25:06Z</time>
      </trkpt>
      <trkpt lat="43.76898" lon="3.56111">
        <ele>651.87</ele>
        <time>2019-05-09T09:25:12Z</time>
      </trkpt>
      <trkpt lat="43.76889" lon="3.56103">
        <ele>654.11</ele>
        <time>2019-05-09T09:25:18Z</time>
      </trkpt>
      <trkpt lat="43.76882" lon="3.56091">
        <ele>654.27</ele>
        <time>2019-05-09T09:25:24Z</time>
      </trkpt>
      <trkpt lat="43.76882" lon="3.56078">
        <ele>654.91</ele>
        <time>2019-05-09T09:25:30Z</time>
      </trkpt>
      <trkpt lat="43.76879" lon="3.56065">
        <ele>651.6</ele>
        <time>2019-05-09T09:25:38Z</time>
      </trkpt>
      <trkpt lat="43.76876" lon="3.56051">
        <ele>651.27</ele>
        <time>2019-05-09T09:25:46Z</time>
      </trkpt>
      <trkpt lat="43.76871" lon="3.56038">
        <ele>649.75</ele>
        <time>2019-05-09T09:25:54Z</time>
      </trkpt>
      <trkpt lat="43.76861" lon="3.56029">
        <ele>647.15</ele>
        <time>2019-05-09T09:26:02Z</time>
      </trkpt>
      <trkpt lat="43.76852" lon="3.56023">
        <ele>646.18</ele>
        <time>2019-05-09T09:26:10Z</time>
      </trkpt>
      <trkpt lat="43.76842" lon="3.56015">
        <ele>647.06</ele>
        <time>2019-05-09T09:26:20Z</time>
      </trkpt>
      <trkpt lat="43.76837" lon="3.56026">
        <ele>647.61</ele>
        <time>2019-05-09T09:26:58Z</time>
      </trkpt>
      <trkpt lat="43.76835" lon="3.5604">
        <ele>647.27</ele>
        <time>2019-05-09T09:27:06Z</time>
      </trkpt>
      <trkpt lat="43.76832" lon="3.56053">
        <ele>647.13</ele>
        <time>2019-05-09T09:27:18Z</time>
      </trkpt>
      <trkpt lat="43.76831" lon="3.56066">
        <ele>644.12</ele>
        <time>2019-05-09T09:27:30Z</time>
      </trkpt>
      <trkpt lat="43.76827" lon="3.56078">
        <ele>651.61</ele>
        <time>2019-05-09T09:27:46Z</time>
      </trkpt>
      <trkpt lat="43.76821" lon="3.56088">
        <ele>654.3</ele>
        <time>2019-05-09T09:27:56Z</time>
      </trkpt>
      <trkpt lat="43.76811" lon="3.56093">
        <ele>654.68</ele>
        <time>2019-05-09T09:28:04Z</time>
      </trkpt>
      <trkpt lat="43.76806" lon="3.56104">
        <ele>655.14</ele>
        <time>2019-05-09T09:28:14Z</time>
      </trkpt>
      <trkpt lat="43.76798" lon="3.56111">
        <ele>658.84</ele>
        <time>2019-05-09T09:28:26Z</time>
      </trkpt>
      <trkpt lat="43.76789" lon="3.56116">
        <ele>659.96</ele>
        <time>2019-05-09T09:28:36Z</time>
      </trkpt>
      <trkpt lat="43.76781" lon="3.56122">
        <ele>663</ele>
        <time>2019-05-09T09:28:48Z</time>
      </trkpt>
      <trkpt lat="43.76775" lon="3.56134">
        <ele>665.62</ele>
        <time>2019-05-09T09:29:02Z</time>
      </trkpt>
      <trkpt lat="43.76771" lon="3.56145">
        <ele>666.51</ele>
        <time>2019-05-09T09:29:16Z</time>
      </trkpt>
      <trkpt lat="43.76773" lon="3.56159">
        <ele>673.46</ele>
        <time>2019-05-09T09:29:34Z</time>
      </trkpt>
      <trkpt lat="43.76775" lon="3.56171">
        <ele>677.86</ele>
        <time>2019-05-09T09:29:48Z</time>
      </trkpt>
      <trkpt lat="43.76774" lon="3.56183">
        <ele>682.82</ele>
        <time>2019-05-09T09:30:04Z</time>
      </trkpt>
      <trkpt lat="43.76772" lon="3.56198">
        <ele>683.27</ele>
        <time>2019-05-09T09:30:16Z</time>
      </trkpt>
      <trkpt lat="43.7677" lon="3.5621">
        <ele>681.79</ele>
        <time>2019-05-09T09:30:28Z</time>
      </trkpt>
      <trkpt lat="43.7677" lon="3.56224">
        <ele>690.1</ele>
        <time>2019-05-09T09:30:52Z</time>
      </trkpt>
      <trkpt lat="43.76769" lon="3.56238">
        <ele>691.99</ele>
        <time>2019-05-09T09:31:04Z</time>
      </trkpt>
      <trkpt lat="43.76771" lon="3.5625">
        <ele>694.88</ele>
        <time>2019-05-09T09:31:20Z</time>
      </trkpt>
      <trkpt lat="43.7678" lon="3.56256">
        <ele>697.45</ele>
        <time>2019-05-09T09:31:44Z</time>
      </trkpt>
      <trkpt lat="43.76786" lon="3.56269">
        <ele>696.87</ele>
        <time>2019-05-09T09:31:56Z</time>
      </trkpt>
      <trkpt lat="43.76795" lon="3.56274">
        <ele>697.43</ele>
        <time>2019-05-09T09:32:06Z</time>
      </trkpt>
      <trkpt lat="43.76805" lon="3.56272">
        <ele>700.88</ele>
        <time>2019-05-09T09:32:26Z</time>
      </trkpt>
      <trkpt lat="43.76812" lon="3.5628">
        <ele>703.51</ele>
        <time>2019-05-09T09:33:36Z</time>
      </trkpt>
      <trkpt lat="43.76804" lon="3.56275">
        <ele>702.69</ele>
        <time>2019-05-09T09:41:28Z</time>
      </trkpt>
      <trkpt lat="43.76793" lon="3.56279">
        <ele>699.96</ele>
        <time>2019-05-09T09:42:00Z</time>
      </trkpt>
      <trkpt lat="43.76785" lon="3.56271">
        <ele>696.22</ele>
        <time>2019-05-09T09:42:14Z</time>
      </trkpt>
      <trkpt lat="43.76775" lon="3.56268">
        <ele>697.45</ele>
        <time>2019-05-09T09:42:52Z</time>
      </trkpt>
      <trkpt lat="43.76767" lon="3.56261">
        <ele>696.89</ele>
        <time>2019-05-09T09:43:02Z</time>
      </trkpt>
      <trkpt lat="43.76768" lon="3.56249">
        <ele>691.92</ele>
        <time>2019-05-09T09:43:18Z</time>
      </trkpt>
      <trkpt lat="43.76767" lon="3.56236">
        <ele>692.27</ele>
        <time>2019-05-09T09:43:30Z</time>
      </trkpt>
      <trkpt lat="43.76765" lon="3.56223">
        <ele>687.67</ele>
        <time>2019-05-09T09:43:42Z</time>
      </trkpt>
      <trkpt lat="43.76767" lon="3.5621">
        <ele>685.48</ele>
        <time>2019-05-09T09:43:56Z</time>
      </trkpt>
      <trkpt lat="43.76768" lon="3.56197">
        <ele>681.92</ele>
        <time>2019-05-09T09:44:08Z</time>
      </trkpt>
      <trkpt lat="43.76772" lon="3.56183">
        <ele>678.62</ele>
        <time>2019-05-09T09:44:18Z</time>
      </trkpt>
      <trkpt lat="43.76772" lon="3.56171">
        <ele>674.95</ele>
        <time>2019-05-09T09:44:28Z</time>
      </trkpt>
      <trkpt lat="43.7677" lon="3.56156">
        <ele>672.77</ele>
        <time>2019-05-09T09:44:40Z</time>
      </trkpt>
      <trkpt lat="43.76769" lon="3.56142">
        <ele>669.56</ele>
        <time>2019-05-09T09:44:52Z</time>
      </trkpt>
      <trkpt lat="43.76775" lon="3.5613">
        <ele>667.95</ele>
        <time>2019-05-09T09:45:02Z</time>
      </trkpt>
      <trkpt lat="43.76779" lon="3.56118">
        <ele>666.21</ele>
        <time>2019-05-09T09:45:12Z</time>
      </trkpt>
      <trkpt lat="43.76787" lon="3.56112">
        <ele>663.23</ele>
        <time>2019-05-09T09:45:24Z</time>
      </trkpt>
      <trkpt lat="43.76797" lon="3.56106">
        <ele>660.31</ele>
        <time>2019-05-09T09:45:36Z</time>
      </trkpt>
      <trkpt lat="43.76805" lon="3.56096">
        <ele>658.35</ele>
        <time>2019-05-09T09:45:46Z</time>
      </trkpt>
      <trkpt lat="43.76815" lon="3.56092">
        <ele>654.48</ele>
        <time>2019-05-09T09:45:56Z</time>
      </trkpt>
      <trkpt lat="43.76826" lon="3.56091">
        <ele>648.14</ele>
        <time>2019-05-09T09:46:06Z</time>
      </trkpt>
      <trkpt lat="43.76831" lon="3.56081">
        <ele>649.42</ele>
        <time>2019-05-09T09:46:14Z</time>
      </trkpt>
      <trkpt lat="43.76829" lon="3.56068">
        <ele>649.56</ele>
        <time>2019-05-09T09:46:20Z</time>
      </trkpt>
      <trkpt lat="43.76832" lon="3.56056">
        <ele>652.33</ele>
        <time>2019-05-09T09:46:28Z</time>
      </trkpt>
      <trkpt lat="43.76828" lon="3.56043">
        <ele>650.44</ele>
        <time>2019-05-09T09:46:38Z</time>
      </trkpt>
      <trkpt lat="43.7683" lon="3.56031">
        <ele>650.13</ele>
        <time>2019-05-09T09:46:46Z</time>
      </trkpt>
      <trkpt lat="43.76834" lon="3.56017">
        <ele>650.3</ele>
        <time>2019-05-09T09:46:54Z</time>
      </trkpt>
      <trkpt lat="43.76835" lon="3.56004">
        <ele>647.58</ele>
        <time>2019-05-09T09:48:14Z</time>
      </trkpt>
      <trkpt lat="43.76827" lon="3.55997">
        <ele>642.26</ele>
        <time>2019-05-09T09:48:22Z</time>
      </trkpt>
      <trkpt lat="43.76818" lon="3.55985">
        <ele>640.06</ele>
        <time>2019-05-09T09:48:30Z</time>
      </trkpt>
      <trkpt lat="43.76819" lon="3.55972">
        <ele>643.01</ele>
        <time>2019-05-09T09:48:36Z</time>
      </trkpt>
      <trkpt lat="43.76822" lon="3.5596">
        <ele>642.26</ele>
        <time>2019-05-09T09:48:42Z</time>
      </trkpt>
      <trkpt lat="43.76826" lon="3.55946">
        <ele>642.62</ele>
        <time>2019-05-09T09:48:50Z</time>
      </trkpt>
      <trkpt lat="43.76834" lon="3.55932">
        <ele>643.92</ele>
        <time>2019-05-09T09:49:00Z</time>
      </trkpt>
      <trkpt lat="43.76836" lon="3.5592">
        <ele>643.47</ele>
        <time>2019-05-09T09:49:08Z</time>
      </trkpt>
      <trkpt lat="43.76846" lon="3.55909">
        <ele>641.82</ele>
        <time>2019-05-09T09:49:16Z</time>
      </trkpt>
      <trkpt lat="43.76853" lon="3.559">
        <ele>642.53</ele>
        <time>2019-05-09T09:49:24Z</time>
      </trkpt>
      <trkpt lat="43.76864" lon="3.55893">
        <ele>646.64</ele>
        <time>2019-05-09T09:49:32Z</time>
      </trkpt>
      <trkpt lat="43.76873" lon="3.55884">
        <ele>648.64</ele>
        <time>2019-05-09T09:49:40Z</time>
      </trkpt>
      <trkpt lat="43.76877" lon="3.55868">
        <ele>651.08</ele>
        <time>2019-05-09T09:49:48Z</time>
      </trkpt>
      <trkpt lat="43.7687" lon="3.55854">
        <ele>649.2</ele>
        <time>2019-05-09T09:49:52Z</time>
      </trkpt>
      <trkpt lat="43.76863" lon="3.55846">
        <ele>651.23</ele>
        <time>2019-05-09T09:49:56Z</time>
      </trkpt>
      <trkpt lat="43.76867" lon="3.55833">
        <ele>647.74</ele>
        <time>2019-05-09T09:50:04Z</time>
      </trkpt>
      <trkpt lat="43.76877" lon="3.55833">
        <ele>646.6</ele>
        <time>2019-05-09T09:50:10Z</time>
      </trkpt>
      <trkpt lat="43.76871" lon="3.55819">
        <ele>651.44</ele>
        <time>2019-05-09T09:50:36Z</time>
      </trkpt>
      <trkpt lat="43.76865" lon="3.55809">
        <ele>650.81</ele>
        <time>2019-05-09T09:50:42Z</time>
      </trkpt>
      <trkpt lat="43.76855" lon="3.55806">
        <ele>648.97</ele>
        <time>2019-05-09T09:50:50Z</time>
      </trkpt>
      <trkpt lat="43.76844" lon="3.55801">
        <ele>645.48</ele>
        <time>2019-05-09T09:50:58Z</time>
      </trkpt>
      <trkpt lat="43.76835" lon="3.55801">
        <ele>642.88</ele>
        <time>2019-05-09T09:51:06Z</time>
      </trkpt>
      <trkpt lat="43.76832" lon="3.55815">
        <ele>642.47</ele>
        <time>2019-05-09T09:51:14Z</time>
      </trkpt>
      <trkpt lat="43.7683" lon="3.55827">
        <ele>637.82</ele>
        <time>2019-05-09T09:51:22Z</time>
      </trkpt>
      <trkpt lat="43.76823" lon="3.55838">
        <ele>635.43</ele>
        <time>2019-05-09T09:51:32Z</time>
      </trkpt>
      <trkpt lat="43.76816" lon="3.55851">
        <ele>635.01</ele>
        <time>2019-05-09T09:51:40Z</time>
      </trkpt>
      <trkpt lat="43.76807" lon="3.5586">
        <ele>635.29</ele>
        <time>2019-05-09T09:51:48Z</time>
      </trkpt>
      <trkpt lat="43.76797" lon="3.55866">
        <ele>633.43</ele>
        <time>2019-05-09T09:51:56Z</time>
      </trkpt>
      <trkpt lat="43.76787" lon="3.55872">
        <ele>635.63</ele>
        <time>2019-05-09T09:52:04Z</time>
      </trkpt>
      <trkpt lat="43.76778" lon="3.55882">
        <ele>634.83</ele>
        <time>2019-05-09T09:52:12Z</time>
      </trkpt>
      <trkpt lat="43.76768" lon="3.55891">
        <ele>632.22</ele>
        <time>2019-05-09T09:52:20Z</time>
      </trkpt>
      <trkpt lat="43.76763" lon="3.55903">
        <ele>625.68</ele>
        <time>2019-05-09T09:52:28Z</time>
      </trkpt>
      <trkpt lat="43.76752" lon="3.55908">
        <ele>626.77</ele>
        <time>2019-05-09T09:52:38Z</time>
      </trkpt>
      <trkpt lat="43.76744" lon="3.55911">
        <ele>625.28</ele>
        <time>2019-05-09T09:52:46Z</time>
      </trkpt>
      <trkpt lat="43.76733" lon="3.55915">
        <ele>627.87</ele>
        <time>2019-05-09T09:52:54Z</time>
      </trkpt>
      <trkpt lat="43.76727" lon="3.55926">
        <ele>627.91</ele>
        <time>2019-05-09T09:53:02Z</time>
      </trkpt>
      <trkpt lat="43.76722" lon="3.55938">
        <ele>625.72</ele>
        <time>2019-05-09T09:53:10Z</time>
      </trkpt>
      <trkpt lat="43.76715" lon="3.55948">
        <ele>626.27</ele>
        <time>2019-05-09T09:53:18Z</time>
      </trkpt>
      <trkpt lat="43.76704" lon="3.55949">
        <ele>625.12</ele>
        <time>2019-05-09T09:53:26Z</time>
      </trkpt>
      <trkpt lat="43.76693" lon="3.55947">
        <ele>624.42</ele>
        <time>2019-05-09T09:53:34Z</time>
      </trkpt>
      <trkpt lat="43.76682" lon="3.55946">
        <ele>620.2</ele>
        <time>2019-05-09T09:53:44Z</time>
      </trkpt>
      <trkpt lat="43.76674" lon="3.55952">
        <ele>616.93</ele>
        <time>2019-05-09T09:53:52Z</time>
      </trkpt>
      <trkpt lat="43.76663" lon="3.55955">
        <ele>616.96</ele>
        <time>2019-05-09T09:54:02Z</time>
      </trkpt>
      <trkpt lat="43.76654" lon="3.55953">
        <ele>616.08</ele>
        <time>2019-05-09T09:54:40Z</time>
      </trkpt>
      <trkpt lat="43.76644" lon="3.55958">
        <ele>611.86</ele>
        <time>2019-05-09T09:55:00Z</time>
      </trkpt>
      <trkpt lat="43.76633" lon="3.55965">
        <ele>616.84</ele>
        <time>2019-05-09T09:55:08Z</time>
      </trkpt>
      <trkpt lat="43.76625" lon="3.55975">
        <ele>615.74</ele>
        <time>2019-05-09T09:55:18Z</time>
      </trkpt>
      <trkpt lat="43.76622" lon="3.55989">
        <ele>615.71</ele>
        <time>2019-05-09T09:55:28Z</time>
      </trkpt>
      <trkpt lat="43.76619" lon="3.56002">
        <ele>617.52</ele>
        <time>2019-05-09T09:55:44Z</time>
      </trkpt>
      <trkpt lat="43.76618" lon="3.56014">
        <ele>622.28</ele>
        <time>2019-05-09T09:56:00Z</time>
      </trkpt>
      <trkpt lat="43.76619" lon="3.56028">
        <ele>624.68</ele>
        <time>2019-05-09T09:56:18Z</time>
      </trkpt>
      <trkpt lat="43.7662" lon="3.56041">
        <ele>625.93</ele>
        <time>2019-05-09T09:56:34Z</time>
      </trkpt>
      <trkpt lat="43.76621" lon="3.56056">
        <ele>624.47</ele>
        <time>2019-05-09T09:56:48Z</time>
      </trkpt>
      <trkpt lat="43.76623" lon="3.5607">
        <ele>625.95</ele>
        <time>2019-05-09T09:56:58Z</time>
      </trkpt>
      <trkpt lat="43.76623" lon="3.56085">
        <ele>629.4</ele>
        <time>2019-05-09T09:57:10Z</time>
      </trkpt>
      <trkpt lat="43.76623" lon="3.56099">
        <ele>630.51</ele>
        <time>2019-05-09T09:57:20Z</time>
      </trkpt>
      <trkpt lat="43.76627" lon="3.5611">
        <ele>629.37</ele>
        <time>2019-05-09T09:57:44Z</time>
      </trkpt>
      <trkpt lat="43.76632" lon="3.56122">
        <ele>630.11</ele>
        <time>2019-05-09T09:59:06Z</time>
      </trkpt>
      <trkpt lat="43.76634" lon="3.56136">
        <ele>633.25</ele>
        <time>2019-05-09T09:59:20Z</time>
      </trkpt>
      <trkpt lat="43.76632" lon="3.5615">
        <ele>633.04</ele>
        <time>2019-05-09T09:59:32Z</time>
      </trkpt>
      <trkpt lat="43.76633" lon="3.56137">
        <ele>635.57</ele>
        <time>2019-05-09T10:01:12Z</time>
      </trkpt>
      <trkpt lat="43.76631" lon="3.56122">
        <ele>634.42</ele>
        <time>2019-05-09T10:02:02Z</time>
      </trkpt>
      <trkpt lat="43.76627" lon="3.5611">
        <ele>635.58</ele>
        <time>2019-05-09T10:02:44Z</time>
      </trkpt>
      <trkpt lat="43.76622" lon="3.56097">
        <ele>634.25</ele>
        <time>2019-05-09T10:04:26Z</time>
      </trkpt>
      <trkpt lat="43.76621" lon="3.56082">
        <ele>633.56</ele>
        <time>2019-05-09T10:04:34Z</time>
      </trkpt>
      <trkpt lat="43.7662" lon="3.56067">
        <ele>632.11</ele>
        <time>2019-05-09T10:04:44Z</time>
      </trkpt>
      <trkpt lat="43.76619" lon="3.56054">
        <ele>629.41</ele>
        <time>2019-05-09T10:04:54Z</time>
      </trkpt>
      <trkpt lat="43.76617" lon="3.56042">
        <ele>629.87</ele>
        <time>2019-05-09T10:05:06Z</time>
      </trkpt>
      <trkpt lat="43.76617" lon="3.56028">
        <ele>627.95</ele>
        <time>2019-05-09T10:05:52Z</time>
      </trkpt>
      <trkpt lat="43.76616" lon="3.56015">
        <ele>626.13</ele>
        <time>2019-05-09T10:06:08Z</time>
      </trkpt>
      <trkpt lat="43.76619" lon="3.56003">
        <ele>624.46</ele>
        <time>2019-05-09T10:06:24Z</time>
      </trkpt>
      <trkpt lat="43.76621" lon="3.5599">
        <ele>621.08</ele>
        <time>2019-05-09T10:07:22Z</time>
      </trkpt>
      <trkpt lat="43.76622" lon="3.55976">
        <ele>623.98</ele>
        <time>2019-05-09T10:07:30Z</time>
      </trkpt>
      <trkpt lat="43.7663" lon="3.55967">
        <ele>622.06</ele>
        <time>2019-05-09T10:07:40Z</time>
      </trkpt>
      <trkpt lat="43.7664" lon="3.5596">
        <ele>621.03</ele>
        <time>2019-05-09T10:07:50Z</time>
      </trkpt>
      <trkpt lat="43.76647" lon="3.55952">
        <ele>622</ele>
        <time>2019-05-09T10:08:00Z</time>
      </trkpt>
      <trkpt lat="43.76654" lon="3.55943">
        <ele>621.59</ele>
        <time>2019-05-09T10:08:10Z</time>
      </trkpt>
      <trkpt lat="43.76664" lon="3.55935">
        <ele>621.36</ele>
        <time>2019-05-09T10:08:20Z</time>
      </trkpt>
      <trkpt lat="43.76674" lon="3.55932">
        <ele>618.19</ele>
        <time>2019-05-09T10:08:28Z</time>
      </trkpt>
      <trkpt lat="43.76683" lon="3.55923">
        <ele>619.05</ele>
        <time>2019-05-09T10:08:36Z</time>
      </trkpt>
      <trkpt lat="43.76692" lon="3.55916">
        <ele>618.36</ele>
        <time>2019-05-09T10:08:44Z</time>
      </trkpt>
      <trkpt lat="43.76695" lon="3.55904">
        <ele>619</ele>
        <time>2019-05-09T10:08:52Z</time>
      </trkpt>
      <trkpt lat="43.76698" lon="3.55889">
        <ele>619.48</ele>
        <time>2019-05-09T10:09:00Z</time>
      </trkpt>
      <trkpt lat="43.76707" lon="3.55887">
        <ele>612.58</ele>
        <time>2019-05-09T10:50:16Z</time>
      </trkpt>
      <trkpt lat="43.76717" lon="3.5588">
        <ele>614.07</ele>
        <time>2019-05-09T10:50:44Z</time>
      </trkpt>
      <trkpt lat="43.76726" lon="3.55873">
        <ele>611.06</ele>
        <time>2019-05-09T10:50:54Z</time>
      </trkpt>
      <trkpt lat="43.76733" lon="3.55865">
        <ele>607.73</ele>
        <time>2019-05-09T10:51:02Z</time>
      </trkpt>
      <trkpt lat="43.7674" lon="3.55855">
        <ele>611.4</ele>
        <time>2019-05-09T10:51:10Z</time>
      </trkpt>
      <trkpt lat="43.76748" lon="3.5585">
        <ele>609.5</ele>
        <time>2019-05-09T10:51:18Z</time>
      </trkpt>
      <trkpt lat="43.76753" lon="3.55838">
        <ele>608.97</ele>
        <time>2019-05-09T10:51:30Z</time>
      </trkpt>
      <trkpt lat="43.76757" lon="3.55824">
        <ele>609.85</ele>
        <time>2019-05-09T10:51:38Z</time>
      </trkpt>
      <trkpt lat="43.76763" lon="3.55814">
        <ele>607.47</ele>
        <time>2019-05-09T10:51:46Z</time>
      </trkpt>
      <trkpt lat="43.7677" lon="3.55804">
        <ele>605.63</ele>
        <time>2019-05-09T10:51:54Z</time>
      </trkpt>
      <trkpt lat="43.76774" lon="3.55791">
        <ele>602.52</ele>
        <time>2019-05-09T10:52:02Z</time>
      </trkpt>
      <trkpt lat="43.76774" lon="3.55778">
        <ele>598.51</ele>
        <time>2019-05-09T10:52:10Z</time>
      </trkpt>
      <trkpt lat="43.76777" lon="3.55766">
        <ele>596.57</ele>
        <time>2019-05-09T10:52:18Z</time>
      </trkpt>
      <trkpt lat="43.76778" lon="3.5575">
        <ele>596.39</ele>
        <time>2019-05-09T10:52:26Z</time>
      </trkpt>
      <trkpt lat="43.76779" lon="3.55737">
        <ele>597.57</ele>
        <time>2019-05-09T10:52:34Z</time>
      </trkpt>
      <trkpt lat="43.76778" lon="3.55723">
        <ele>600.26</ele>
        <time>2019-05-09T10:52:42Z</time>
      </trkpt>
      <trkpt lat="43.76771" lon="3.55714">
        <ele>600.81</ele>
        <time>2019-05-09T10:52:50Z</time>
      </trkpt>
      <trkpt lat="43.76763" lon="3.55706">
        <ele>605.4</ele>
        <time>2019-05-09T10:52:58Z</time>
      </trkpt>
      <trkpt lat="43.76755" lon="3.557">
        <ele>599.63</ele>
        <time>2019-05-09T10:53:06Z</time>
      </trkpt>
      <trkpt lat="43.76746" lon="3.55694">
        <ele>597.95</ele>
        <time>2019-05-09T10:53:16Z</time>
      </trkpt>
      <trkpt lat="43.76736" lon="3.55695">
        <ele>598.66</ele>
        <time>2019-05-09T10:53:24Z</time>
      </trkpt>
      <trkpt lat="43.76726" lon="3.55688">
        <ele>594.3</ele>
        <time>2019-05-09T10:53:34Z</time>
      </trkpt>
      <trkpt lat="43.76716" lon="3.55686">
        <ele>593.12</ele>
        <time>2019-05-09T10:53:42Z</time>
      </trkpt>
      <trkpt lat="43.76707" lon="3.55684">
        <ele>590.66</ele>
        <time>2019-05-09T10:53:52Z</time>
      </trkpt>
      <trkpt lat="43.76697" lon="3.55677">
        <ele>587.99</ele>
        <time>2019-05-09T10:54:02Z</time>
      </trkpt>
      <trkpt lat="43.76693" lon="3.55666">
        <ele>586.67</ele>
        <time>2019-05-09T10:54:10Z</time>
      </trkpt>
      <trkpt lat="43.76688" lon="3.55653">
        <ele>584.77</ele>
        <time>2019-05-09T10:54:20Z</time>
      </trkpt>
      <trkpt lat="43.76684" lon="3.55641">
        <ele>586.09</ele>
        <time>2019-05-09T10:54:28Z</time>
      </trkpt>
      <trkpt lat="43.76681" lon="3.55629">
        <ele>585.42</ele>
        <time>2019-05-09T10:54:36Z</time>
      </trkpt>
      <trkpt lat="43.76682" lon="3.55616">
        <ele>583.93</ele>
        <time>2019-05-09T10:54:42Z</time>
      </trkpt>
      <trkpt lat="43.7668" lon="3.55602">
        <ele>586</ele>
        <time>2019-05-09T10:54:48Z</time>
      </trkpt>
      <trkpt lat="43.76683" lon="3.5559">
        <ele>589.04</ele>
        <time>2019-05-09T10:54:56Z</time>
      </trkpt>
      <trkpt lat="43.76687" lon="3.55576">
        <ele>586.4</ele>
        <time>2019-05-09T10:55:08Z</time>
      </trkpt>
      <trkpt lat="43.7669" lon="3.55562">
        <ele>590.25</ele>
        <time>2019-05-09T10:55:16Z</time>
      </trkpt>
      <trkpt lat="43.76697" lon="3.55552">
        <ele>590.18</ele>
        <time>2019-05-09T10:55:24Z</time>
      </trkpt>
      <trkpt lat="43.76703" lon="3.55539">
        <ele>587.8</ele>
        <time>2019-05-09T10:55:32Z</time>
      </trkpt>
      <trkpt lat="43.76706" lon="3.55525">
        <ele>583.59</ele>
        <time>2019-05-09T10:55:40Z</time>
      </trkpt>
      <trkpt lat="43.76708" lon="3.55512">
        <ele>588.69</ele>
        <time>2019-05-09T10:55:52Z</time>
      </trkpt>
      <trkpt lat="43.76709" lon="3.55499">
        <ele>590.58</ele>
        <time>2019-05-09T10:56:00Z</time>
      </trkpt>
      <trkpt lat="43.7671" lon="3.55486">
        <ele>590.58</ele>
        <time>2019-05-09T10:56:08Z</time>
      </trkpt>
      <trkpt lat="43.76705" lon="3.55473">
        <ele>595.39</ele>
        <time>2019-05-09T10:56:16Z</time>
      </trkpt>
      <trkpt lat="43.76699" lon="3.55464">
        <ele>596.75</ele>
        <time>2019-05-09T10:56:24Z</time>
      </trkpt>
      <trkpt lat="43.76696" lon="3.55452">
        <ele>594.71</ele>
        <time>2019-05-09T10:56:32Z</time>
      </trkpt>
      <trkpt lat="43.76691" lon="3.55438">
        <ele>595.27</ele>
        <time>2019-05-09T10:56:40Z</time>
      </trkpt>
      <trkpt lat="43.7669" lon="3.55423">
        <ele>596.5</ele>
        <time>2019-05-09T10:56:48Z</time>
      </trkpt>
      <trkpt lat="43.7668" lon="3.55415">
        <ele>591.01</ele>
        <time>2019-05-09T10:56:58Z</time>
      </trkpt>
      <trkpt lat="43.76675" lon="3.55404">
        <ele>586.51</ele>
        <time>2019-05-09T10:57:04Z</time>
      </trkpt>
      <trkpt lat="43.76667" lon="3.55395">
        <ele>603.7</ele>
        <time>2019-05-09T10:57:14Z</time>
      </trkpt>
      <trkpt lat="43.76656" lon="3.55394">
        <ele>597.9</ele>
        <time>2019-05-09T10:57:22Z</time>
      </trkpt>
      <trkpt lat="43.76647" lon="3.55389">
        <ele>589.91</ele>
        <time>2019-05-09T10:57:30Z</time>
      </trkpt>
      <trkpt lat="43.76644" lon="3.55376">
        <ele>579.99</ele>
        <time>2019-05-09T10:57:36Z</time>
      </trkpt>
      <trkpt lat="43.76635" lon="3.55369">
        <ele>581.13</ele>
        <time>2019-05-09T10:57:42Z</time>
      </trkpt>
      <trkpt lat="43.76625" lon="3.55365">
        <ele>586.02</ele>
        <time>2019-05-09T10:57:48Z</time>
      </trkpt>
      <trkpt lat="43.76617" lon="3.55362">
        <ele>588.51</ele>
        <time>2019-05-09T10:57:54Z</time>
      </trkpt>
      <trkpt lat="43.76605" lon="3.55356">
        <ele>588.95</ele>
        <time>2019-05-09T10:58:02Z</time>
      </trkpt>
      <trkpt lat="43.76596" lon="3.55352">
        <ele>588.91</ele>
        <time>2019-05-09T10:58:10Z</time>
      </trkpt>
      <trkpt lat="43.76587" lon="3.55343">
        <ele>587.97</ele>
        <time>2019-05-09T10:58:18Z</time>
      </trkpt>
      <trkpt lat="43.76579" lon="3.55333">
        <ele>585.23</ele>
        <time>2019-05-09T10:58:26Z</time>
      </trkpt>
      <trkpt lat="43.76571" lon="3.55323">
        <ele>582.74</ele>
        <time>2019-05-09T10:58:34Z</time>
      </trkpt>
      <trkpt lat="43.76563" lon="3.55317">
        <ele>583.77</ele>
        <time>2019-05-09T10:58:42Z</time>
      </trkpt>
      <trkpt lat="43.76555" lon="3.55313">
        <ele>582.84</ele>
        <time>2019-05-09T10:58:50Z</time>
      </trkpt>
      <trkpt lat="43.76546" lon="3.55309">
        <ele>582.22</ele>
        <time>2019-05-09T10:58:58Z</time>
      </trkpt>
      <trkpt lat="43.76536" lon="3.55302">
        <ele>584.18</ele>
        <time>2019-05-09T10:59:06Z</time>
      </trkpt>
      <trkpt lat="43.76528" lon="3.55294">
        <ele>578.13</ele>
        <time>2019-05-09T10:59:16Z</time>
      </trkpt>
      <trkpt lat="43.76523" lon="3.55284">
        <ele>573.4</ele>
        <time>2019-05-09T10:59:22Z</time>
      </trkpt>
      <trkpt lat="43.76516" lon="3.55275">
        <ele>573.68</ele>
        <time>2019-05-09T10:59:28Z</time>
      </trkpt>
      <trkpt lat="43.76508" lon="3.55266">
        <ele>574.59</ele>
        <time>2019-05-09T10:59:34Z</time>
      </trkpt>
      <trkpt lat="43.76497" lon="3.55258">
        <ele>576.14</ele>
        <time>2019-05-09T10:59:44Z</time>
      </trkpt>
      <trkpt lat="43.76486" lon="3.55253">
        <ele>576.42</ele>
        <time>2019-05-09T10:59:52Z</time>
      </trkpt>
      <trkpt lat="43.76481" lon="3.55239">
        <ele>579.26</ele>
        <time>2019-05-09T11:00:02Z</time>
      </trkpt>
      <trkpt lat="43.76477" lon="3.55224">
        <ele>585.41</ele>
        <time>2019-05-09T11:00:12Z</time>
      </trkpt>
      <trkpt lat="43.76476" lon="3.55208">
        <ele>583.07</ele>
        <time>2019-05-09T11:00:20Z</time>
      </trkpt>
      <trkpt lat="43.76465" lon="3.55204">
        <ele>579.92</ele>
        <time>2019-05-09T11:00:38Z</time>
      </trkpt>
      <trkpt lat="43.76454" lon="3.55206">
        <ele>573.97</ele>
        <time>2019-05-09T11:00:46Z</time>
      </trkpt>
      <trkpt lat="43.76446" lon="3.55197">
        <ele>580.6</ele>
        <time>2019-05-09T11:00:54Z</time>
      </trkpt>
      <trkpt lat="43.76439" lon="3.55187">
        <ele>597.08</ele>
        <time>2019-05-09T11:01:02Z</time>
      </trkpt>
      <trkpt lat="43.76429" lon="3.55181">
        <ele>591.11</ele>
        <time>2019-05-09T11:01:10Z</time>
      </trkpt>
      <trkpt lat="43.76419" lon="3.55174">
        <ele>589.11</ele>
        <time>2019-05-09T11:01:18Z</time>
      </trkpt>
      <trkpt lat="43.76416" lon="3.55162">
        <ele>587.39</ele>
        <time>2019-05-09T11:01:24Z</time>
      </trkpt>
      <trkpt lat="43.76411" lon="3.5515">
        <ele>586.82</ele>
        <time>2019-05-09T11:01:32Z</time>
      </trkpt>
      <trkpt lat="43.76408" lon="3.55136">
        <ele>586.78</ele>
        <time>2019-05-09T11:01:40Z</time>
      </trkpt>
      <trkpt lat="43.76412" lon="3.55123">
        <ele>587.09</ele>
        <time>2019-05-09T11:01:48Z</time>
      </trkpt>
      <trkpt lat="43.76407" lon="3.55111">
        <ele>584.91</ele>
        <time>2019-05-09T11:01:58Z</time>
      </trkpt>
      <trkpt lat="43.76397" lon="3.55111">
        <ele>578.29</ele>
        <time>2019-05-09T11:02:10Z</time>
      </trkpt>
      <trkpt lat="43.76386" lon="3.55109">
        <ele>580.56</ele>
        <time>2019-05-09T11:02:18Z</time>
      </trkpt>
      <trkpt lat="43.76379" lon="3.55099">
        <ele>583.14</ele>
        <time>2019-05-09T11:02:26Z</time>
      </trkpt>
      <trkpt lat="43.76369" lon="3.55092">
        <ele>584.36</ele>
        <time>2019-05-09T11:02:34Z</time>
      </trkpt>
      <trkpt lat="43.7636" lon="3.55098">
        <ele>585.75</ele>
        <time>2019-05-09T11:02:42Z</time>
      </trkpt>
      <trkpt lat="43.76351" lon="3.55105">
        <ele>589.84</ele>
        <time>2019-05-09T11:02:50Z</time>
      </trkpt>
      <trkpt lat="43.76341" lon="3.55112">
        <ele>591.09</ele>
        <time>2019-05-09T11:02:58Z</time>
      </trkpt>
      <trkpt lat="43.7633" lon="3.55116">
        <ele>590.3</ele>
        <time>2019-05-09T11:03:06Z</time>
      </trkpt>
      <trkpt lat="43.76319" lon="3.55121">
        <ele>588.5</ele>
        <time>2019-05-09T11:03:14Z</time>
      </trkpt>
      <trkpt lat="43.7631" lon="3.55129">
        <ele>591.07</ele>
        <time>2019-05-09T11:03:22Z</time>
      </trkpt>
      <trkpt lat="43.76301" lon="3.55137">
        <ele>589.23</ele>
        <time>2019-05-09T11:03:30Z</time>
      </trkpt>
      <trkpt lat="43.76291" lon="3.55143">
        <ele>588.68</ele>
        <time>2019-05-09T11:03:38Z</time>
      </trkpt>
      <trkpt lat="43.76281" lon="3.55149">
        <ele>586.65</ele>
        <time>2019-05-09T11:03:46Z</time>
      </trkpt>
      <trkpt lat="43.76272" lon="3.55159">
        <ele>586.58</ele>
        <time>2019-05-09T11:03:54Z</time>
      </trkpt>
      <trkpt lat="43.76266" lon="3.55168">
        <ele>588.64</ele>
        <time>2019-05-09T11:04:02Z</time>
      </trkpt>
      <trkpt lat="43.76257" lon="3.55177">
        <ele>590.42</ele>
        <time>2019-05-09T11:04:12Z</time>
      </trkpt>
      <trkpt lat="43.76249" lon="3.55188">
        <ele>589.75</ele>
        <time>2019-05-09T11:04:20Z</time>
      </trkpt>
      <trkpt lat="43.76241" lon="3.55194">
        <ele>589.97</ele>
        <time>2019-05-09T11:04:26Z</time>
      </trkpt>
      <trkpt lat="43.76231" lon="3.55198">
        <ele>589.63</ele>
        <time>2019-05-09T11:04:32Z</time>
      </trkpt>
      <trkpt lat="43.76221" lon="3.55201">
        <ele>587.33</ele>
        <time>2019-05-09T11:04:40Z</time>
      </trkpt>
      <trkpt lat="43.76212" lon="3.55195">
        <ele>587.81</ele>
        <time>2019-05-09T11:04:48Z</time>
      </trkpt>
      <trkpt lat="43.76207" lon="3.55184">
        <ele>589.28</ele>
        <time>2019-05-09T11:04:56Z</time>
      </trkpt>
      <trkpt lat="43.76204" lon="3.55171">
        <ele>589.06</ele>
        <time>2019-05-09T11:05:04Z</time>
      </trkpt>
      <trkpt lat="43.76201" lon="3.55156">
        <ele>589.56</ele>
        <time>2019-05-09T11:05:14Z</time>
      </trkpt>
      <trkpt lat="43.76194" lon="3.55146">
        <ele>590.95</ele>
        <time>2019-05-09T11:05:22Z</time>
      </trkpt>
      <trkpt lat="43.76188" lon="3.55135">
        <ele>592.5</ele>
        <time>2019-05-09T11:05:28Z</time>
      </trkpt>
      <trkpt lat="43.76183" lon="3.55125">
        <ele>590.69</ele>
        <time>2019-05-09T11:05:34Z</time>
      </trkpt>
      <trkpt lat="43.7618" lon="3.5511">
        <ele>588.27</ele>
        <time>2019-05-09T11:05:42Z</time>
      </trkpt>
      <trkpt lat="43.76178" lon="3.55097">
        <ele>587.37</ele>
        <time>2019-05-09T11:05:50Z</time>
      </trkpt>
      <trkpt lat="43.76179" lon="3.55083">
        <ele>586.4</ele>
        <time>2019-05-09T11:06:04Z</time>
      </trkpt>
      <trkpt lat="43.7617" lon="3.55076">
        <ele>589.16</ele>
        <time>2019-05-09T11:06:28Z</time>
      </trkpt>
      <trkpt lat="43.76161" lon="3.55076">
        <ele>588.02</ele>
        <time>2019-05-09T11:06:44Z</time>
      </trkpt>
      <trkpt lat="43.76151" lon="3.55075">
        <ele>588.56</ele>
        <time>2019-05-09T11:07:02Z</time>
      </trkpt>
      <trkpt lat="43.76141" lon="3.5507">
        <ele>586.39</ele>
        <time>2019-05-09T11:07:18Z</time>
      </trkpt>
      <trkpt lat="43.76134" lon="3.55062">
        <ele>588.09</ele>
        <time>2019-05-09T11:07:44Z</time>
      </trkpt>
      <trkpt lat="43.76125" lon="3.5506">
        <ele>585.33</ele>
        <time>2019-05-09T11:08:24Z</time>
      </trkpt>
      <trkpt lat="43.76116" lon="3.55055">
        <ele>582.05</ele>
        <time>2019-05-09T11:09:04Z</time>
      </trkpt>
      <trkpt lat="43.76107" lon="3.5505">
        <ele>580.37</ele>
        <time>2019-05-09T11:09:38Z</time>
      </trkpt>
      <trkpt lat="43.761" lon="3.5504">
        <ele>577.36</ele>
        <time>2019-05-09T11:10:12Z</time>
      </trkpt>
      <trkpt lat="43.76091" lon="3.55037">
        <ele>578.27</ele>
        <time>2019-05-09T11:10:58Z</time>
      </trkpt>
      <trkpt lat="43.76083" lon="3.5503">
        <ele>571.28</ele>
        <time>2019-05-09T11:11:34Z</time>
      </trkpt>
      <trkpt lat="43.76077" lon="3.5502">
        <ele>566.98</ele>
        <time>2019-05-09T11:12:12Z</time>
      </trkpt>
      <trkpt lat="43.76077" lon="3.55007">
        <ele>566.44</ele>
        <time>2019-05-09T11:12:48Z</time>
      </trkpt>
      <trkpt lat="43.76076" lon="3.54994">
        <ele>562.66</ele>
        <time>2019-05-09T11:13:10Z</time>
      </trkpt>
      <trkpt lat="43.76068" lon="3.54986">
        <ele>563.76</ele>
        <time>2019-05-09T11:13:58Z</time>
      </trkpt>
      <trkpt lat="43.76056" lon="3.54978">
        <ele>563.6</ele>
        <time>2019-05-09T11:14:26Z</time>
      </trkpt>
      <trkpt lat="43.76048" lon="3.54968">
        <ele>559.83</ele>
        <time>2019-05-09T11:14:34Z</time>
      </trkpt>
      <trkpt lat="43.76044" lon="3.54957">
        <ele>559.23</ele>
        <time>2019-05-09T11:14:40Z</time>
      </trkpt>
      <trkpt lat="43.76037" lon="3.54947">
        <ele>557.88</ele>
        <time>2019-05-09T11:14:52Z</time>
      </trkpt>
      <trkpt lat="43.7603" lon="3.54938">
        <ele>559.08</ele>
        <time>2019-05-09T11:15:04Z</time>
      </trkpt>
      <trkpt lat="43.76023" lon="3.54929">
        <ele>553.3</ele>
        <time>2019-05-09T11:15:52Z</time>
      </trkpt>
      <trkpt lat="43.76014" lon="3.54924">
        <ele>551.66</ele>
        <time>2019-05-09T11:16:10Z</time>
      </trkpt>
      <trkpt lat="43.76007" lon="3.54915">
        <ele>548.19</ele>
        <time>2019-05-09T11:16:22Z</time>
      </trkpt>
      <trkpt lat="43.75998" lon="3.54911">
        <ele>546.7</ele>
        <time>2019-05-09T11:16:38Z</time>
      </trkpt>
      <trkpt lat="43.7599" lon="3.54904">
        <ele>544.77</ele>
        <time>2019-05-09T11:16:52Z</time>
      </trkpt>
      <trkpt lat="43.75981" lon="3.54895">
        <ele>545.55</ele>
        <time>2019-05-09T11:17:02Z</time>
      </trkpt>
      <trkpt lat="43.75973" lon="3.54892">
        <ele>543.83</ele>
        <time>2019-05-09T11:17:38Z</time>
      </trkpt>
      <trkpt lat="43.75963" lon="3.5489">
        <ele>542.86</ele>
        <time>2019-05-09T11:18:02Z</time>
      </trkpt>
      <trkpt lat="43.75954" lon="3.54889">
        <ele>541.09</ele>
        <time>2019-05-09T11:18:22Z</time>
      </trkpt>
      <trkpt lat="43.75944" lon="3.54887">
        <ele>541.79</ele>
        <time>2019-05-09T11:18:52Z</time>
      </trkpt>
      <trkpt lat="43.75935" lon="3.54884">
        <ele>534.16</ele>
        <time>2019-05-09T11:20:02Z</time>
      </trkpt>
      <trkpt lat="43.75929" lon="3.54894">
        <ele>528.37</ele>
        <time>2019-05-09T11:20:30Z</time>
      </trkpt>
      <trkpt lat="43.75923" lon="3.54885">
        <ele>525.88</ele>
        <time>2019-05-09T11:21:36Z</time>
      </trkpt>
      <trkpt lat="43.75919" lon="3.54871">
        <ele>529.78</ele>
        <time>2019-05-09T11:21:44Z</time>
      </trkpt>
      <trkpt lat="43.7592" lon="3.54856">
        <ele>531.21</ele>
        <time>2019-05-09T11:22:00Z</time>
      </trkpt>
      <trkpt lat="43.75926" lon="3.54847">
        <ele>530.43</ele>
        <time>2019-05-09T11:22:08Z</time>
      </trkpt>
      <trkpt lat="43.75932" lon="3.54837">
        <ele>529.23</ele>
        <time>2019-05-09T11:22:20Z</time>
      </trkpt>
      <trkpt lat="43.75937" lon="3.54826">
        <ele>530.32</ele>
        <time>2019-05-09T11:22:30Z</time>
      </trkpt>
      <trkpt lat="43.75937" lon="3.54812">
        <ele>533.08</ele>
        <time>2019-05-09T11:23:24Z</time>
      </trkpt>
      <trkpt lat="43.7594" lon="3.548">
        <ele>536.56</ele>
        <time>2019-05-09T11:23:34Z</time>
      </trkpt>
      <trkpt lat="43.75945" lon="3.54788">
        <ele>540.92</ele>
        <time>2019-05-09T11:23:46Z</time>
      </trkpt>
      <trkpt lat="43.75955" lon="3.54782">
        <ele>538.87</ele>
        <time>2019-05-09T11:23:56Z</time>
      </trkpt>
      <trkpt lat="43.75959" lon="3.54768">
        <ele>538.84</ele>
        <time>2019-05-09T11:24:06Z</time>
      </trkpt>
      <trkpt lat="43.7595" lon="3.54764">
        <ele>539.83</ele>
        <time>2019-05-09T11:24:36Z</time>
      </trkpt>
      <trkpt lat="43.75942" lon="3.54758">
        <ele>541.25</ele>
        <time>2019-05-09T11:24:48Z</time>
      </trkpt>
      <trkpt lat="43.75934" lon="3.54751">
        <ele>544.81</ele>
        <time>2019-05-09T11:25:04Z</time>
      </trkpt>
      <trkpt lat="43.75925" lon="3.54743">
        <ele>546.86</ele>
        <time>2019-05-09T11:25:26Z</time>
      </trkpt>
      <trkpt lat="43.75921" lon="3.54733">
        <ele>553.06</ele>
        <time>2019-05-09T11:25:40Z</time>
      </trkpt>
      <trkpt lat="43.75918" lon="3.5472">
        <ele>553.33</ele>
        <time>2019-05-09T11:26:16Z</time>
      </trkpt>
      <trkpt lat="43.75913" lon="3.54707">
        <ele>559.83</ele>
        <time>2019-05-09T11:26:54Z</time>
      </trkpt>
      <trkpt lat="43.75913" lon="3.54694">
        <ele>560.08</ele>
        <time>2019-05-09T11:27:14Z</time>
      </trkpt>
      <trkpt lat="43.75913" lon="3.54679">
        <ele>562.28</ele>
        <time>2019-05-09T11:27:24Z</time>
      </trkpt>
      <trkpt lat="43.75905" lon="3.54671">
        <ele>563.32</ele>
        <time>2019-05-09T11:27:54Z</time>
      </trkpt>
      <trkpt lat="43.75902" lon="3.54658">
        <ele>565.4</ele>
        <time>2019-05-09T11:28:16Z</time>
      </trkpt>
      <trkpt lat="43.75899" lon="3.54644">
        <ele>572.83</ele>
        <time>2019-05-09T11:29:16Z</time>
      </trkpt>
      <trkpt lat="43.75895" lon="3.54632">
        <ele>570.35</ele>
        <time>2019-05-09T11:29:34Z</time>
      </trkpt>
      <trkpt lat="43.75889" lon="3.54642">
        <ele>568.15</ele>
        <time>2019-05-09T11:29:48Z</time>
      </trkpt>
      <trkpt lat="43.75897" lon="3.5463">
        <ele>561.58</ele>
        <time>2019-05-09T11:32:35Z</time>
      </trkpt>
      <trkpt lat="43.75895" lon="3.54644">
        <ele>561.7</ele>
        <time>2019-05-09T11:32:44Z</time>
      </trkpt>
      <trkpt lat="43.75884" lon="3.54646">
        <ele>572.19</ele>
        <time>2019-05-09T11:34:38Z</time>
      </trkpt>
      <trkpt lat="43.75876" lon="3.54652">
        <ele>572.43</ele>
        <time>2019-05-09T11:34:46Z</time>
      </trkpt>
      <trkpt lat="43.75885" lon="3.5465">
        <ele>569.83</ele>
        <time>2019-05-09T11:37:12Z</time>
      </trkpt>
      <trkpt lat="43.75892" lon="3.54639">
        <ele>570.15</ele>
        <time>2019-05-09T11:37:22Z</time>
      </trkpt>
      <trkpt lat="43.75894" lon="3.54626">
        <ele>570.56</ele>
        <time>2019-05-09T11:37:36Z</time>
      </trkpt>
      <trkpt lat="43.75896" lon="3.54612">
        <ele>574.99</ele>
        <time>2019-05-09T11:37:54Z</time>
      </trkpt>
      <trkpt lat="43.75898" lon="3.54597">
        <ele>576.7</ele>
        <time>2019-05-09T11:38:20Z</time>
      </trkpt>
      <trkpt lat="43.759" lon="3.54585">
        <ele>577.76</ele>
        <time>2019-05-09T11:38:50Z</time>
      </trkpt>
      <trkpt lat="43.75901" lon="3.54571">
        <ele>578.7</ele>
        <time>2019-05-09T11:39:08Z</time>
      </trkpt>
      <trkpt lat="43.759" lon="3.54558">
        <ele>582.74</ele>
        <time>2019-05-09T11:39:18Z</time>
      </trkpt>
      <trkpt lat="43.759" lon="3.54545">
        <ele>582.59</ele>
        <time>2019-05-09T11:39:34Z</time>
      </trkpt>
      <trkpt lat="43.75908" lon="3.54539">
        <ele>586.22</ele>
        <time>2019-05-09T11:39:48Z</time>
      </trkpt>
      <trkpt lat="43.75916" lon="3.54532">
        <ele>591.16</ele>
        <time>2019-05-09T11:40:12Z</time>
      </trkpt>
      <trkpt lat="43.75923" lon="3.54525">
        <ele>592.79</ele>
        <time>2019-05-09T11:40:34Z</time>
      </trkpt>
      <trkpt lat="43.75932" lon="3.54518">
        <ele>590.41</ele>
        <time>2019-05-09T11:40:48Z</time>
      </trkpt>
      <trkpt lat="43.75941" lon="3.54516">
        <ele>590.26</ele>
        <time>2019-05-09T11:40:58Z</time>
      </trkpt>
      <trkpt lat="43.7595" lon="3.54511">
        <ele>591.01</ele>
        <time>2019-05-09T11:44:34Z</time>
      </trkpt>
      <trkpt lat="43.75955" lon="3.54498">
        <ele>595.85</ele>
        <time>2019-05-09T11:44:46Z</time>
      </trkpt>
      <trkpt lat="43.75956" lon="3.54484">
        <ele>589.42</ele>
        <time>2019-05-09T11:45:06Z</time>
      </trkpt>
      <trkpt lat="43.75956" lon="3.54469">
        <ele>589.88</ele>
        <time>2019-05-09T11:45:16Z</time>
      </trkpt>
      <trkpt lat="43.75959" lon="3.54456">
        <ele>591.71</ele>
        <time>2019-05-09T11:45:32Z</time>
      </trkpt>
      <trkpt lat="43.75964" lon="3.54442">
        <ele>591.7</ele>
        <time>2019-05-09T11:45:58Z</time>
      </trkpt>
      <trkpt lat="43.75972" lon="3.54433">
        <ele>595.92</ele>
        <time>2019-05-09T11:46:16Z</time>
      </trkpt>
      <trkpt lat="43.75978" lon="3.54423">
        <ele>596.72</ele>
        <time>2019-05-09T11:46:30Z</time>
      </trkpt>
      <trkpt lat="43.75986" lon="3.54414">
        <ele>602.61</ele>
        <time>2019-05-09T11:46:58Z</time>
      </trkpt>
      <trkpt lat="43.75994" lon="3.54405">
        <ele>605.83</ele>
        <time>2019-05-09T11:47:10Z</time>
      </trkpt>
      <trkpt lat="43.76003" lon="3.54399">
        <ele>611.05</ele>
        <time>2019-05-09T11:47:20Z</time>
      </trkpt>
      <trkpt lat="43.76006" lon="3.54386">
        <ele>615.41</ele>
        <time>2019-05-09T11:47:32Z</time>
      </trkpt>
      <trkpt lat="43.76012" lon="3.54375">
        <ele>615.25</ele>
        <time>2019-05-09T11:47:44Z</time>
      </trkpt>
      <trkpt lat="43.76021" lon="3.54373">
        <ele>616.04</ele>
        <time>2019-05-09T11:47:58Z</time>
      </trkpt>
      <trkpt lat="43.76031" lon="3.54374">
        <ele>617.43</ele>
        <time>2019-05-09T11:48:12Z</time>
      </trkpt>
      <trkpt lat="43.7604" lon="3.54381">
        <ele>619.57</ele>
        <time>2019-05-09T11:48:34Z</time>
      </trkpt>
      <trkpt lat="43.76051" lon="3.54384">
        <ele>620.2</ele>
        <time>2019-05-09T11:48:42Z</time>
      </trkpt>
      <trkpt lat="43.76061" lon="3.54387">
        <ele>621.28</ele>
        <time>2019-05-09T11:48:48Z</time>
      </trkpt>
      <trkpt lat="43.76059" lon="3.54399">
        <ele>622.87</ele>
        <time>2019-05-09T11:48:56Z</time>
      </trkpt>
      <trkpt lat="43.76068" lon="3.54403">
        <ele>622.65</ele>
        <time>2019-05-09T11:49:18Z</time>
      </trkpt>
      <trkpt lat="43.76077" lon="3.5441">
        <ele>621.45</ele>
        <time>2019-05-09T11:49:28Z</time>
      </trkpt>
      <trkpt lat="43.76084" lon="3.54417">
        <ele>623.92</ele>
        <time>2019-05-09T11:49:40Z</time>
      </trkpt>
      <trkpt lat="43.76095" lon="3.54414">
        <ele>622.6</ele>
        <time>2019-05-09T11:49:54Z</time>
      </trkpt>
      <trkpt lat="43.76103" lon="3.54409">
        <ele>623.82</ele>
        <time>2019-05-09T11:50:10Z</time>
      </trkpt>
      <trkpt lat="43.76108" lon="3.54398">
        <ele>625.31</ele>
        <time>2019-05-09T11:50:34Z</time>
      </trkpt>
      <trkpt lat="43.76117" lon="3.54401">
        <ele>625.6</ele>
        <time>2019-05-09T11:50:44Z</time>
      </trkpt>
      <trkpt lat="43.76127" lon="3.54402">
        <ele>625.96</ele>
        <time>2019-05-09T11:51:08Z</time>
      </trkpt>
      <trkpt lat="43.76134" lon="3.54409">
        <ele>626.08</ele>
        <time>2019-05-09T11:51:32Z</time>
      </trkpt>
      <trkpt lat="43.76143" lon="3.54419">
        <ele>626.25</ele>
        <time>2019-05-09T11:51:48Z</time>
      </trkpt>
      <trkpt lat="43.76149" lon="3.54429">
        <ele>628.31</ele>
        <time>2019-05-09T11:52:02Z</time>
      </trkpt>
      <trkpt lat="43.76158" lon="3.54427">
        <ele>628.58</ele>
        <time>2019-05-09T11:52:18Z</time>
      </trkpt>
      <trkpt lat="43.76167" lon="3.54421">
        <ele>626.92</ele>
        <time>2019-05-09T11:52:32Z</time>
      </trkpt>
      <trkpt lat="43.76171" lon="3.54409">
        <ele>619.2</ele>
        <time>2019-05-09T11:54:02Z</time>
      </trkpt>
      <trkpt lat="43.76176" lon="3.54398">
        <ele>613.69</ele>
        <time>2019-05-09T11:54:12Z</time>
      </trkpt>
      <trkpt lat="43.76182" lon="3.54387">
        <ele>611.13</ele>
        <time>2019-05-09T11:54:24Z</time>
      </trkpt>
      <trkpt lat="43.76186" lon="3.54375">
        <ele>602.16</ele>
        <time>2019-05-09T11:54:50Z</time>
      </trkpt>
      <trkpt lat="43.76193" lon="3.54367">
        <ele>598.31</ele>
        <time>2019-05-09T11:55:12Z</time>
      </trkpt>
      <trkpt lat="43.762" lon="3.54357">
        <ele>595.62</ele>
        <time>2019-05-09T11:55:36Z</time>
      </trkpt>
      <trkpt lat="43.76209" lon="3.54349">
        <ele>590.47</ele>
        <time>2019-05-09T11:55:54Z</time>
      </trkpt>
      <trkpt lat="43.76212" lon="3.54337">
        <ele>583.75</ele>
        <time>2019-05-09T11:56:16Z</time>
      </trkpt>
      <trkpt lat="43.76207" lon="3.54326">
        <ele>581.2</ele>
        <time>2019-05-09T11:57:20Z</time>
      </trkpt>
      <trkpt lat="43.76203" lon="3.54312">
        <ele>582.18</ele>
        <time>2019-05-09T11:57:28Z</time>
      </trkpt>
      <trkpt lat="43.76202" lon="3.54298">
        <ele>582.93</ele>
        <time>2019-05-09T11:57:36Z</time>
      </trkpt>
      <trkpt lat="43.76195" lon="3.54285">
        <ele>581.97</ele>
        <time>2019-05-09T11:57:44Z</time>
      </trkpt>
      <trkpt lat="43.76194" lon="3.54271">
        <ele>580.35</ele>
        <time>2019-05-09T11:57:52Z</time>
      </trkpt>
      <trkpt lat="43.76196" lon="3.54258">
        <ele>581.05</ele>
        <time>2019-05-09T11:57:58Z</time>
      </trkpt>
      <trkpt lat="43.76199" lon="3.54243">
        <ele>578.36</ele>
        <time>2019-05-09T11:58:06Z</time>
      </trkpt>
      <trkpt lat="43.76198" lon="3.54227">
        <ele>578</ele>
        <time>2019-05-09T11:58:14Z</time>
      </trkpt>
      <trkpt lat="43.76195" lon="3.54214">
        <ele>576.88</ele>
        <time>2019-05-09T11:58:20Z</time>
      </trkpt>
      <trkpt lat="43.76189" lon="3.54203">
        <ele>577.22</ele>
        <time>2019-05-09T11:58:28Z</time>
      </trkpt>
      <trkpt lat="43.7618" lon="3.54206">
        <ele>575.3</ele>
        <time>2019-05-09T11:58:36Z</time>
      </trkpt>
      <trkpt lat="43.76171" lon="3.54206">
        <ele>575.47</ele>
        <time>2019-05-09T11:58:46Z</time>
      </trkpt>
      <trkpt lat="43.76161" lon="3.54205">
        <ele>574.76</ele>
        <time>2019-05-09T11:58:56Z</time>
      </trkpt>
      <trkpt lat="43.76151" lon="3.542">
        <ele>574.09</ele>
        <time>2019-05-09T11:59:04Z</time>
      </trkpt>
      <trkpt lat="43.76139" lon="3.54192">
        <ele>575.55</ele>
        <time>2019-05-09T11:59:12Z</time>
      </trkpt>
      <trkpt lat="43.76131" lon="3.54184">
        <ele>569.83</ele>
        <time>2019-05-09T11:59:20Z</time>
      </trkpt>
      <trkpt lat="43.76128" lon="3.54171">
        <ele>570.16</ele>
        <time>2019-05-09T11:59:28Z</time>
      </trkpt>
      <trkpt lat="43.76129" lon="3.54157">
        <ele>571.55</ele>
        <time>2019-05-09T11:59:36Z</time>
      </trkpt>
      <trkpt lat="43.76128" lon="3.54143">
        <ele>575.2</ele>
        <time>2019-05-09T11:59:44Z</time>
      </trkpt>
      <trkpt lat="43.76131" lon="3.5413">
        <ele>570.37</ele>
        <time>2019-05-09T11:59:52Z</time>
      </trkpt>
      <trkpt lat="43.76135" lon="3.54115">
        <ele>566.13</ele>
        <time>2019-05-09T12:00:00Z</time>
      </trkpt>
      <trkpt lat="43.7614" lon="3.54101">
        <ele>562.55</ele>
        <time>2019-05-09T12:00:08Z</time>
      </trkpt>
      <trkpt lat="43.76145" lon="3.5409">
        <ele>562.23</ele>
        <time>2019-05-09T12:00:18Z</time>
      </trkpt>
      <trkpt lat="43.76146" lon="3.54077">
        <ele>562.81</ele>
        <time>2019-05-09T12:00:26Z</time>
      </trkpt>
      <trkpt lat="43.76136" lon="3.54071">
        <ele>563.65</ele>
        <time>2019-05-09T12:00:36Z</time>
      </trkpt>
      <trkpt lat="43.76129" lon="3.54062">
        <ele>564.71</ele>
        <time>2019-05-09T12:00:44Z</time>
      </trkpt>
      <trkpt lat="43.76119" lon="3.5406">
        <ele>561.84</ele>
        <time>2019-05-09T12:00:52Z</time>
      </trkpt>
      <trkpt lat="43.7612" lon="3.54047">
        <ele>562.02</ele>
        <time>2019-05-09T12:01:02Z</time>
      </trkpt>
      <trkpt lat="43.76121" lon="3.54031">
        <ele>564.65</ele>
        <time>2019-05-09T12:01:12Z</time>
      </trkpt>
      <trkpt lat="43.76128" lon="3.54021">
        <ele>564.46</ele>
        <time>2019-05-09T12:01:20Z</time>
      </trkpt>
      <trkpt lat="43.76135" lon="3.54008">
        <ele>562.57</ele>
        <time>2019-05-09T12:01:28Z</time>
      </trkpt>
      <trkpt lat="43.76142" lon="3.54">
        <ele>562.76</ele>
        <time>2019-05-09T12:01:36Z</time>
      </trkpt>
      <trkpt lat="43.76149" lon="3.53992">
        <ele>558.59</ele>
        <time>2019-05-09T12:01:44Z</time>
      </trkpt>
      <trkpt lat="43.76157" lon="3.53986">
        <ele>559.58</ele>
        <time>2019-05-09T12:01:50Z</time>
      </trkpt>
      <trkpt lat="43.76161" lon="3.53973">
        <ele>553.92</ele>
        <time>2019-05-09T12:02:02Z</time>
      </trkpt>
      <trkpt lat="43.76169" lon="3.53965">
        <ele>552.62</ele>
        <time>2019-05-09T12:02:08Z</time>
      </trkpt>
      <trkpt lat="43.76176" lon="3.53955">
        <ele>552.83</ele>
        <time>2019-05-09T12:02:16Z</time>
      </trkpt>
      <trkpt lat="43.76177" lon="3.53939">
        <ele>551.97</ele>
        <time>2019-05-09T12:02:24Z</time>
      </trkpt>
      <trkpt lat="43.76184" lon="3.53929">
        <ele>551.25</ele>
        <time>2019-05-09T12:02:30Z</time>
      </trkpt>
      <trkpt lat="43.76185" lon="3.53916">
        <ele>550.79</ele>
        <time>2019-05-09T12:02:36Z</time>
      </trkpt>
      <trkpt lat="43.76179" lon="3.53903">
        <ele>550.34</ele>
        <time>2019-05-09T12:02:44Z</time>
      </trkpt>
      <trkpt lat="43.76175" lon="3.53888">
        <ele>553.31</ele>
        <time>2019-05-09T12:02:52Z</time>
      </trkpt>
      <trkpt lat="43.76172" lon="3.53873">
        <ele>555.37</ele>
        <time>2019-05-09T12:03:00Z</time>
      </trkpt>
      <trkpt lat="43.76168" lon="3.53859">
        <ele>554.81</ele>
        <time>2019-05-09T12:03:08Z</time>
      </trkpt>
      <trkpt lat="43.76161" lon="3.53851">
        <ele>553.23</ele>
        <time>2019-05-09T12:03:14Z</time>
      </trkpt>
      <trkpt lat="43.76159" lon="3.53838">
        <ele>551.81</ele>
        <time>2019-05-09T12:03:22Z</time>
      </trkpt>
      <trkpt lat="43.76154" lon="3.53826">
        <ele>551.55</ele>
        <time>2019-05-09T12:03:32Z</time>
      </trkpt>
      <trkpt lat="43.76148" lon="3.53816">
        <ele>550.14</ele>
        <time>2019-05-09T12:03:40Z</time>
      </trkpt>
      <trkpt lat="43.76142" lon="3.53805">
        <ele>548.42</ele>
        <time>2019-05-09T12:03:48Z</time>
      </trkpt>
      <trkpt lat="43.76131" lon="3.53798">
        <ele>546.69</ele>
        <time>2019-05-09T12:03:56Z</time>
      </trkpt>
      <trkpt lat="43.76119" lon="3.53798">
        <ele>542.77</ele>
        <time>2019-05-09T12:04:04Z</time>
      </trkpt>
      <trkpt lat="43.76108" lon="3.53804">
        <ele>540.85</ele>
        <time>2019-05-09T12:04:16Z</time>
      </trkpt>
      <trkpt lat="43.76099" lon="3.53807">
        <ele>538.84</ele>
        <time>2019-05-09T12:04:26Z</time>
      </trkpt>
      <trkpt lat="43.76088" lon="3.53806">
        <ele>536.98</ele>
        <time>2019-05-09T12:04:46Z</time>
      </trkpt>
      <trkpt lat="43.76079" lon="3.53806">
        <ele>540.25</ele>
        <time>2019-05-09T12:04:52Z</time>
      </trkpt>
      <trkpt lat="43.7607" lon="3.53813">
        <ele>540.99</ele>
        <time>2019-05-09T12:05:00Z</time>
      </trkpt>
      <trkpt lat="43.76062" lon="3.53821">
        <ele>541.65</ele>
        <time>2019-05-09T12:05:12Z</time>
      </trkpt>
      <trkpt lat="43.76054" lon="3.53831">
        <ele>540.02</ele>
        <time>2019-05-09T12:05:20Z</time>
      </trkpt>
      <trkpt lat="43.76049" lon="3.53843">
        <ele>542.12</ele>
        <time>2019-05-09T12:05:30Z</time>
      </trkpt>
      <trkpt lat="43.76038" lon="3.53846">
        <ele>543.44</ele>
        <time>2019-05-09T12:05:40Z</time>
      </trkpt>
      <trkpt lat="43.76043" lon="3.53835">
        <ele>537.7</ele>
        <time>2019-05-09T12:05:50Z</time>
      </trkpt>
      <trkpt lat="43.7604" lon="3.5382">
        <ele>534.92</ele>
        <time>2019-05-09T12:06:00Z</time>
      </trkpt>
      <trkpt lat="43.76033" lon="3.53812">
        <ele>534.62</ele>
        <time>2019-05-09T12:06:06Z</time>
      </trkpt>
      <trkpt lat="43.76034" lon="3.53798">
        <ele>531.58</ele>
        <time>2019-05-09T12:06:12Z</time>
      </trkpt>
      <trkpt lat="43.76038" lon="3.53786">
        <ele>530.64</ele>
        <time>2019-05-09T12:06:20Z</time>
      </trkpt>
      <trkpt lat="43.76038" lon="3.53773">
        <ele>532.21</ele>
        <time>2019-05-09T12:06:28Z</time>
      </trkpt>
      <trkpt lat="43.76043" lon="3.53758">
        <ele>528.74</ele>
        <time>2019-05-09T12:06:36Z</time>
      </trkpt>
      <trkpt lat="43.76046" lon="3.53746">
        <ele>523.71</ele>
        <time>2019-05-09T12:06:44Z</time>
      </trkpt>
      <trkpt lat="43.76047" lon="3.53733">
        <ele>522.9</ele>
        <time>2019-05-09T12:06:52Z</time>
      </trkpt>
      <trkpt lat="43.76051" lon="3.5372">
        <ele>523.28</ele>
        <time>2019-05-09T12:07:00Z</time>
      </trkpt>
      <trkpt lat="43.76057" lon="3.5371">
        <ele>521.75</ele>
        <time>2019-05-09T12:07:08Z</time>
      </trkpt>
      <trkpt lat="43.76063" lon="3.53698">
        <ele>521.4</ele>
        <time>2019-05-09T12:07:16Z</time>
      </trkpt>
      <trkpt lat="43.76067" lon="3.53686">
        <ele>523.68</ele>
        <time>2019-05-09T12:07:22Z</time>
      </trkpt>
      <trkpt lat="43.76072" lon="3.53674">
        <ele>522.77</ele>
        <time>2019-05-09T12:07:30Z</time>
      </trkpt>
      <trkpt lat="43.76078" lon="3.53664">
        <ele>523.98</ele>
        <time>2019-05-09T12:07:36Z</time>
      </trkpt>
      <trkpt lat="43.76081" lon="3.5365">
        <ele>522.29</ele>
        <time>2019-05-09T12:07:44Z</time>
      </trkpt>
      <trkpt lat="43.7608" lon="3.53637">
        <ele>522.25</ele>
        <time>2019-05-09T12:07:52Z</time>
      </trkpt>
      <trkpt lat="43.76072" lon="3.5363">
        <ele>517.97</ele>
        <time>2019-05-09T12:08:02Z</time>
      </trkpt>
      <trkpt lat="43.76061" lon="3.53621">
        <ele>514.58</ele>
        <time>2019-05-09T12:08:36Z</time>
      </trkpt>
      <trkpt lat="43.76051" lon="3.53615">
        <ele>512.58</ele>
        <time>2019-05-09T12:08:42Z</time>
      </trkpt>
      <trkpt lat="43.76043" lon="3.53606">
        <ele>514.08</ele>
        <time>2019-05-09T12:08:48Z</time>
      </trkpt>
      <trkpt lat="43.76033" lon="3.53598">
        <ele>515.92</ele>
        <time>2019-05-09T12:08:56Z</time>
      </trkpt>
      <trkpt lat="43.76024" lon="3.53591">
        <ele>513.56</ele>
        <time>2019-05-09T12:09:06Z</time>
      </trkpt>
      <trkpt lat="43.76031" lon="3.53579">
        <ele>513.8</ele>
        <time>2019-05-09T12:09:20Z</time>
      </trkpt>
      <trkpt lat="43.7604" lon="3.53571">
        <ele>512.58</ele>
        <time>2019-05-09T12:09:30Z</time>
      </trkpt>
      <trkpt lat="43.76044" lon="3.53556">
        <ele>512.2</ele>
        <time>2019-05-09T12:09:38Z</time>
      </trkpt>
      <trkpt lat="43.76053" lon="3.53559">
        <ele>510.43</ele>
        <time>2019-05-09T12:09:54Z</time>
      </trkpt>
      <trkpt lat="43.76062" lon="3.53557">
        <ele>508.34</ele>
        <time>2019-05-09T12:10:10Z</time>
      </trkpt>
      <trkpt lat="43.76069" lon="3.53549">
        <ele>505.15</ele>
        <time>2019-05-09T12:10:26Z</time>
      </trkpt>
      <trkpt lat="43.76079" lon="3.53544">
        <ele>502.94</ele>
        <time>2019-05-09T12:10:36Z</time>
      </trkpt>
      <trkpt lat="43.76089" lon="3.53541">
        <ele>504.56</ele>
        <time>2019-05-09T12:10:46Z</time>
      </trkpt>
      <trkpt lat="43.76097" lon="3.53536">
        <ele>502.58</ele>
        <time>2019-05-09T12:10:54Z</time>
      </trkpt>
      <trkpt lat="43.76106" lon="3.53528">
        <ele>499.26</ele>
        <time>2019-05-09T12:11:02Z</time>
      </trkpt>
      <trkpt lat="43.76112" lon="3.53517">
        <ele>498.06</ele>
        <time>2019-05-09T12:11:10Z</time>
      </trkpt>
      <trkpt lat="43.7612" lon="3.53509">
        <ele>494.02</ele>
        <time>2019-05-09T12:11:22Z</time>
      </trkpt>
      <trkpt lat="43.76129" lon="3.53502">
        <ele>491.87</ele>
        <time>2019-05-09T12:11:32Z</time>
      </trkpt>
      <trkpt lat="43.76138" lon="3.53499">
        <ele>493.85</ele>
        <time>2019-05-09T12:11:40Z</time>
      </trkpt>
      <trkpt lat="43.76148" lon="3.53497">
        <ele>494.96</ele>
        <time>2019-05-09T12:11:52Z</time>
      </trkpt>
      <trkpt lat="43.76156" lon="3.53501">
        <ele>496.48</ele>
        <time>2019-05-09T12:12:06Z</time>
      </trkpt>
      <trkpt lat="43.76165" lon="3.53504">
        <ele>494.19</ele>
        <time>2019-05-09T12:12:12Z</time>
      </trkpt>
      <trkpt lat="43.76176" lon="3.53506">
        <ele>495.4</ele>
        <time>2019-05-09T12:12:18Z</time>
      </trkpt>
      <trkpt lat="43.76184" lon="3.53512">
        <ele>495.56</ele>
        <time>2019-05-09T12:12:24Z</time>
      </trkpt>
      <trkpt lat="43.76194" lon="3.53518">
        <ele>495.2</ele>
        <time>2019-05-09T12:12:32Z</time>
      </trkpt>
      <trkpt lat="43.76199" lon="3.53529">
        <ele>491.99</ele>
        <time>2019-05-09T12:12:40Z</time>
      </trkpt>
      <trkpt lat="43.7621" lon="3.53529">
        <ele>487.4</ele>
        <time>2019-05-09T12:12:52Z</time>
      </trkpt>
      <trkpt lat="43.7622" lon="3.53528">
        <ele>487.15</ele>
        <time>2019-05-09T12:13:04Z</time>
      </trkpt>
      <trkpt lat="43.76229" lon="3.53532">
        <ele>488.49</ele>
        <time>2019-05-09T12:13:12Z</time>
      </trkpt>
      <trkpt lat="43.76238" lon="3.53538">
        <ele>487.45</ele>
        <time>2019-05-09T12:13:20Z</time>
      </trkpt>
      <trkpt lat="43.76246" lon="3.53547">
        <ele>485.69</ele>
        <time>2019-05-09T12:13:28Z</time>
      </trkpt>
      <trkpt lat="43.7625" lon="3.53561">
        <ele>485.3</ele>
        <time>2019-05-09T12:13:38Z</time>
      </trkpt>
      <trkpt lat="43.76252" lon="3.53573">
        <ele>487</ele>
        <time>2019-05-09T12:13:46Z</time>
      </trkpt>
      <trkpt lat="43.76261" lon="3.53572">
        <ele>486.13</ele>
        <time>2019-05-09T12:13:58Z</time>
      </trkpt>
      <trkpt lat="43.76271" lon="3.53571">
        <ele>487.36</ele>
        <time>2019-05-09T12:14:06Z</time>
      </trkpt>
      <trkpt lat="43.76281" lon="3.53566">
        <ele>481.22</ele>
        <time>2019-05-09T12:14:40Z</time>
      </trkpt>
      <trkpt lat="43.76288" lon="3.53558">
        <ele>480.8</ele>
        <time>2019-05-09T12:14:48Z</time>
      </trkpt>
      <trkpt lat="43.76299" lon="3.53558">
        <ele>477.58</ele>
        <time>2019-05-09T12:15:12Z</time>
      </trkpt>
      <trkpt lat="43.76307" lon="3.53546">
        <ele>475.83</ele>
        <time>2019-05-09T12:15:16Z</time>
      </trkpt>
      <trkpt lat="43.76308" lon="3.53533">
        <ele>475.64</ele>
        <time>2019-05-09T12:15:20Z</time>
      </trkpt>
      <trkpt lat="43.76317" lon="3.53528">
        <ele>481.64</ele>
        <time>2019-05-09T12:15:28Z</time>
      </trkpt>
      <trkpt lat="43.76329" lon="3.53528">
        <ele>482.59</ele>
        <time>2019-05-09T12:15:32Z</time>
      </trkpt>
      <trkpt lat="43.76321" lon="3.53524">
        <ele>482.27</ele>
        <time>2019-05-09T12:16:00Z</time>
      </trkpt>
      <trkpt lat="43.76332" lon="3.5352">
        <ele>481.83</ele>
        <time>2019-05-09T12:16:20Z</time>
      </trkpt>
      <trkpt lat="43.76342" lon="3.5352">
        <ele>482.11</ele>
        <time>2019-05-09T12:16:26Z</time>
      </trkpt>
      <trkpt lat="43.76352" lon="3.53516">
        <ele>484.27</ele>
        <time>2019-05-09T12:16:32Z</time>
      </trkpt>
      <trkpt lat="43.76361" lon="3.53512">
        <ele>481.04</ele>
        <time>2019-05-09T12:16:38Z</time>
      </trkpt>
      <trkpt lat="43.7637" lon="3.53506">
        <ele>479.87</ele>
        <time>2019-05-09T12:16:48Z</time>
      </trkpt>
      <trkpt lat="43.7638" lon="3.53503">
        <ele>475.43</ele>
        <time>2019-05-09T12:17:00Z</time>
      </trkpt>
      <trkpt lat="43.76389" lon="3.53504">
        <ele>468.57</ele>
        <time>2019-05-09T12:17:10Z</time>
      </trkpt>
      <trkpt lat="43.76398" lon="3.53504">
        <ele>466.3</ele>
        <time>2019-05-09T12:17:20Z</time>
      </trkpt>
      <trkpt lat="43.76408" lon="3.53504">
        <ele>464.6</ele>
        <time>2019-05-09T12:17:30Z</time>
      </trkpt>
      <trkpt lat="43.76417" lon="3.53505">
        <ele>461.12</ele>
        <time>2019-05-09T12:17:42Z</time>
      </trkpt>
      <trkpt lat="43.76422" lon="3.53494">
        <ele>462.01</ele>
        <time>2019-05-09T12:18:08Z</time>
      </trkpt>
      <trkpt lat="43.7643" lon="3.53488">
        <ele>461.73</ele>
        <time>2019-05-09T12:18:16Z</time>
      </trkpt>
      <trkpt lat="43.76437" lon="3.53481">
        <ele>463.96</ele>
        <time>2019-05-09T12:18:26Z</time>
      </trkpt>
      <trkpt lat="43.76442" lon="3.53469">
        <ele>466.71</ele>
        <time>2019-05-09T12:18:48Z</time>
      </trkpt>
      <trkpt lat="43.7645" lon="3.53457">
        <ele>464.7</ele>
        <time>2019-05-09T12:19:06Z</time>
      </trkpt>
      <trkpt lat="43.76455" lon="3.53446">
        <ele>464.47</ele>
        <time>2019-05-09T12:19:12Z</time>
      </trkpt>
      <trkpt lat="43.76459" lon="3.53433">
        <ele>464.57</ele>
        <time>2019-05-09T12:19:20Z</time>
      </trkpt>
      <trkpt lat="43.76463" lon="3.53421">
        <ele>466.01</ele>
        <time>2019-05-09T12:19:28Z</time>
      </trkpt>
      <trkpt lat="43.7647" lon="3.5341">
        <ele>468.79</ele>
        <time>2019-05-09T12:19:36Z</time>
      </trkpt>
      <trkpt lat="43.76472" lon="3.53397">
        <ele>469.1</ele>
        <time>2019-05-09T12:19:42Z</time>
      </trkpt>
      <trkpt lat="43.76481" lon="3.5339">
        <ele>469.31</ele>
        <time>2019-05-09T12:19:52Z</time>
      </trkpt>
      <trkpt lat="43.7649" lon="3.53385">
        <ele>468.43</ele>
        <time>2019-05-09T12:20:04Z</time>
      </trkpt>
      <trkpt lat="43.76499" lon="3.53384">
        <ele>466.13</ele>
        <time>2019-05-09T12:20:12Z</time>
      </trkpt>
      <trkpt lat="43.76511" lon="3.53377">
        <ele>470.36</ele>
        <time>2019-05-09T12:20:20Z</time>
      </trkpt>
      <trkpt lat="43.76518" lon="3.5337">
        <ele>471.02</ele>
        <time>2019-05-09T12:20:24Z</time>
      </trkpt>
      <trkpt lat="43.76529" lon="3.53364">
        <ele>470.76</ele>
        <time>2019-05-09T12:20:30Z</time>
      </trkpt>
      <trkpt lat="43.76537" lon="3.53357">
        <ele>470.46</ele>
        <time>2019-05-09T12:20:40Z</time>
      </trkpt>
      <trkpt lat="43.76547" lon="3.53353">
        <ele>470.06</ele>
        <time>2019-05-09T12:20:46Z</time>
      </trkpt>
      <trkpt lat="43.76556" lon="3.53348">
        <ele>469.42</ele>
        <time>2019-05-09T12:20:54Z</time>
      </trkpt>
      <trkpt lat="43.76565" lon="3.53346">
        <ele>471.82</ele>
        <time>2019-05-09T12:21:08Z</time>
      </trkpt>
      <trkpt lat="43.76574" lon="3.5334">
        <ele>472.61</ele>
        <time>2019-05-09T12:21:14Z</time>
      </trkpt>
      <trkpt lat="43.76583" lon="3.53336">
        <ele>471.33</ele>
        <time>2019-05-09T12:21:20Z</time>
      </trkpt>
      <trkpt lat="43.76593" lon="3.53328">
        <ele>470.69</ele>
        <time>2019-05-09T12:21:28Z</time>
      </trkpt>
      <trkpt lat="43.76601" lon="3.53322">
        <ele>471.09</ele>
        <time>2019-05-09T12:21:34Z</time>
      </trkpt>
      <trkpt lat="43.76609" lon="3.53312">
        <ele>471.3</ele>
        <time>2019-05-09T12:21:42Z</time>
      </trkpt>
      <trkpt lat="43.76616" lon="3.53302">
        <ele>474.25</ele>
        <time>2019-05-09T12:21:50Z</time>
      </trkpt>
      <trkpt lat="43.76626" lon="3.53296">
        <ele>473.99</ele>
        <time>2019-05-09T12:21:58Z</time>
      </trkpt>
      <trkpt lat="43.76633" lon="3.53287">
        <ele>472.67</ele>
        <time>2019-05-09T12:22:06Z</time>
      </trkpt>
      <trkpt lat="43.76642" lon="3.53279">
        <ele>473.71</ele>
        <time>2019-05-09T12:22:14Z</time>
      </trkpt>
      <trkpt lat="43.7665" lon="3.53273">
        <ele>473.27</ele>
        <time>2019-05-09T12:22:22Z</time>
      </trkpt>
      <trkpt lat="43.76658" lon="3.53263">
        <ele>471.07</ele>
        <time>2019-05-09T12:22:32Z</time>
      </trkpt>
      <trkpt lat="43.76669" lon="3.53259">
        <ele>471.48</ele>
        <time>2019-05-09T12:22:40Z</time>
      </trkpt>
      <trkpt lat="43.76677" lon="3.53252">
        <ele>471.45</ele>
        <time>2019-05-09T12:22:48Z</time>
      </trkpt>
      <trkpt lat="43.76685" lon="3.53245">
        <ele>473.19</ele>
        <time>2019-05-09T12:22:56Z</time>
      </trkpt>
      <trkpt lat="43.76691" lon="3.53235">
        <ele>473.1</ele>
        <time>2019-05-09T12:23:08Z</time>
      </trkpt>
      <trkpt lat="43.767" lon="3.53226">
        <ele>474.23</ele>
        <time>2019-05-09T12:23:16Z</time>
      </trkpt>
      <trkpt lat="43.76707" lon="3.53217">
        <ele>475.12</ele>
        <time>2019-05-09T12:23:24Z</time>
      </trkpt>
      <trkpt lat="43.76714" lon="3.53207">
        <ele>472.92</ele>
        <time>2019-05-09T12:23:32Z</time>
      </trkpt>
      <trkpt lat="43.76724" lon="3.532">
        <ele>476.6</ele>
        <time>2019-05-09T12:23:40Z</time>
      </trkpt>
      <trkpt lat="43.76734" lon="3.53197">
        <ele>477.52</ele>
        <time>2019-05-09T12:23:48Z</time>
      </trkpt>
      <trkpt lat="43.76746" lon="3.53195">
        <ele>477.64</ele>
        <time>2019-05-09T12:23:56Z</time>
      </trkpt>
      <trkpt lat="43.76756" lon="3.53198">
        <ele>476.08</ele>
        <time>2019-05-09T12:24:04Z</time>
      </trkpt>
      <trkpt lat="43.76764" lon="3.53205">
        <ele>478.48</ele>
        <time>2019-05-09T12:24:12Z</time>
      </trkpt>
      <trkpt lat="43.76773" lon="3.53212">
        <ele>479.51</ele>
        <time>2019-05-09T12:24:20Z</time>
      </trkpt>
      <trkpt lat="43.76784" lon="3.53209">
        <ele>478.73</ele>
        <time>2019-05-09T12:24:30Z</time>
      </trkpt>
      <trkpt lat="43.76794" lon="3.5321">
        <ele>479.46</ele>
        <time>2019-05-09T12:24:38Z</time>
      </trkpt>
      <trkpt lat="43.76804" lon="3.53202">
        <ele>476.64</ele>
        <time>2019-05-09T12:25:32Z</time>
      </trkpt>
      <trkpt lat="43.76807" lon="3.5319">
        <ele>477.71</ele>
        <time>2019-05-09T12:25:38Z</time>
      </trkpt>
      <trkpt lat="43.76814" lon="3.53178">
        <ele>478.4</ele>
        <time>2019-05-09T12:25:46Z</time>
      </trkpt>
      <trkpt lat="43.76821" lon="3.5317">
        <ele>478.42</ele>
        <time>2019-05-09T12:25:56Z</time>
      </trkpt>
      <trkpt lat="43.76831" lon="3.53166">
        <ele>478.2</ele>
        <time>2019-05-09T12:26:14Z</time>
      </trkpt>
      <trkpt lat="43.76843" lon="3.53166">
        <ele>479.18</ele>
        <time>2019-05-09T12:26:22Z</time>
      </trkpt>
      <trkpt lat="43.76852" lon="3.53162">
        <ele>478.9</ele>
        <time>2019-05-09T12:26:28Z</time>
      </trkpt>
      <trkpt lat="43.76861" lon="3.53156">
        <ele>479.1</ele>
        <time>2019-05-09T12:26:36Z</time>
      </trkpt>
      <trkpt lat="43.76871" lon="3.53149">
        <ele>479.36</ele>
        <time>2019-05-09T12:26:44Z</time>
      </trkpt>
      <trkpt lat="43.76881" lon="3.53142">
        <ele>480.56</ele>
        <time>2019-05-09T12:26:52Z</time>
      </trkpt>
      <trkpt lat="43.7689" lon="3.53137">
        <ele>482.08</ele>
        <time>2019-05-09T12:27:00Z</time>
      </trkpt>
      <trkpt lat="43.76897" lon="3.5313">
        <ele>483.48</ele>
        <time>2019-05-09T12:27:08Z</time>
      </trkpt>
      <trkpt lat="43.76905" lon="3.5312">
        <ele>482.38</ele>
        <time>2019-05-09T12:27:16Z</time>
      </trkpt>
      <trkpt lat="43.76915" lon="3.5312">
        <ele>483.44</ele>
        <time>2019-05-09T12:27:24Z</time>
      </trkpt>
      <trkpt lat="43.76924" lon="3.5312">
        <ele>484.44</ele>
        <time>2019-05-09T12:27:32Z</time>
      </trkpt>
      <trkpt lat="43.76934" lon="3.53118">
        <ele>485.88</ele>
        <time>2019-05-09T12:27:40Z</time>
      </trkpt>
      <trkpt lat="43.76945" lon="3.53116">
        <ele>488.68</ele>
        <time>2019-05-09T12:27:50Z</time>
      </trkpt>
      <trkpt lat="43.76953" lon="3.53107">
        <ele>489.33</ele>
        <time>2019-05-09T12:28:00Z</time>
      </trkpt>
      <trkpt lat="43.76956" lon="3.53093">
        <ele>490.75</ele>
        <time>2019-05-09T12:28:08Z</time>
      </trkpt>
      <trkpt lat="43.76955" lon="3.5308">
        <ele>491.46</ele>
        <time>2019-05-09T12:28:16Z</time>
      </trkpt>
      <trkpt lat="43.76962" lon="3.5307">
        <ele>489.69</ele>
        <time>2019-05-09T12:28:24Z</time>
      </trkpt>
      <trkpt lat="43.76971" lon="3.53068">
        <ele>490.39</ele>
        <time>2019-05-09T12:28:38Z</time>
      </trkpt>
      <trkpt lat="43.76979" lon="3.53077">
        <ele>489.5</ele>
        <time>2019-05-09T12:28:46Z</time>
      </trkpt>
      <trkpt lat="43.76988" lon="3.5308">
        <ele>490.95</ele>
        <time>2019-05-09T12:28:56Z</time>
      </trkpt>
      <trkpt lat="43.76998" lon="3.53088">
        <ele>495.54</ele>
        <time>2019-05-09T12:29:04Z</time>
      </trkpt>
      <trkpt lat="43.77005" lon="3.53098">
        <ele>494.7</ele>
        <time>2019-05-09T12:29:12Z</time>
      </trkpt>
      <trkpt lat="43.77015" lon="3.53108">
        <ele>491.27</ele>
        <time>2019-05-09T12:29:20Z</time>
      </trkpt>
      <trkpt lat="43.77025" lon="3.53117">
        <ele>490.5</ele>
        <time>2019-05-09T12:29:28Z</time>
      </trkpt>
      <trkpt lat="43.7703" lon="3.5313">
        <ele>490.11</ele>
        <time>2019-05-09T12:29:38Z</time>
      </trkpt>
      <trkpt lat="43.77032" lon="3.53143">
        <ele>491.05</ele>
        <time>2019-05-09T12:29:46Z</time>
      </trkpt>
      <trkpt lat="43.7704" lon="3.53153">
        <ele>490.81</ele>
        <time>2019-05-09T12:29:56Z</time>
      </trkpt>
      <trkpt lat="43.7705" lon="3.5315">
        <ele>491.47</ele>
        <time>2019-05-09T12:30:04Z</time>
      </trkpt>
      <trkpt lat="43.77059" lon="3.53145">
        <ele>493.57</ele>
        <time>2019-05-09T12:30:14Z</time>
      </trkpt>
      <trkpt lat="43.77068" lon="3.53145">
        <ele>493.2</ele>
        <time>2019-05-09T12:30:22Z</time>
      </trkpt>
      <trkpt lat="43.77079" lon="3.53142">
        <ele>494.32</ele>
        <time>2019-05-09T12:30:32Z</time>
      </trkpt>
      <trkpt lat="43.77089" lon="3.53138">
        <ele>496.23</ele>
        <time>2019-05-09T12:30:42Z</time>
      </trkpt>
      <trkpt lat="43.77099" lon="3.53141">
        <ele>496.35</ele>
        <time>2019-05-09T12:30:52Z</time>
      </trkpt>
      <trkpt lat="43.77108" lon="3.53143">
        <ele>496.31</ele>
        <time>2019-05-09T12:31:00Z</time>
      </trkpt>
      <trkpt lat="43.77119" lon="3.53145">
        <ele>498.37</ele>
        <time>2019-05-09T12:31:08Z</time>
      </trkpt>
      <trkpt lat="43.77128" lon="3.53148">
        <ele>499.13</ele>
        <time>2019-05-09T12:31:16Z</time>
      </trkpt>
      <trkpt lat="43.77138" lon="3.53148">
        <ele>498.11</ele>
        <time>2019-05-09T12:31:24Z</time>
      </trkpt>
      <trkpt lat="43.77148" lon="3.53154">
        <ele>498.94</ele>
        <time>2019-05-09T12:31:34Z</time>
      </trkpt>
      <trkpt lat="43.77158" lon="3.53162">
        <ele>500.22</ele>
        <time>2019-05-09T12:31:42Z</time>
      </trkpt>
      <trkpt lat="43.77163" lon="3.53173">
        <ele>501.3</ele>
        <time>2019-05-09T12:31:50Z</time>
      </trkpt>
      <trkpt lat="43.7717" lon="3.53184">
        <ele>502.82</ele>
        <time>2019-05-09T12:32:00Z</time>
      </trkpt>
      <trkpt lat="43.77178" lon="3.53191">
        <ele>503.74</ele>
        <time>2019-05-09T12:32:10Z</time>
      </trkpt>
      <trkpt lat="43.77187" lon="3.53187">
        <ele>506.19</ele>
        <time>2019-05-09T12:32:22Z</time>
      </trkpt>
      <trkpt lat="43.77198" lon="3.53187">
        <ele>505.66</ele>
        <time>2019-05-09T12:32:32Z</time>
      </trkpt>
      <trkpt lat="43.77207" lon="3.53192">
        <ele>507.69</ele>
        <time>2019-05-09T12:32:54Z</time>
      </trkpt>
      <trkpt lat="43.77216" lon="3.53186">
        <ele>505.86</ele>
        <time>2019-05-09T12:33:06Z</time>
      </trkpt>
      <trkpt lat="43.77225" lon="3.53181">
        <ele>507.19</ele>
        <time>2019-05-09T12:33:18Z</time>
      </trkpt>
      <trkpt lat="43.77234" lon="3.53181">
        <ele>507.45</ele>
        <time>2019-05-09T12:33:50Z</time>
      </trkpt>
      <trkpt lat="43.77243" lon="3.53191">
        <ele>506.26</ele>
        <time>2019-05-09T12:33:58Z</time>
      </trkpt>
      <trkpt lat="43.77246" lon="3.53202">
        <ele>506.68</ele>
        <time>2019-05-09T12:34:06Z</time>
      </trkpt>
      <trkpt lat="43.77257" lon="3.53203">
        <ele>508.8</ele>
        <time>2019-05-09T12:34:16Z</time>
      </trkpt>
      <trkpt lat="43.77264" lon="3.53196">
        <ele>509.55</ele>
        <time>2019-05-09T12:34:26Z</time>
      </trkpt>
      <trkpt lat="43.77275" lon="3.5319">
        <ele>508.33</ele>
        <time>2019-05-09T12:34:36Z</time>
      </trkpt>
      <trkpt lat="43.77285" lon="3.5319">
        <ele>509.03</ele>
        <time>2019-05-09T12:34:48Z</time>
      </trkpt>
      <trkpt lat="43.77295" lon="3.53189">
        <ele>513.65</ele>
        <time>2019-05-09T12:34:58Z</time>
      </trkpt>
      <trkpt lat="43.77305" lon="3.53188">
        <ele>516.39</ele>
        <time>2019-05-09T12:35:06Z</time>
      </trkpt>
      <trkpt lat="43.77315" lon="3.53185">
        <ele>516.32</ele>
        <time>2019-05-09T12:35:14Z</time>
      </trkpt>
      <trkpt lat="43.77324" lon="3.53178">
        <ele>515.94</ele>
        <time>2019-05-09T12:35:22Z</time>
      </trkpt>
      <trkpt lat="43.77332" lon="3.53173">
        <ele>517.39</ele>
        <time>2019-05-09T12:35:36Z</time>
      </trkpt>
      <trkpt lat="43.77342" lon="3.53172">
        <ele>517.69</ele>
        <time>2019-05-09T12:35:44Z</time>
      </trkpt>
      <trkpt lat="43.77352" lon="3.53173">
        <ele>519.64</ele>
        <time>2019-05-09T12:35:54Z</time>
      </trkpt>
      <trkpt lat="43.77362" lon="3.53174">
        <ele>519.02</ele>
        <time>2019-05-09T12:36:08Z</time>
      </trkpt>
      <trkpt lat="43.77372" lon="3.53171">
        <ele>519.32</ele>
        <time>2019-05-09T12:36:24Z</time>
      </trkpt>
      <trkpt lat="43.77382" lon="3.53169">
        <ele>520.07</ele>
        <time>2019-05-09T12:36:34Z</time>
      </trkpt>
      <trkpt lat="43.77384" lon="3.53155">
        <ele>528.13</ele>
        <time>2019-05-09T12:37:14Z</time>
      </trkpt>
      <trkpt lat="43.77391" lon="3.53165">
        <ele>527.99</ele>
        <time>2019-05-09T12:37:58Z</time>
      </trkpt>
      <trkpt lat="43.77381" lon="3.53172">
        <ele>524.9</ele>
        <time>2019-05-09T12:38:10Z</time>
      </trkpt>
      <trkpt lat="43.77371" lon="3.5317">
        <ele>525.49</ele>
        <time>2019-05-09T12:38:16Z</time>
      </trkpt>
      <trkpt lat="43.7736" lon="3.53169">
        <ele>524.7</ele>
        <time>2019-05-09T12:38:24Z</time>
      </trkpt>
      <trkpt lat="43.77352" lon="3.53163">
        <ele>521.05</ele>
        <time>2019-05-09T12:38:42Z</time>
      </trkpt>
      <trkpt lat="43.77361" lon="3.53169">
        <ele>524.36</ele>
        <time>2019-05-09T12:39:18Z</time>
      </trkpt>
      <trkpt lat="43.7737" lon="3.53165">
        <ele>524.88</ele>
        <time>2019-05-09T12:39:34Z</time>
      </trkpt>
      <trkpt lat="43.77378" lon="3.53158">
        <ele>526.86</ele>
        <time>2019-05-09T12:39:46Z</time>
      </trkpt>
      <trkpt lat="43.77387" lon="3.53152">
        <ele>525.72</ele>
        <time>2019-05-09T12:40:00Z</time>
      </trkpt>
      <trkpt lat="43.77377" lon="3.53157">
        <ele>527.85</ele>
        <time>2019-05-09T12:40:34Z</time>
      </trkpt>
      <trkpt lat="43.77367" lon="3.53151">
        <ele>525.52</ele>
        <time>2019-05-09T12:40:44Z</time>
      </trkpt>
      <trkpt lat="43.77371" lon="3.53138">
        <ele>519.76</ele>
        <time>2019-05-09T12:41:02Z</time>
      </trkpt>
      <trkpt lat="43.77373" lon="3.53124">
        <ele>520.6</ele>
        <time>2019-05-09T12:41:22Z</time>
      </trkpt>
      <trkpt lat="43.77372" lon="3.53111">
        <ele>521.7</ele>
        <time>2019-05-09T12:41:34Z</time>
      </trkpt>
      <trkpt lat="43.77375" lon="3.53099">
        <ele>519.6</ele>
        <time>2019-05-09T12:41:52Z</time>
      </trkpt>
      <trkpt lat="43.77419" lon="3.5311">
        <ele>528.58</ele>
        <time>2019-05-09T12:44:58Z</time>
      </trkpt>
      <trkpt lat="43.77361" lon="3.53095">
        <ele>530.58</ele>
        <time>2019-05-09T12:45:07Z</time>
      </trkpt>
      <trkpt lat="43.7737" lon="3.53095">
        <ele>530.83</ele>
        <time>2019-05-09T12:45:11Z</time>
      </trkpt>
      <trkpt lat="43.77372" lon="3.53108">
        <ele>527.08</ele>
        <time>2019-05-09T12:45:49Z</time>
      </trkpt>
      <trkpt lat="43.77374" lon="3.53121">
        <ele>519.73</ele>
        <time>2019-05-09T12:45:57Z</time>
      </trkpt>
      <trkpt lat="43.77371" lon="3.53133">
        <ele>520.59</ele>
        <time>2019-05-09T12:46:05Z</time>
      </trkpt>
      <trkpt lat="43.77368" lon="3.53146">
        <ele>519.05</ele>
        <time>2019-05-09T12:46:15Z</time>
      </trkpt>
      <trkpt lat="43.77369" lon="3.53159">
        <ele>526.14</ele>
        <time>2019-05-09T12:46:22Z</time>
      </trkpt>
      <trkpt lat="43.77373" lon="3.53171">
        <ele>525.21</ele>
        <time>2019-05-09T12:47:06Z</time>
      </trkpt>
      <trkpt lat="43.77383" lon="3.53171">
        <ele>524.85</ele>
        <time>2019-05-09T12:47:16Z</time>
      </trkpt>
      <trkpt lat="43.77392" lon="3.5317">
        <ele>528.03</ele>
        <time>2019-05-09T12:47:24Z</time>
      </trkpt>
      <trkpt lat="43.77402" lon="3.53167">
        <ele>530.42</ele>
        <time>2019-05-09T12:47:32Z</time>
      </trkpt>
      <trkpt lat="43.77412" lon="3.53163">
        <ele>532.44</ele>
        <time>2019-05-09T12:47:40Z</time>
      </trkpt>
      <trkpt lat="43.77422" lon="3.53161">
        <ele>534.06</ele>
        <time>2019-05-09T12:47:52Z</time>
      </trkpt>
      <trkpt lat="43.77433" lon="3.53158">
        <ele>534.4</ele>
        <time>2019-05-09T12:48:02Z</time>
      </trkpt>
      <trkpt lat="43.77442" lon="3.53156">
        <ele>534.94</ele>
        <time>2019-05-09T12:48:10Z</time>
      </trkpt>
      <trkpt lat="43.77452" lon="3.53151">
        <ele>536.49</ele>
        <time>2019-05-09T12:48:20Z</time>
      </trkpt>
      <trkpt lat="43.77459" lon="3.53142">
        <ele>540.23</ele>
        <time>2019-05-09T12:48:30Z</time>
      </trkpt>
      <trkpt lat="43.77465" lon="3.53132">
        <ele>541.62</ele>
        <time>2019-05-09T12:48:38Z</time>
      </trkpt>
      <trkpt lat="43.77472" lon="3.53121">
        <ele>541.86</ele>
        <time>2019-05-09T12:48:48Z</time>
      </trkpt>
      <trkpt lat="43.77473" lon="3.53108">
        <ele>542.97</ele>
        <time>2019-05-09T12:48:56Z</time>
      </trkpt>
      <trkpt lat="43.77474" lon="3.53096">
        <ele>544.41</ele>
        <time>2019-05-09T12:49:04Z</time>
      </trkpt>
      <trkpt lat="43.77484" lon="3.5309">
        <ele>546.42</ele>
        <time>2019-05-09T12:49:14Z</time>
      </trkpt>
      <trkpt lat="43.77493" lon="3.53087">
        <ele>545.98</ele>
        <time>2019-05-09T12:49:26Z</time>
      </trkpt>
      <trkpt lat="43.77503" lon="3.53084">
        <ele>550.55</ele>
        <time>2019-05-09T12:49:38Z</time>
      </trkpt>
      <trkpt lat="43.77512" lon="3.53078">
        <ele>551.56</ele>
        <time>2019-05-09T12:49:50Z</time>
      </trkpt>
      <trkpt lat="43.77521" lon="3.53076">
        <ele>556.22</ele>
        <time>2019-05-09T12:50:02Z</time>
      </trkpt>
      <trkpt lat="43.77531" lon="3.53076">
        <ele>556.95</ele>
        <time>2019-05-09T12:50:14Z</time>
      </trkpt>
      <trkpt lat="43.7754" lon="3.53076">
        <ele>556.53</ele>
        <time>2019-05-09T12:50:24Z</time>
      </trkpt>
      <trkpt lat="43.77545" lon="3.53087">
        <ele>559.09</ele>
        <time>2019-05-09T12:50:36Z</time>
      </trkpt>
      <trkpt lat="43.77544" lon="3.53102">
        <ele>561.11</ele>
        <time>2019-05-09T12:50:44Z</time>
      </trkpt>
      <trkpt lat="43.77546" lon="3.53116">
        <ele>559.75</ele>
        <time>2019-05-09T12:50:54Z</time>
      </trkpt>
      <trkpt lat="43.77549" lon="3.53129">
        <ele>557.15</ele>
        <time>2019-05-09T12:51:02Z</time>
      </trkpt>
      <trkpt lat="43.7755" lon="3.53145">
        <ele>555.8</ele>
        <time>2019-05-09T12:51:10Z</time>
      </trkpt>
      <trkpt lat="43.77553" lon="3.53159">
        <ele>556.9</ele>
        <time>2019-05-09T12:51:18Z</time>
      </trkpt>
      <trkpt lat="43.77558" lon="3.53172">
        <ele>556.6</ele>
        <time>2019-05-09T12:51:26Z</time>
      </trkpt>
      <trkpt lat="43.77562" lon="3.53184">
        <ele>556.64</ele>
        <time>2019-05-09T12:51:34Z</time>
      </trkpt>
      <trkpt lat="43.77567" lon="3.53196">
        <ele>556.33</ele>
        <time>2019-05-09T12:51:42Z</time>
      </trkpt>
      <trkpt lat="43.7757" lon="3.53208">
        <ele>557.44</ele>
        <time>2019-05-09T12:51:50Z</time>
      </trkpt>
      <trkpt lat="43.7757" lon="3.53221">
        <ele>560.57</ele>
        <time>2019-05-09T12:51:58Z</time>
      </trkpt>
      <trkpt lat="43.77572" lon="3.53238">
        <ele>557.95</ele>
        <time>2019-05-09T12:52:06Z</time>
      </trkpt>
      <trkpt lat="43.77575" lon="3.5325">
        <ele>554.5</ele>
        <time>2019-05-09T12:52:12Z</time>
      </trkpt>
      <trkpt lat="43.77577" lon="3.53265">
        <ele>552.88</ele>
        <time>2019-05-09T12:52:20Z</time>
      </trkpt>
      <trkpt lat="43.7758" lon="3.53276">
        <ele>551.49</ele>
        <time>2019-05-09T12:52:26Z</time>
      </trkpt>
      <trkpt lat="43.77582" lon="3.53292">
        <ele>551.13</ele>
        <time>2019-05-09T12:52:34Z</time>
      </trkpt>
      <trkpt lat="43.77584" lon="3.53306">
        <ele>553.61</ele>
        <time>2019-05-09T12:52:42Z</time>
      </trkpt>
      <trkpt lat="43.77586" lon="3.5332">
        <ele>552.58</ele>
        <time>2019-05-09T12:52:50Z</time>
      </trkpt>
      <trkpt lat="43.77587" lon="3.53336">
        <ele>549.51</ele>
        <time>2019-05-09T12:52:58Z</time>
      </trkpt>
      <trkpt lat="43.77589" lon="3.53349">
        <ele>547.62</ele>
        <time>2019-05-09T12:53:10Z</time>
      </trkpt>
      <trkpt lat="43.77592" lon="3.53363">
        <ele>546.77</ele>
        <time>2019-05-09T12:53:18Z</time>
      </trkpt>
      <trkpt lat="43.77597" lon="3.53375">
        <ele>546.96</ele>
        <time>2019-05-09T12:53:26Z</time>
      </trkpt>
      <trkpt lat="43.77601" lon="3.53389">
        <ele>545.85</ele>
        <time>2019-05-09T12:53:34Z</time>
      </trkpt>
      <trkpt lat="43.77606" lon="3.53403">
        <ele>546.09</ele>
        <time>2019-05-09T12:53:42Z</time>
      </trkpt>
      <trkpt lat="43.77612" lon="3.53416">
        <ele>545.73</ele>
        <time>2019-05-09T12:53:50Z</time>
      </trkpt>
      <trkpt lat="43.77618" lon="3.53426">
        <ele>545.85</ele>
        <time>2019-05-09T12:53:56Z</time>
      </trkpt>
      <trkpt lat="43.77622" lon="3.53438">
        <ele>544.24</ele>
        <time>2019-05-09T12:54:02Z</time>
      </trkpt>
      <trkpt lat="43.77626" lon="3.53452">
        <ele>543.68</ele>
        <time>2019-05-09T12:54:10Z</time>
      </trkpt>
      <trkpt lat="43.77629" lon="3.53466">
        <ele>542.27</ele>
        <time>2019-05-09T12:54:18Z</time>
      </trkpt>
      <trkpt lat="43.77632" lon="3.53481">
        <ele>542.5</ele>
        <time>2019-05-09T12:54:26Z</time>
      </trkpt>
      <trkpt lat="43.77637" lon="3.53493">
        <ele>542.57</ele>
        <time>2019-05-09T12:54:34Z</time>
      </trkpt>
      <trkpt lat="43.77642" lon="3.53506">
        <ele>542.58</ele>
        <time>2019-05-09T12:54:42Z</time>
      </trkpt>
      <trkpt lat="43.77648" lon="3.53517">
        <ele>544.76</ele>
        <time>2019-05-09T12:54:50Z</time>
      </trkpt>
      <trkpt lat="43.77651" lon="3.53531">
        <ele>545.15</ele>
        <time>2019-05-09T12:54:58Z</time>
      </trkpt>
      <trkpt lat="43.77654" lon="3.53544">
        <ele>545.05</ele>
        <time>2019-05-09T12:55:06Z</time>
      </trkpt>
      <trkpt lat="43.77657" lon="3.53556">
        <ele>545.48</ele>
        <time>2019-05-09T12:55:14Z</time>
      </trkpt>
      <trkpt lat="43.77661" lon="3.53569">
        <ele>545.26</ele>
        <time>2019-05-09T12:55:22Z</time>
      </trkpt>
      <trkpt lat="43.77667" lon="3.53581">
        <ele>544.49</ele>
        <time>2019-05-09T12:55:30Z</time>
      </trkpt>
      <trkpt lat="43.77672" lon="3.53595">
        <ele>543.09</ele>
        <time>2019-05-09T12:55:56Z</time>
      </trkpt>
      <trkpt lat="43.77676" lon="3.53608">
        <ele>542.67</ele>
        <time>2019-05-09T12:56:04Z</time>
      </trkpt>
      <trkpt lat="43.77682" lon="3.53619">
        <ele>542.58</ele>
        <time>2019-05-09T12:56:12Z</time>
      </trkpt>
      <trkpt lat="43.77688" lon="3.53632">
        <ele>543.45</ele>
        <time>2019-05-09T12:56:20Z</time>
      </trkpt>
      <trkpt lat="43.77695" lon="3.53643">
        <ele>543.38</ele>
        <time>2019-05-09T12:56:28Z</time>
      </trkpt>
      <trkpt lat="43.77701" lon="3.53656">
        <ele>544.5</ele>
        <time>2019-05-09T12:56:36Z</time>
      </trkpt>
      <trkpt lat="43.77709" lon="3.53669">
        <ele>544.57</ele>
        <time>2019-05-09T12:56:44Z</time>
      </trkpt>
      <trkpt lat="43.77715" lon="3.53681">
        <ele>543.64</ele>
        <time>2019-05-09T12:56:52Z</time>
      </trkpt>
      <trkpt lat="43.77721" lon="3.53695">
        <ele>544.52</ele>
        <time>2019-05-09T12:57:00Z</time>
      </trkpt>
      <trkpt lat="43.77731" lon="3.53702">
        <ele>544.64</ele>
        <time>2019-05-09T12:57:08Z</time>
      </trkpt>
      <trkpt lat="43.7774" lon="3.5371">
        <ele>543.64</ele>
        <time>2019-05-09T12:57:16Z</time>
      </trkpt>
      <trkpt lat="43.77745" lon="3.5372">
        <ele>542.89</ele>
        <time>2019-05-09T12:57:24Z</time>
      </trkpt>
      <trkpt lat="43.77746" lon="3.53734">
        <ele>543.47</ele>
        <time>2019-05-09T12:57:32Z</time>
      </trkpt>
      <trkpt lat="43.77749" lon="3.53747">
        <ele>542.63</ele>
        <time>2019-05-09T12:57:40Z</time>
      </trkpt>
      <trkpt lat="43.77749" lon="3.5376">
        <ele>543.33</ele>
        <time>2019-05-09T12:57:48Z</time>
      </trkpt>
      <trkpt lat="43.7774" lon="3.53769">
        <ele>543.88</ele>
        <time>2019-05-09T12:58:04Z</time>
      </trkpt>
      <trkpt lat="43.77732" lon="3.53779">
        <ele>543.1</ele>
        <time>2019-05-09T12:58:12Z</time>
      </trkpt>
      <trkpt lat="43.77722" lon="3.5378">
        <ele>545.62</ele>
        <time>2019-05-09T12:58:22Z</time>
      </trkpt>
      <trkpt lat="43.77712" lon="3.53777">
        <ele>545.58</ele>
        <time>2019-05-09T12:58:28Z</time>
      </trkpt>
      <trkpt lat="43.77702" lon="3.53774">
        <ele>545.83</ele>
        <time>2019-05-09T12:58:34Z</time>
      </trkpt>
      <trkpt lat="43.77693" lon="3.53772">
        <ele>542.71</ele>
        <time>2019-05-09T12:58:46Z</time>
      </trkpt>
      <trkpt lat="43.77682" lon="3.53777">
        <ele>540.94</ele>
        <time>2019-05-09T12:58:58Z</time>
      </trkpt>
      <trkpt lat="43.77673" lon="3.53784">
        <ele>538.87</ele>
        <time>2019-05-09T12:59:04Z</time>
      </trkpt>
      <trkpt lat="43.77668" lon="3.53795">
        <ele>532.6</ele>
        <time>2019-05-09T12:59:12Z</time>
      </trkpt>
      <trkpt lat="43.77675" lon="3.53803">
        <ele>531.58</ele>
        <time>2019-05-09T12:59:42Z</time>
      </trkpt>
      <trkpt lat="43.77682" lon="3.53816">
        <ele>531.64</ele>
        <time>2019-05-09T12:59:56Z</time>
      </trkpt>
      <trkpt lat="43.77686" lon="3.53827">
        <ele>532.02</ele>
        <time>2019-05-09T13:00:04Z</time>
      </trkpt>
      <trkpt lat="43.77694" lon="3.53836">
        <ele>529.73</ele>
        <time>2019-05-09T13:00:12Z</time>
      </trkpt>
      <trkpt lat="43.777" lon="3.53847">
        <ele>531.65</ele>
        <time>2019-05-09T13:00:20Z</time>
      </trkpt>
      <trkpt lat="43.77707" lon="3.53859">
        <ele>532.77</ele>
        <time>2019-05-09T13:00:28Z</time>
      </trkpt>
      <trkpt lat="43.77712" lon="3.53873">
        <ele>534.71</ele>
        <time>2019-05-09T13:00:36Z</time>
      </trkpt>
      <trkpt lat="43.77719" lon="3.53885">
        <ele>535.68</ele>
        <time>2019-05-09T13:00:46Z</time>
      </trkpt>
      <trkpt lat="43.77728" lon="3.53895">
        <ele>534.08</ele>
        <time>2019-05-09T13:00:54Z</time>
      </trkpt>
      <trkpt lat="43.77735" lon="3.53906">
        <ele>534.8</ele>
        <time>2019-05-09T13:01:02Z</time>
      </trkpt>
      <trkpt lat="43.7774" lon="3.53919">
        <ele>536.65</ele>
        <time>2019-05-09T13:01:10Z</time>
      </trkpt>
      <trkpt lat="43.77744" lon="3.53932">
        <ele>539.39</ele>
        <time>2019-05-09T13:01:18Z</time>
      </trkpt>
      <trkpt lat="43.77748" lon="3.53944">
        <ele>541.88</ele>
        <time>2019-05-09T13:01:26Z</time>
      </trkpt>
      <trkpt lat="43.77756" lon="3.5395">
        <ele>543.53</ele>
        <time>2019-05-09T13:01:34Z</time>
      </trkpt>
      <trkpt lat="43.77767" lon="3.53949">
        <ele>544.08</ele>
        <time>2019-05-09T13:01:48Z</time>
      </trkpt>
      <trkpt lat="43.77776" lon="3.53947">
        <ele>545.92</ele>
        <time>2019-05-09T13:01:56Z</time>
      </trkpt>
      <trkpt lat="43.77786" lon="3.53947">
        <ele>545.85</ele>
        <time>2019-05-09T13:02:04Z</time>
      </trkpt>
      <trkpt lat="43.77796" lon="3.53945">
        <ele>545.41</ele>
        <time>2019-05-09T13:02:12Z</time>
      </trkpt>
      <trkpt lat="43.77805" lon="3.53949">
        <ele>549.69</ele>
        <time>2019-05-09T13:02:20Z</time>
      </trkpt>
      <trkpt lat="43.77814" lon="3.53957">
        <ele>549.58</ele>
        <time>2019-05-09T13:02:28Z</time>
      </trkpt>
      <trkpt lat="43.77821" lon="3.53966">
        <ele>551.39</ele>
        <time>2019-05-09T13:02:36Z</time>
      </trkpt>
      <trkpt lat="43.7783" lon="3.53978">
        <ele>556.65</ele>
        <time>2019-05-09T13:02:48Z</time>
      </trkpt>
      <trkpt lat="43.77836" lon="3.53987">
        <ele>558.33</ele>
        <time>2019-05-09T13:02:56Z</time>
      </trkpt>
      <trkpt lat="43.77829" lon="3.53977">
        <ele>553.19</ele>
        <time>2019-05-09T13:03:04Z</time>
      </trkpt>
      <trkpt lat="43.77837" lon="3.53987">
        <ele>554.1</ele>
        <time>2019-05-09T13:03:28Z</time>
      </trkpt>
      <trkpt lat="43.77848" lon="3.53992">
        <ele>557.36</ele>
        <time>2019-05-09T13:03:36Z</time>
      </trkpt>
      <trkpt lat="43.77839" lon="3.53987">
        <ele>556.33</ele>
        <time>2019-05-09T13:04:02Z</time>
      </trkpt>
      <trkpt lat="43.7783" lon="3.53977">
        <ele>557.42</ele>
        <time>2019-05-09T13:04:08Z</time>
      </trkpt>
      <trkpt lat="43.7782" lon="3.53969">
        <ele>557.06</ele>
        <time>2019-05-09T13:04:14Z</time>
      </trkpt>
      <trkpt lat="43.77813" lon="3.5396">
        <ele>555.39</ele>
        <time>2019-05-09T13:04:20Z</time>
      </trkpt>
      <trkpt lat="43.77805" lon="3.53954">
        <ele>553.93</ele>
        <time>2019-05-09T13:04:26Z</time>
      </trkpt>
      <trkpt lat="43.77794" lon="3.53951">
        <ele>551.79</ele>
        <time>2019-05-09T13:04:34Z</time>
      </trkpt>
      <trkpt lat="43.77784" lon="3.53949">
        <ele>549.61</ele>
        <time>2019-05-09T13:04:44Z</time>
      </trkpt>
      <trkpt lat="43.77773" lon="3.53953">
        <ele>546.7</ele>
        <time>2019-05-09T13:04:54Z</time>
      </trkpt>
      <trkpt lat="43.7777" lon="3.53965">
        <ele>545.46</ele>
        <time>2019-05-09T13:05:02Z</time>
      </trkpt>
      <trkpt lat="43.77777" lon="3.53977">
        <ele>546.39</ele>
        <time>2019-05-09T13:05:12Z</time>
      </trkpt>
      <trkpt lat="43.77784" lon="3.53989">
        <ele>546.51</ele>
        <time>2019-05-09T13:05:22Z</time>
      </trkpt>
      <trkpt lat="43.7779" lon="3.53999">
        <ele>550.82</ele>
        <time>2019-05-09T13:05:30Z</time>
      </trkpt>
      <trkpt lat="43.77795" lon="3.54012">
        <ele>551.55</ele>
        <time>2019-05-09T13:05:40Z</time>
      </trkpt>
      <trkpt lat="43.778" lon="3.54023">
        <ele>549.17</ele>
        <time>2019-05-09T13:05:50Z</time>
      </trkpt>
      <trkpt lat="43.77804" lon="3.54037">
        <ele>550.72</ele>
        <time>2019-05-09T13:06:00Z</time>
      </trkpt>
      <trkpt lat="43.77804" lon="3.5405">
        <ele>551.64</ele>
        <time>2019-05-09T13:06:12Z</time>
      </trkpt>
    </trkseg>
  </trk>
</gpx>